<?xml version="1.0" encoding="UTF-8" standalone="no" ?>
<gpx xmlns="http://www.topografix.com/GPX/1/1" xmlns:xsi="http://www.w3.org/2001/XMLSchema-instance" xsi:schemaLocation="http://www.topografix.com/GPX/1/1 http://www.topografix.com/GPX/1/1/gpx.xsd" version="1.1" creator="VisuGPX - https://www.visugpx.com">
  <metadata>
    <name>Boucle Vialas-Vialas</name>
  </metadata>
  <trk>
    <name><![CDATA[2025-11-18 18:27:33]]></name>
    <extensions>
      <line xmlns="http://www.topografix.com/GPX/gpx_style/0/2">
        <color>0000FF</color>
        <width>4</width>
      </line>
    </extensions>
    <trkseg>
      <trkpt lat="44.33198" lon="3.89455">
        <ele>627.09</ele>
        <time>2025-11-18T09:59:59Z</time>
      </trkpt>
      <trkpt lat="44.33202" lon="3.89457">
        <ele>616.64</ele>
        <time>2025-11-18T10:02:24Z</time>
      </trkpt>
      <trkpt lat="44.33208" lon="3.89468">
        <ele>617.34</ele>
        <time>2025-11-18T10:02:35Z</time>
      </trkpt>
      <trkpt lat="44.33214" lon="3.89478">
        <ele>618.42</ele>
        <time>2025-11-18T10:02:47Z</time>
      </trkpt>
      <trkpt lat="44.33221" lon="3.89487">
        <ele>619.19</ele>
        <time>2025-11-18T10:02:57Z</time>
      </trkpt>
      <trkpt lat="44.33229" lon="3.89495">
        <ele>619.08</ele>
        <time>2025-11-18T10:03:08Z</time>
      </trkpt>
      <trkpt lat="44.33237" lon="3.89502">
        <ele>618.99</ele>
        <time>2025-11-18T10:03:18Z</time>
      </trkpt>
      <trkpt lat="44.33245" lon="3.89511">
        <ele>620.17</ele>
        <time>2025-11-18T10:03:28Z</time>
      </trkpt>
      <trkpt lat="44.33252" lon="3.89518">
        <ele>621.03</ele>
        <time>2025-11-18T10:03:39Z</time>
      </trkpt>
      <trkpt lat="44.33261" lon="3.89523">
        <ele>621.81</ele>
        <time>2025-11-18T10:03:50Z</time>
      </trkpt>
      <trkpt lat="44.33269" lon="3.89525">
        <ele>621.94</ele>
        <time>2025-11-18T10:04:01Z</time>
      </trkpt>
      <trkpt lat="44.33278" lon="3.89528">
        <ele>622.4</ele>
        <time>2025-11-18T10:04:12Z</time>
      </trkpt>
      <trkpt lat="44.33287" lon="3.89533">
        <ele>622.78</ele>
        <time>2025-11-18T10:04:24Z</time>
      </trkpt>
      <trkpt lat="44.33297" lon="3.89537">
        <ele>623.06</ele>
        <time>2025-11-18T10:04:33Z</time>
      </trkpt>
      <trkpt lat="44.33306" lon="3.89531">
        <ele>624.78</ele>
        <time>2025-11-18T10:04:46Z</time>
      </trkpt>
      <trkpt lat="44.33302" lon="3.89517">
        <ele>626.15</ele>
        <time>2025-11-18T10:04:58Z</time>
      </trkpt>
      <trkpt lat="44.33296" lon="3.89507">
        <ele>627.31</ele>
        <time>2025-11-18T10:05:09Z</time>
      </trkpt>
      <trkpt lat="44.33289" lon="3.89499">
        <ele>629.14</ele>
        <time>2025-11-18T10:05:20Z</time>
      </trkpt>
      <trkpt lat="44.33281" lon="3.89491">
        <ele>631.15</ele>
        <time>2025-11-18T10:05:32Z</time>
      </trkpt>
      <trkpt lat="44.33273" lon="3.89483">
        <ele>632.98</ele>
        <time>2025-11-18T10:05:44Z</time>
      </trkpt>
      <trkpt lat="44.33267" lon="3.89473">
        <ele>634.38</ele>
        <time>2025-11-18T10:05:55Z</time>
      </trkpt>
      <trkpt lat="44.33263" lon="3.89461">
        <ele>635.07</ele>
        <time>2025-11-18T10:06:06Z</time>
      </trkpt>
      <trkpt lat="44.3326" lon="3.89448">
        <ele>636.02</ele>
        <time>2025-11-18T10:06:23Z</time>
      </trkpt>
      <trkpt lat="44.33257" lon="3.89434">
        <ele>636.8</ele>
        <time>2025-11-18T10:06:31Z</time>
      </trkpt>
      <trkpt lat="44.33257" lon="3.89421">
        <ele>637.45</ele>
        <time>2025-11-18T10:06:38Z</time>
      </trkpt>
      <trkpt lat="44.33256" lon="3.89408">
        <ele>637.92</ele>
        <time>2025-11-18T10:06:45Z</time>
      </trkpt>
      <trkpt lat="44.33254" lon="3.89399">
        <ele>638.63</ele>
        <time>2025-11-18T10:08:08Z</time>
      </trkpt>
      <trkpt lat="44.33251" lon="3.89388">
        <ele>639.24</ele>
        <time>2025-11-18T10:08:46Z</time>
      </trkpt>
      <trkpt lat="44.33252" lon="3.89375">
        <ele>640.09</ele>
        <time>2025-11-18T10:08:55Z</time>
      </trkpt>
      <trkpt lat="44.33251" lon="3.89361">
        <ele>641.16</ele>
        <time>2025-11-18T10:09:05Z</time>
      </trkpt>
      <trkpt lat="44.33246" lon="3.89351">
        <ele>641.89</ele>
        <time>2025-11-18T10:09:14Z</time>
      </trkpt>
      <trkpt lat="44.33238" lon="3.89347">
        <ele>642.36</ele>
        <time>2025-11-18T10:09:24Z</time>
      </trkpt>
      <trkpt lat="44.33229" lon="3.89339">
        <ele>642.75</ele>
        <time>2025-11-18T10:09:34Z</time>
      </trkpt>
      <trkpt lat="44.33221" lon="3.89332">
        <ele>643.28</ele>
        <time>2025-11-18T10:09:44Z</time>
      </trkpt>
      <trkpt lat="44.33212" lon="3.89324">
        <ele>643.84</ele>
        <time>2025-11-18T10:09:55Z</time>
      </trkpt>
      <trkpt lat="44.33202" lon="3.89318">
        <ele>644.25</ele>
        <time>2025-11-18T10:10:08Z</time>
      </trkpt>
      <trkpt lat="44.33192" lon="3.89318">
        <ele>645.2</ele>
        <time>2025-11-18T10:10:19Z</time>
      </trkpt>
      <trkpt lat="44.33181" lon="3.8932">
        <ele>646.08</ele>
        <time>2025-11-18T10:10:39Z</time>
      </trkpt>
      <trkpt lat="44.33171" lon="3.89321">
        <ele>647.87</ele>
        <time>2025-11-18T10:10:50Z</time>
      </trkpt>
      <trkpt lat="44.3316" lon="3.89322">
        <ele>649.03</ele>
        <time>2025-11-18T10:11:04Z</time>
      </trkpt>
      <trkpt lat="44.33151" lon="3.8933">
        <ele>650.79</ele>
        <time>2025-11-18T10:11:18Z</time>
      </trkpt>
      <trkpt lat="44.33142" lon="3.8934">
        <ele>652.24</ele>
        <time>2025-11-18T10:11:31Z</time>
      </trkpt>
      <trkpt lat="44.33134" lon="3.8935">
        <ele>654.24</ele>
        <time>2025-11-18T10:11:46Z</time>
      </trkpt>
      <trkpt lat="44.33123" lon="3.89357">
        <ele>655.29</ele>
        <time>2025-11-18T10:11:58Z</time>
      </trkpt>
      <trkpt lat="44.33112" lon="3.89368">
        <ele>656.79</ele>
        <time>2025-11-18T10:12:13Z</time>
      </trkpt>
      <trkpt lat="44.33104" lon="3.89378">
        <ele>657.25</ele>
        <time>2025-11-18T10:12:28Z</time>
      </trkpt>
      <trkpt lat="44.33096" lon="3.89387">
        <ele>656.42</ele>
        <time>2025-11-18T10:12:47Z</time>
      </trkpt>
      <trkpt lat="44.33095" lon="3.89375">
        <ele>663.5</ele>
        <time>2025-11-18T10:23:11Z</time>
      </trkpt>
      <trkpt lat="44.33101" lon="3.89363">
        <ele>665.01</ele>
        <time>2025-11-18T10:23:23Z</time>
      </trkpt>
      <trkpt lat="44.33107" lon="3.89353">
        <ele>666.58</ele>
        <time>2025-11-18T10:23:37Z</time>
      </trkpt>
      <trkpt lat="44.33112" lon="3.89341">
        <ele>667.82</ele>
        <time>2025-11-18T10:23:52Z</time>
      </trkpt>
      <trkpt lat="44.33107" lon="3.89339">
        <ele>670.42</ele>
        <time>2025-11-18T10:24:09Z</time>
      </trkpt>
      <trkpt lat="44.33099" lon="3.89341">
        <ele>671.63</ele>
        <time>2025-11-18T10:24:27Z</time>
      </trkpt>
      <trkpt lat="44.33101" lon="3.89332">
        <ele>673.79</ele>
        <time>2025-11-18T10:24:40Z</time>
      </trkpt>
      <trkpt lat="44.33096" lon="3.89326">
        <ele>674.26</ele>
        <time>2025-11-18T10:25:25Z</time>
      </trkpt>
      <trkpt lat="44.33087" lon="3.89327">
        <ele>674.71</ele>
        <time>2025-11-18T10:25:47Z</time>
      </trkpt>
      <trkpt lat="44.33081" lon="3.89316">
        <ele>675.3</ele>
        <time>2025-11-18T10:25:59Z</time>
      </trkpt>
      <trkpt lat="44.33079" lon="3.89302">
        <ele>675.97</ele>
        <time>2025-11-18T10:26:09Z</time>
      </trkpt>
      <trkpt lat="44.33076" lon="3.89289">
        <ele>676.5</ele>
        <time>2025-11-18T10:27:06Z</time>
      </trkpt>
      <trkpt lat="44.33074" lon="3.89276">
        <ele>677.34</ele>
        <time>2025-11-18T10:27:15Z</time>
      </trkpt>
      <trkpt lat="44.33072" lon="3.89263">
        <ele>678.05</ele>
        <time>2025-11-18T10:27:24Z</time>
      </trkpt>
      <trkpt lat="44.33071" lon="3.89251">
        <ele>678.66</ele>
        <time>2025-11-18T10:27:33Z</time>
      </trkpt>
      <trkpt lat="44.3307" lon="3.89237">
        <ele>679.38</ele>
        <time>2025-11-18T10:27:43Z</time>
      </trkpt>
      <trkpt lat="44.33069" lon="3.89223">
        <ele>680</ele>
        <time>2025-11-18T10:27:53Z</time>
      </trkpt>
      <trkpt lat="44.33067" lon="3.8921">
        <ele>680.75</ele>
        <time>2025-11-18T10:28:03Z</time>
      </trkpt>
      <trkpt lat="44.33066" lon="3.89195">
        <ele>681.36</ele>
        <time>2025-11-18T10:28:14Z</time>
      </trkpt>
      <trkpt lat="44.33066" lon="3.89182">
        <ele>682.17</ele>
        <time>2025-11-18T10:28:23Z</time>
      </trkpt>
      <trkpt lat="44.33066" lon="3.89169">
        <ele>683.32</ele>
        <time>2025-11-18T10:28:43Z</time>
      </trkpt>
      <trkpt lat="44.33068" lon="3.89155">
        <ele>684.26</ele>
        <time>2025-11-18T10:28:52Z</time>
      </trkpt>
      <trkpt lat="44.33069" lon="3.89142">
        <ele>685.15</ele>
        <time>2025-11-18T10:29:01Z</time>
      </trkpt>
      <trkpt lat="44.33069" lon="3.8913">
        <ele>685.84</ele>
        <time>2025-11-18T10:29:11Z</time>
      </trkpt>
      <trkpt lat="44.33068" lon="3.89116">
        <ele>685.44</ele>
        <time>2025-11-18T10:29:21Z</time>
      </trkpt>
      <trkpt lat="44.33068" lon="3.89102">
        <ele>684.87</ele>
        <time>2025-11-18T10:29:32Z</time>
      </trkpt>
      <trkpt lat="44.3307" lon="3.89088">
        <ele>684.75</ele>
        <time>2025-11-18T10:29:42Z</time>
      </trkpt>
      <trkpt lat="44.33071" lon="3.89073">
        <ele>685.1</ele>
        <time>2025-11-18T10:29:52Z</time>
      </trkpt>
      <trkpt lat="44.33072" lon="3.89058">
        <ele>685.4</ele>
        <time>2025-11-18T10:30:01Z</time>
      </trkpt>
      <trkpt lat="44.33075" lon="3.89044">
        <ele>685.72</ele>
        <time>2025-11-18T10:30:11Z</time>
      </trkpt>
      <trkpt lat="44.33078" lon="3.8903">
        <ele>685.99</ele>
        <time>2025-11-18T10:30:21Z</time>
      </trkpt>
      <trkpt lat="44.3308" lon="3.89016">
        <ele>686.73</ele>
        <time>2025-11-18T10:30:31Z</time>
      </trkpt>
      <trkpt lat="44.33083" lon="3.89001">
        <ele>687.14</ele>
        <time>2025-11-18T10:30:41Z</time>
      </trkpt>
      <trkpt lat="44.33086" lon="3.88987">
        <ele>688.01</ele>
        <time>2025-11-18T10:30:51Z</time>
      </trkpt>
      <trkpt lat="44.33089" lon="3.88975">
        <ele>689.56</ele>
        <time>2025-11-18T10:31:02Z</time>
      </trkpt>
      <trkpt lat="44.33093" lon="3.88962">
        <ele>690.63</ele>
        <time>2025-11-18T10:31:15Z</time>
      </trkpt>
      <trkpt lat="44.33098" lon="3.88947">
        <ele>691.29</ele>
        <time>2025-11-18T10:31:28Z</time>
      </trkpt>
      <trkpt lat="44.33102" lon="3.88934">
        <ele>691.74</ele>
        <time>2025-11-18T10:31:37Z</time>
      </trkpt>
      <trkpt lat="44.33107" lon="3.88921">
        <ele>692.42</ele>
        <time>2025-11-18T10:31:46Z</time>
      </trkpt>
      <trkpt lat="44.33111" lon="3.88908">
        <ele>693.27</ele>
        <time>2025-11-18T10:31:57Z</time>
      </trkpt>
      <trkpt lat="44.33116" lon="3.88896">
        <ele>694.42</ele>
        <time>2025-11-18T10:32:09Z</time>
      </trkpt>
      <trkpt lat="44.33124" lon="3.88886">
        <ele>695.77</ele>
        <time>2025-11-18T10:32:22Z</time>
      </trkpt>
      <trkpt lat="44.33133" lon="3.88879">
        <ele>696.75</ele>
        <time>2025-11-18T10:32:36Z</time>
      </trkpt>
      <trkpt lat="44.33142" lon="3.88874">
        <ele>698.79</ele>
        <time>2025-11-18T10:32:49Z</time>
      </trkpt>
      <trkpt lat="44.33151" lon="3.88862">
        <ele>699.43</ele>
        <time>2025-11-18T10:33:01Z</time>
      </trkpt>
      <trkpt lat="44.33158" lon="3.88849">
        <ele>700.43</ele>
        <time>2025-11-18T10:33:12Z</time>
      </trkpt>
      <trkpt lat="44.33163" lon="3.88834">
        <ele>701.73</ele>
        <time>2025-11-18T10:33:26Z</time>
      </trkpt>
      <trkpt lat="44.33165" lon="3.88818">
        <ele>702.69</ele>
        <time>2025-11-18T10:33:38Z</time>
      </trkpt>
      <trkpt lat="44.33164" lon="3.88803">
        <ele>703.41</ele>
        <time>2025-11-18T10:33:50Z</time>
      </trkpt>
      <trkpt lat="44.33161" lon="3.88788">
        <ele>703.89</ele>
        <time>2025-11-18T10:34:01Z</time>
      </trkpt>
      <trkpt lat="44.3316" lon="3.88771">
        <ele>704.82</ele>
        <time>2025-11-18T10:34:13Z</time>
      </trkpt>
      <trkpt lat="44.33158" lon="3.88754">
        <ele>705.67</ele>
        <time>2025-11-18T10:34:25Z</time>
      </trkpt>
      <trkpt lat="44.33158" lon="3.88737">
        <ele>706.27</ele>
        <time>2025-11-18T10:34:37Z</time>
      </trkpt>
      <trkpt lat="44.33156" lon="3.8872">
        <ele>706.6</ele>
        <time>2025-11-18T10:34:50Z</time>
      </trkpt>
      <trkpt lat="44.33156" lon="3.88705">
        <ele>707.15</ele>
        <time>2025-11-18T10:35:04Z</time>
      </trkpt>
      <trkpt lat="44.33158" lon="3.88688">
        <ele>707.88</ele>
        <time>2025-11-18T10:35:16Z</time>
      </trkpt>
      <trkpt lat="44.33161" lon="3.88671">
        <ele>709.2</ele>
        <time>2025-11-18T10:35:28Z</time>
      </trkpt>
      <trkpt lat="44.33165" lon="3.88653">
        <ele>710.41</ele>
        <time>2025-11-18T10:35:39Z</time>
      </trkpt>
      <trkpt lat="44.33168" lon="3.88638">
        <ele>711.22</ele>
        <time>2025-11-18T10:35:51Z</time>
      </trkpt>
      <trkpt lat="44.33172" lon="3.88624">
        <ele>712.2</ele>
        <time>2025-11-18T10:36:02Z</time>
      </trkpt>
      <trkpt lat="44.33177" lon="3.8861">
        <ele>713.04</ele>
        <time>2025-11-18T10:36:15Z</time>
      </trkpt>
      <trkpt lat="44.33183" lon="3.88594">
        <ele>714.53</ele>
        <time>2025-11-18T10:36:29Z</time>
      </trkpt>
      <trkpt lat="44.33188" lon="3.88577">
        <ele>714.94</ele>
        <time>2025-11-18T10:36:44Z</time>
      </trkpt>
      <trkpt lat="44.33195" lon="3.88562">
        <ele>715.21</ele>
        <time>2025-11-18T10:36:57Z</time>
      </trkpt>
      <trkpt lat="44.33204" lon="3.88548">
        <ele>716.29</ele>
        <time>2025-11-18T10:37:09Z</time>
      </trkpt>
      <trkpt lat="44.33212" lon="3.88536">
        <ele>717.45</ele>
        <time>2025-11-18T10:37:21Z</time>
      </trkpt>
      <trkpt lat="44.3322" lon="3.88519">
        <ele>718.77</ele>
        <time>2025-11-18T10:37:33Z</time>
      </trkpt>
      <trkpt lat="44.33227" lon="3.88504">
        <ele>718.82</ele>
        <time>2025-11-18T10:37:44Z</time>
      </trkpt>
      <trkpt lat="44.33234" lon="3.88493">
        <ele>720.15</ele>
        <time>2025-11-18T10:37:56Z</time>
      </trkpt>
      <trkpt lat="44.33243" lon="3.88482">
        <ele>720.63</ele>
        <time>2025-11-18T10:38:10Z</time>
      </trkpt>
      <trkpt lat="44.33253" lon="3.88473">
        <ele>721.91</ele>
        <time>2025-11-18T10:38:24Z</time>
      </trkpt>
      <trkpt lat="44.33263" lon="3.8846">
        <ele>723.08</ele>
        <time>2025-11-18T10:38:37Z</time>
      </trkpt>
      <trkpt lat="44.33274" lon="3.88446">
        <ele>724.19</ele>
        <time>2025-11-18T10:38:55Z</time>
      </trkpt>
      <trkpt lat="44.33283" lon="3.88432">
        <ele>725.07</ele>
        <time>2025-11-18T10:39:09Z</time>
      </trkpt>
      <trkpt lat="44.33295" lon="3.8842">
        <ele>725.8</ele>
        <time>2025-11-18T10:39:23Z</time>
      </trkpt>
      <trkpt lat="44.33307" lon="3.88411">
        <ele>726.88</ele>
        <time>2025-11-18T10:39:40Z</time>
      </trkpt>
      <trkpt lat="44.3332" lon="3.88402">
        <ele>728.12</ele>
        <time>2025-11-18T10:39:53Z</time>
      </trkpt>
      <trkpt lat="44.33332" lon="3.88394">
        <ele>729.13</ele>
        <time>2025-11-18T10:40:05Z</time>
      </trkpt>
      <trkpt lat="44.33343" lon="3.88389">
        <ele>729.94</ele>
        <time>2025-11-18T10:40:17Z</time>
      </trkpt>
      <trkpt lat="44.33354" lon="3.88386">
        <ele>730.86</ele>
        <time>2025-11-18T10:40:29Z</time>
      </trkpt>
      <trkpt lat="44.33365" lon="3.88383">
        <ele>731.73</ele>
        <time>2025-11-18T10:40:42Z</time>
      </trkpt>
      <trkpt lat="44.33378" lon="3.88382">
        <ele>732.82</ele>
        <time>2025-11-18T10:40:52Z</time>
      </trkpt>
      <trkpt lat="44.33389" lon="3.88383">
        <ele>733.76</ele>
        <time>2025-11-18T10:41:02Z</time>
      </trkpt>
      <trkpt lat="44.33401" lon="3.88386">
        <ele>734.51</ele>
        <time>2025-11-18T10:41:13Z</time>
      </trkpt>
      <trkpt lat="44.33409" lon="3.88389">
        <ele>734.76</ele>
        <time>2025-11-18T10:41:50Z</time>
      </trkpt>
      <trkpt lat="44.33417" lon="3.88396">
        <ele>735.28</ele>
        <time>2025-11-18T10:42:02Z</time>
      </trkpt>
      <trkpt lat="44.33425" lon="3.88404">
        <ele>736.91</ele>
        <time>2025-11-18T10:42:30Z</time>
      </trkpt>
      <trkpt lat="44.33435" lon="3.88407">
        <ele>737.61</ele>
        <time>2025-11-18T10:42:40Z</time>
      </trkpt>
      <trkpt lat="44.33444" lon="3.88413">
        <ele>738.34</ele>
        <time>2025-11-18T10:42:50Z</time>
      </trkpt>
      <trkpt lat="44.33453" lon="3.88419">
        <ele>739.24</ele>
        <time>2025-11-18T10:43:00Z</time>
      </trkpt>
      <trkpt lat="44.33461" lon="3.88425">
        <ele>739.01</ele>
        <time>2025-11-18T10:43:10Z</time>
      </trkpt>
      <trkpt lat="44.33467" lon="3.88412">
        <ele>738.32</ele>
        <time>2025-11-18T10:43:23Z</time>
      </trkpt>
      <trkpt lat="44.33473" lon="3.88399">
        <ele>737.83</ele>
        <time>2025-11-18T10:43:37Z</time>
      </trkpt>
      <trkpt lat="44.33478" lon="3.88379">
        <ele>736.12</ele>
        <time>2025-11-18T10:43:52Z</time>
      </trkpt>
      <trkpt lat="44.33475" lon="3.88364">
        <ele>734.97</ele>
        <time>2025-11-18T10:44:02Z</time>
      </trkpt>
      <trkpt lat="44.33468" lon="3.88349">
        <ele>734.49</ele>
        <time>2025-11-18T10:44:13Z</time>
      </trkpt>
      <trkpt lat="44.33465" lon="3.88333">
        <ele>734.13</ele>
        <time>2025-11-18T10:44:24Z</time>
      </trkpt>
      <trkpt lat="44.33464" lon="3.88317">
        <ele>734.69</ele>
        <time>2025-11-18T10:44:34Z</time>
      </trkpt>
      <trkpt lat="44.33465" lon="3.88302">
        <ele>735.28</ele>
        <time>2025-11-18T10:44:46Z</time>
      </trkpt>
      <trkpt lat="44.33465" lon="3.88287">
        <ele>736.16</ele>
        <time>2025-11-18T10:45:00Z</time>
      </trkpt>
      <trkpt lat="44.33464" lon="3.88274">
        <ele>738.34</ele>
        <time>2025-11-18T10:45:16Z</time>
      </trkpt>
      <trkpt lat="44.33468" lon="3.88258">
        <ele>739.38</ele>
        <time>2025-11-18T10:45:29Z</time>
      </trkpt>
      <trkpt lat="44.33469" lon="3.88239">
        <ele>740.81</ele>
        <time>2025-11-18T10:45:42Z</time>
      </trkpt>
      <trkpt lat="44.33471" lon="3.88223">
        <ele>741.85</ele>
        <time>2025-11-18T10:46:01Z</time>
      </trkpt>
      <trkpt lat="44.3347" lon="3.88208">
        <ele>743.2</ele>
        <time>2025-11-18T10:46:16Z</time>
      </trkpt>
      <trkpt lat="44.33467" lon="3.88193">
        <ele>742.1</ele>
        <time>2025-11-18T10:46:30Z</time>
      </trkpt>
      <trkpt lat="44.33464" lon="3.88175">
        <ele>740.67</ele>
        <time>2025-11-18T10:46:42Z</time>
      </trkpt>
      <trkpt lat="44.33461" lon="3.88158">
        <ele>740.11</ele>
        <time>2025-11-18T10:46:55Z</time>
      </trkpt>
      <trkpt lat="44.3346" lon="3.88141">
        <ele>740.35</ele>
        <time>2025-11-18T10:47:13Z</time>
      </trkpt>
      <trkpt lat="44.33458" lon="3.88125">
        <ele>741.67</ele>
        <time>2025-11-18T10:47:29Z</time>
      </trkpt>
      <trkpt lat="44.33458" lon="3.88107">
        <ele>741.8</ele>
        <time>2025-11-18T10:47:47Z</time>
      </trkpt>
      <trkpt lat="44.33458" lon="3.88091">
        <ele>742.13</ele>
        <time>2025-11-18T10:48:03Z</time>
      </trkpt>
      <trkpt lat="44.33458" lon="3.88078">
        <ele>741.06</ele>
        <time>2025-11-18T10:48:22Z</time>
      </trkpt>
      <trkpt lat="44.33463" lon="3.88064">
        <ele>739.52</ele>
        <time>2025-11-18T10:48:41Z</time>
      </trkpt>
      <trkpt lat="44.33467" lon="3.88048">
        <ele>737.7</ele>
        <time>2025-11-18T10:48:56Z</time>
      </trkpt>
      <trkpt lat="44.33464" lon="3.88038">
        <ele>737.76</ele>
        <time>2025-11-18T10:49:16Z</time>
      </trkpt>
      <trkpt lat="44.33464" lon="3.88024">
        <ele>736.34</ele>
        <time>2025-11-18T10:50:26Z</time>
      </trkpt>
      <trkpt lat="44.33469" lon="3.8801">
        <ele>734.3</ele>
        <time>2025-11-18T10:50:47Z</time>
      </trkpt>
      <trkpt lat="44.33475" lon="3.87996">
        <ele>731.69</ele>
        <time>2025-11-18T10:51:01Z</time>
      </trkpt>
      <trkpt lat="44.33479" lon="3.87982">
        <ele>729.61</ele>
        <time>2025-11-18T10:51:15Z</time>
      </trkpt>
      <trkpt lat="44.33478" lon="3.87967">
        <ele>726.28</ele>
        <time>2025-11-18T10:51:37Z</time>
      </trkpt>
      <trkpt lat="44.33481" lon="3.87952">
        <ele>723.21</ele>
        <time>2025-11-18T10:51:53Z</time>
      </trkpt>
      <trkpt lat="44.33486" lon="3.87938">
        <ele>720.77</ele>
        <time>2025-11-18T10:52:12Z</time>
      </trkpt>
      <trkpt lat="44.33494" lon="3.87927">
        <ele>718.45</ele>
        <time>2025-11-18T10:52:34Z</time>
      </trkpt>
      <trkpt lat="44.33504" lon="3.87925">
        <ele>718.65</ele>
        <time>2025-11-18T10:52:53Z</time>
      </trkpt>
      <trkpt lat="44.33511" lon="3.87924">
        <ele>719.24</ele>
        <time>2025-11-18T10:53:22Z</time>
      </trkpt>
      <trkpt lat="44.33517" lon="3.87906">
        <ele>719.14</ele>
        <time>2025-11-18T10:53:35Z</time>
      </trkpt>
      <trkpt lat="44.33524" lon="3.8789">
        <ele>719.59</ele>
        <time>2025-11-18T10:53:46Z</time>
      </trkpt>
      <trkpt lat="44.33531" lon="3.87878">
        <ele>719.71</ele>
        <time>2025-11-18T10:53:57Z</time>
      </trkpt>
      <trkpt lat="44.33539" lon="3.87868">
        <ele>720.2</ele>
        <time>2025-11-18T10:54:08Z</time>
      </trkpt>
      <trkpt lat="44.33548" lon="3.87858">
        <ele>720.97</ele>
        <time>2025-11-18T10:54:21Z</time>
      </trkpt>
      <trkpt lat="44.33558" lon="3.87859">
        <ele>722.99</ele>
        <time>2025-11-18T10:54:36Z</time>
      </trkpt>
      <trkpt lat="44.33567" lon="3.87859">
        <ele>724.79</ele>
        <time>2025-11-18T10:54:57Z</time>
      </trkpt>
      <trkpt lat="44.33578" lon="3.87853">
        <ele>726.83</ele>
        <time>2025-11-18T10:55:20Z</time>
      </trkpt>
      <trkpt lat="44.33588" lon="3.87846">
        <ele>729.06</ele>
        <time>2025-11-18T10:55:45Z</time>
      </trkpt>
      <trkpt lat="44.33598" lon="3.87842">
        <ele>730.68</ele>
        <time>2025-11-18T10:56:04Z</time>
      </trkpt>
      <trkpt lat="44.33609" lon="3.87837">
        <ele>732.79</ele>
        <time>2025-11-18T10:56:24Z</time>
      </trkpt>
      <trkpt lat="44.33619" lon="3.87837">
        <ele>735.51</ele>
        <time>2025-11-18T10:56:43Z</time>
      </trkpt>
      <trkpt lat="44.33629" lon="3.87835">
        <ele>737.87</ele>
        <time>2025-11-18T10:57:03Z</time>
      </trkpt>
      <trkpt lat="44.3364" lon="3.87833">
        <ele>740.6</ele>
        <time>2025-11-18T10:57:26Z</time>
      </trkpt>
      <trkpt lat="44.3365" lon="3.87838">
        <ele>743.95</ele>
        <time>2025-11-18T10:57:52Z</time>
      </trkpt>
      <trkpt lat="44.3366" lon="3.87835">
        <ele>745.47</ele>
        <time>2025-11-18T10:58:12Z</time>
      </trkpt>
      <trkpt lat="44.33671" lon="3.87829">
        <ele>747.29</ele>
        <time>2025-11-18T10:58:30Z</time>
      </trkpt>
      <trkpt lat="44.33682" lon="3.87825">
        <ele>747.86</ele>
        <time>2025-11-18T10:58:50Z</time>
      </trkpt>
      <trkpt lat="44.33694" lon="3.87822">
        <ele>748.93</ele>
        <time>2025-11-18T10:59:09Z</time>
      </trkpt>
      <trkpt lat="44.33706" lon="3.87817">
        <ele>750.01</ele>
        <time>2025-11-18T10:59:27Z</time>
      </trkpt>
      <trkpt lat="44.33719" lon="3.87812">
        <ele>751.51</ele>
        <time>2025-11-18T10:59:43Z</time>
      </trkpt>
      <trkpt lat="44.33731" lon="3.87804">
        <ele>752.69</ele>
        <time>2025-11-18T11:00:01Z</time>
      </trkpt>
      <trkpt lat="44.33742" lon="3.87793">
        <ele>754.01</ele>
        <time>2025-11-18T11:00:19Z</time>
      </trkpt>
      <trkpt lat="44.33756" lon="3.8779">
        <ele>755.43</ele>
        <time>2025-11-18T11:00:37Z</time>
      </trkpt>
      <trkpt lat="44.3377" lon="3.87775">
        <ele>756.78</ele>
        <time>2025-11-18T11:01:00Z</time>
      </trkpt>
      <trkpt lat="44.33781" lon="3.87756">
        <ele>758.55</ele>
        <time>2025-11-18T11:01:18Z</time>
      </trkpt>
      <trkpt lat="44.33788" lon="3.87742">
        <ele>759.15</ele>
        <time>2025-11-18T11:01:37Z</time>
      </trkpt>
      <trkpt lat="44.33793" lon="3.8773">
        <ele>760.2</ele>
        <time>2025-11-18T11:02:02Z</time>
      </trkpt>
      <trkpt lat="44.33798" lon="3.87717">
        <ele>762.01</ele>
        <time>2025-11-18T11:02:24Z</time>
      </trkpt>
      <trkpt lat="44.33808" lon="3.8771">
        <ele>763.1</ele>
        <time>2025-11-18T11:02:44Z</time>
      </trkpt>
      <trkpt lat="44.33821" lon="3.87707">
        <ele>764.26</ele>
        <time>2025-11-18T11:03:03Z</time>
      </trkpt>
      <trkpt lat="44.33832" lon="3.877">
        <ele>765.91</ele>
        <time>2025-11-18T11:03:25Z</time>
      </trkpt>
      <trkpt lat="44.33839" lon="3.87693">
        <ele>765.71</ele>
        <time>2025-11-18T11:04:23Z</time>
      </trkpt>
      <trkpt lat="44.33847" lon="3.87687">
        <ele>766.2</ele>
        <time>2025-11-18T11:05:09Z</time>
      </trkpt>
      <trkpt lat="44.33845" lon="3.87684">
        <ele>767.06</ele>
        <time>2025-11-18T11:05:33Z</time>
      </trkpt>
      <trkpt lat="44.33848" lon="3.87668">
        <ele>768.52</ele>
        <time>2025-11-18T11:05:50Z</time>
      </trkpt>
      <trkpt lat="44.33852" lon="3.87652">
        <ele>770.01</ele>
        <time>2025-11-18T11:06:03Z</time>
      </trkpt>
      <trkpt lat="44.33855" lon="3.8764">
        <ele>770.96</ele>
        <time>2025-11-18T11:06:27Z</time>
      </trkpt>
      <trkpt lat="44.33858" lon="3.87624">
        <ele>770.99</ele>
        <time>2025-11-18T11:06:45Z</time>
      </trkpt>
      <trkpt lat="44.33858" lon="3.8761">
        <ele>771.07</ele>
        <time>2025-11-18T11:06:57Z</time>
      </trkpt>
      <trkpt lat="44.3385" lon="3.87606">
        <ele>771.2</ele>
        <time>2025-11-18T11:07:12Z</time>
      </trkpt>
      <trkpt lat="44.33843" lon="3.876">
        <ele>771.12</ele>
        <time>2025-11-18T11:08:07Z</time>
      </trkpt>
      <trkpt lat="44.33835" lon="3.87595">
        <ele>771.87</ele>
        <time>2025-11-18T11:08:19Z</time>
      </trkpt>
      <trkpt lat="44.33825" lon="3.87593">
        <ele>772.76</ele>
        <time>2025-11-18T11:08:49Z</time>
      </trkpt>
      <trkpt lat="44.33814" lon="3.87593">
        <ele>774.34</ele>
        <time>2025-11-18T11:09:04Z</time>
      </trkpt>
      <trkpt lat="44.33803" lon="3.87592">
        <ele>775.28</ele>
        <time>2025-11-18T11:09:16Z</time>
      </trkpt>
      <trkpt lat="44.33793" lon="3.87589">
        <ele>776.35</ele>
        <time>2025-11-18T11:09:28Z</time>
      </trkpt>
      <trkpt lat="44.33785" lon="3.87581">
        <ele>777.21</ele>
        <time>2025-11-18T11:09:46Z</time>
      </trkpt>
      <trkpt lat="44.33776" lon="3.87575">
        <ele>778.72</ele>
        <time>2025-11-18T11:10:01Z</time>
      </trkpt>
      <trkpt lat="44.33768" lon="3.87567">
        <ele>779.77</ele>
        <time>2025-11-18T11:10:13Z</time>
      </trkpt>
      <trkpt lat="44.3376" lon="3.87558">
        <ele>781.39</ele>
        <time>2025-11-18T11:10:27Z</time>
      </trkpt>
      <trkpt lat="44.33751" lon="3.87555">
        <ele>782.14</ele>
        <time>2025-11-18T11:10:41Z</time>
      </trkpt>
      <trkpt lat="44.33743" lon="3.87547">
        <ele>783.34</ele>
        <time>2025-11-18T11:10:54Z</time>
      </trkpt>
      <trkpt lat="44.33736" lon="3.87538">
        <ele>783.86</ele>
        <time>2025-11-18T11:11:06Z</time>
      </trkpt>
      <trkpt lat="44.33737" lon="3.87525">
        <ele>784.36</ele>
        <time>2025-11-18T11:11:31Z</time>
      </trkpt>
      <trkpt lat="44.33742" lon="3.87514">
        <ele>785.26</ele>
        <time>2025-11-18T11:11:40Z</time>
      </trkpt>
      <trkpt lat="44.33746" lon="3.87503">
        <ele>786.25</ele>
        <time>2025-11-18T11:11:52Z</time>
      </trkpt>
      <trkpt lat="44.33752" lon="3.87495">
        <ele>787.57</ele>
        <time>2025-11-18T11:12:33Z</time>
      </trkpt>
      <trkpt lat="44.33753" lon="3.8751">
        <ele>767.9</ele>
      </trkpt>
      <trkpt lat="44.33754" lon="3.87516">
        <ele>768.1</ele>
      </trkpt>
      <trkpt lat="44.33758" lon="3.87518">
        <ele>768.9</ele>
      </trkpt>
      <trkpt lat="44.3376" lon="3.87516">
        <ele>769.6</ele>
      </trkpt>
      <trkpt lat="44.33763" lon="3.87507">
        <ele>771</ele>
      </trkpt>
      <trkpt lat="44.33765" lon="3.87499">
        <ele>772.4</ele>
        <time>2025-11-18T11:14:05Z</time>
      </trkpt>
      <trkpt lat="44.33769" lon="3.87494">
        <ele>773.4</ele>
        <time>2025-11-18T11:14:24Z</time>
      </trkpt>
      <trkpt lat="44.33772" lon="3.87488">
        <ele>774.2</ele>
      </trkpt>
      <trkpt lat="44.33775" lon="3.87482">
        <ele>775.1</ele>
        <time>2025-11-18T11:14:55Z</time>
      </trkpt>
      <trkpt lat="44.33784" lon="3.87488">
        <ele>797.75</ele>
        <time>2025-11-18T11:15:10Z</time>
      </trkpt>
      <trkpt lat="44.33791" lon="3.87485">
        <ele>799.3</ele>
        <time>2025-11-18T11:15:23Z</time>
      </trkpt>
      <trkpt lat="44.33796" lon="3.87476">
        <ele>801.78</ele>
        <time>2025-11-18T11:15:40Z</time>
      </trkpt>
      <trkpt lat="44.33798" lon="3.87462">
        <ele>803.55</ele>
        <time>2025-11-18T11:15:54Z</time>
      </trkpt>
      <trkpt lat="44.33803" lon="3.87453">
        <ele>804.47</ele>
        <time>2025-11-18T11:16:09Z</time>
      </trkpt>
      <trkpt lat="44.3381" lon="3.87462">
        <ele>806.2</ele>
        <time>2025-11-18T11:16:35Z</time>
      </trkpt>
      <trkpt lat="44.33808" lon="3.8745">
        <ele>807.72</ele>
        <time>2025-11-18T11:16:46Z</time>
      </trkpt>
      <trkpt lat="44.33814" lon="3.87446">
        <ele>808.83</ele>
        <time>2025-11-18T11:16:58Z</time>
      </trkpt>
      <trkpt lat="44.33818" lon="3.87438">
        <ele>810.6</ele>
        <time>2025-11-18T11:17:12Z</time>
      </trkpt>
      <trkpt lat="44.3382" lon="3.87425">
        <ele>811.79</ele>
        <time>2025-11-18T11:17:26Z</time>
      </trkpt>
      <trkpt lat="44.33828" lon="3.87422">
        <ele>814.02</ele>
        <time>2025-11-18T11:17:42Z</time>
      </trkpt>
      <trkpt lat="44.33835" lon="3.87412">
        <ele>815.1</ele>
        <time>2025-11-18T11:17:56Z</time>
      </trkpt>
      <trkpt lat="44.33841" lon="3.87403">
        <ele>815.95</ele>
        <time>2025-11-18T11:18:09Z</time>
      </trkpt>
      <trkpt lat="44.33849" lon="3.87395">
        <ele>817.47</ele>
        <time>2025-11-18T11:18:24Z</time>
      </trkpt>
      <trkpt lat="44.33854" lon="3.87385">
        <ele>818.61</ele>
        <time>2025-11-18T11:18:39Z</time>
      </trkpt>
      <trkpt lat="44.33861" lon="3.87375">
        <ele>820.41</ele>
        <time>2025-11-18T11:18:57Z</time>
      </trkpt>
      <trkpt lat="44.33867" lon="3.87368">
        <ele>822.44</ele>
        <time>2025-11-18T11:19:12Z</time>
      </trkpt>
      <trkpt lat="44.33874" lon="3.87358">
        <ele>823.75</ele>
        <time>2025-11-18T11:19:28Z</time>
      </trkpt>
      <trkpt lat="44.33882" lon="3.87351">
        <ele>825.31</ele>
        <time>2025-11-18T11:19:43Z</time>
      </trkpt>
      <trkpt lat="44.33887" lon="3.8734">
        <ele>826.96</ele>
        <time>2025-11-18T11:19:59Z</time>
      </trkpt>
      <trkpt lat="44.33891" lon="3.87329">
        <ele>828.86</ele>
        <time>2025-11-18T11:20:15Z</time>
      </trkpt>
      <trkpt lat="44.33897" lon="3.87321">
        <ele>829.91</ele>
        <time>2025-11-18T11:20:32Z</time>
      </trkpt>
      <trkpt lat="44.33904" lon="3.87311">
        <ele>831.29</ele>
        <time>2025-11-18T11:20:46Z</time>
      </trkpt>
      <trkpt lat="44.33906" lon="3.87301">
        <ele>833.05</ele>
        <time>2025-11-18T11:21:02Z</time>
      </trkpt>
      <trkpt lat="44.33908" lon="3.87286">
        <ele>835.23</ele>
        <time>2025-11-18T11:21:22Z</time>
      </trkpt>
      <trkpt lat="44.33908" lon="3.87272">
        <ele>837.24</ele>
        <time>2025-11-18T11:21:39Z</time>
      </trkpt>
      <trkpt lat="44.33903" lon="3.87258">
        <ele>838.15</ele>
        <time>2025-11-18T11:23:49Z</time>
      </trkpt>
      <trkpt lat="44.33897" lon="3.87248">
        <ele>839.75</ele>
        <time>2025-11-18T11:29:33Z</time>
      </trkpt>
      <trkpt lat="44.33896" lon="3.87236">
        <ele>842.13</ele>
        <time>2025-11-18T11:29:54Z</time>
      </trkpt>
      <trkpt lat="44.33897" lon="3.87223">
        <ele>844.24</ele>
        <time>2025-11-18T11:30:07Z</time>
      </trkpt>
      <trkpt lat="44.33895" lon="3.87208">
        <ele>845.87</ele>
        <time>2025-11-18T11:30:23Z</time>
      </trkpt>
      <trkpt lat="44.33892" lon="3.87194">
        <ele>846.71</ele>
        <time>2025-11-18T11:30:37Z</time>
      </trkpt>
      <trkpt lat="44.33891" lon="3.87178">
        <ele>847.35</ele>
        <time>2025-11-18T11:30:54Z</time>
      </trkpt>
      <trkpt lat="44.33887" lon="3.87163">
        <ele>848.55</ele>
        <time>2025-11-18T11:31:10Z</time>
      </trkpt>
      <trkpt lat="44.33883" lon="3.87148">
        <ele>849.81</ele>
        <time>2025-11-18T11:31:22Z</time>
      </trkpt>
      <trkpt lat="44.33878" lon="3.87135">
        <ele>850.92</ele>
        <time>2025-11-18T11:31:35Z</time>
      </trkpt>
      <trkpt lat="44.33878" lon="3.8712">
        <ele>852.49</ele>
        <time>2025-11-18T11:31:54Z</time>
      </trkpt>
      <trkpt lat="44.33877" lon="3.87105">
        <ele>854.51</ele>
        <time>2025-11-18T11:32:09Z</time>
      </trkpt>
      <trkpt lat="44.33878" lon="3.8709">
        <ele>855.98</ele>
        <time>2025-11-18T11:32:23Z</time>
      </trkpt>
      <trkpt lat="44.33881" lon="3.87075">
        <ele>856.01</ele>
        <time>2025-11-18T11:32:53Z</time>
      </trkpt>
      <trkpt lat="44.33878" lon="3.87063">
        <ele>855.35</ele>
        <time>2025-11-18T11:33:05Z</time>
      </trkpt>
      <trkpt lat="44.33878" lon="3.8705">
        <ele>855.76</ele>
        <time>2025-11-18T11:33:18Z</time>
      </trkpt>
      <trkpt lat="44.33881" lon="3.87035">
        <ele>857.07</ele>
        <time>2025-11-18T11:33:47Z</time>
      </trkpt>
      <trkpt lat="44.33882" lon="3.87021">
        <ele>857.72</ele>
        <time>2025-11-18T11:34:02Z</time>
      </trkpt>
      <trkpt lat="44.33881" lon="3.87007">
        <ele>859.3</ele>
        <time>2025-11-18T11:34:15Z</time>
      </trkpt>
      <trkpt lat="44.33882" lon="3.86993">
        <ele>859.92</ele>
        <time>2025-11-18T11:34:34Z</time>
      </trkpt>
      <trkpt lat="44.33884" lon="3.86978">
        <ele>861.61</ele>
        <time>2025-11-18T11:34:48Z</time>
      </trkpt>
      <trkpt lat="44.33883" lon="3.86961">
        <ele>861.9</ele>
        <time>2025-11-18T11:35:06Z</time>
      </trkpt>
      <trkpt lat="44.33885" lon="3.86942">
        <ele>862.99</ele>
        <time>2025-11-18T11:35:28Z</time>
      </trkpt>
      <trkpt lat="44.33887" lon="3.86926">
        <ele>862.85</ele>
        <time>2025-11-18T11:35:46Z</time>
      </trkpt>
      <trkpt lat="44.3389" lon="3.86909">
        <ele>863.72</ele>
        <time>2025-11-18T11:36:03Z</time>
      </trkpt>
      <trkpt lat="44.33891" lon="3.86891">
        <ele>863.66</ele>
        <time>2025-11-18T11:36:18Z</time>
      </trkpt>
      <trkpt lat="44.33892" lon="3.86869">
        <ele>864.18</ele>
        <time>2025-11-18T11:36:37Z</time>
      </trkpt>
      <trkpt lat="44.33893" lon="3.8685">
        <ele>863.59</ele>
        <time>2025-11-18T11:36:56Z</time>
      </trkpt>
      <trkpt lat="44.33893" lon="3.86829">
        <ele>865.23</ele>
        <time>2025-11-18T11:37:15Z</time>
      </trkpt>
      <trkpt lat="44.33893" lon="3.86808">
        <ele>867.69</ele>
        <time>2025-11-18T11:37:36Z</time>
      </trkpt>
      <trkpt lat="44.33892" lon="3.86787">
        <ele>869.89</ele>
        <time>2025-11-18T11:37:54Z</time>
      </trkpt>
      <trkpt lat="44.33892" lon="3.86775">
        <ele>869.77</ele>
        <time>2025-11-18T11:38:30Z</time>
      </trkpt>
      <trkpt lat="44.33885" lon="3.86777">
        <ele>869.57</ele>
        <time>2025-11-18T11:39:24Z</time>
      </trkpt>
      <trkpt lat="44.33882" lon="3.86763">
        <ele>870.21</ele>
        <time>2025-11-18T11:40:18Z</time>
      </trkpt>
      <trkpt lat="44.33878" lon="3.86751">
        <ele>871.49</ele>
        <time>2025-11-18T11:40:36Z</time>
      </trkpt>
      <trkpt lat="44.33873" lon="3.86738">
        <ele>873.84</ele>
        <time>2025-11-18T11:40:53Z</time>
      </trkpt>
      <trkpt lat="44.33872" lon="3.86721">
        <ele>876.21</ele>
        <time>2025-11-18T11:41:12Z</time>
      </trkpt>
      <trkpt lat="44.33876" lon="3.86709">
        <ele>878.47</ele>
        <time>2025-11-18T11:41:41Z</time>
      </trkpt>
      <trkpt lat="44.33878" lon="3.86704">
        <ele>878.67</ele>
        <time>2025-11-18T11:42:04Z</time>
      </trkpt>
      <trkpt lat="44.33879" lon="3.86703">
        <ele>878.79</ele>
        <time>2025-11-18T11:42:28Z</time>
      </trkpt>
      <trkpt lat="44.33875" lon="3.86696">
        <ele>880.51</ele>
        <time>2025-11-18T11:43:07Z</time>
      </trkpt>
      <trkpt lat="44.33878" lon="3.86684">
        <ele>883.77</ele>
        <time>2025-11-18T11:43:30Z</time>
      </trkpt>
      <trkpt lat="44.33879" lon="3.86672">
        <ele>883.74</ele>
        <time>2025-11-18T11:44:47Z</time>
      </trkpt>
      <trkpt lat="44.33883" lon="3.86661">
        <ele>885.44</ele>
        <time>2025-11-18T11:45:05Z</time>
      </trkpt>
      <trkpt lat="44.33885" lon="3.86659">
        <ele>888.34</ele>
        <time>2025-11-18T11:45:27Z</time>
      </trkpt>
      <trkpt lat="44.33885" lon="3.86645">
        <ele>890.79</ele>
        <time>2025-11-18T11:45:49Z</time>
      </trkpt>
      <trkpt lat="44.33883" lon="3.86631">
        <ele>892.78</ele>
        <time>2025-11-18T11:46:24Z</time>
      </trkpt>
      <trkpt lat="44.33885" lon="3.86617">
        <ele>894.46</ele>
        <time>2025-11-18T11:46:45Z</time>
      </trkpt>
      <trkpt lat="44.33883" lon="3.86603">
        <ele>897.1</ele>
        <time>2025-11-18T11:47:07Z</time>
      </trkpt>
      <trkpt lat="44.33877" lon="3.86592">
        <ele>898.56</ele>
        <time>2025-11-18T11:47:22Z</time>
      </trkpt>
      <trkpt lat="44.33873" lon="3.8658">
        <ele>898.21</ele>
        <time>2025-11-18T11:50:11Z</time>
      </trkpt>
      <trkpt lat="44.33867" lon="3.86569">
        <ele>890.38</ele>
        <time>2025-11-18T12:22:34Z</time>
      </trkpt>
      <trkpt lat="44.33864" lon="3.86559">
        <ele>892.53</ele>
        <time>2025-11-18T12:22:49Z</time>
      </trkpt>
      <trkpt lat="44.33858" lon="3.86546">
        <ele>895.66</ele>
        <time>2025-11-18T12:23:15Z</time>
      </trkpt>
      <trkpt lat="44.33857" lon="3.86542">
        <ele>898.88</ele>
        <time>2025-11-18T12:23:45Z</time>
      </trkpt>
      <trkpt lat="44.33865" lon="3.86544">
        <ele>900.37</ele>
        <time>2025-11-18T12:24:04Z</time>
      </trkpt>
      <trkpt lat="44.3387" lon="3.86549">
        <ele>901.33</ele>
        <time>2025-11-18T12:24:26Z</time>
      </trkpt>
      <trkpt lat="44.33875" lon="3.86544">
        <ele>903.81</ele>
        <time>2025-11-18T12:24:51Z</time>
      </trkpt>
      <trkpt lat="44.33869" lon="3.86534">
        <ele>904.99</ele>
        <time>2025-11-18T12:25:05Z</time>
      </trkpt>
      <trkpt lat="44.33866" lon="3.86524">
        <ele>908.13</ele>
        <time>2025-11-18T12:25:26Z</time>
      </trkpt>
      <trkpt lat="44.33864" lon="3.8651">
        <ele>910.21</ele>
        <time>2025-11-18T12:25:49Z</time>
      </trkpt>
      <trkpt lat="44.33863" lon="3.86497">
        <ele>912.24</ele>
        <time>2025-11-18T12:26:16Z</time>
      </trkpt>
      <trkpt lat="44.33865" lon="3.8649">
        <ele>915.12</ele>
        <time>2025-11-18T12:26:35Z</time>
      </trkpt>
      <trkpt lat="44.33867" lon="3.865">
        <ele>917.41</ele>
        <time>2025-11-18T12:26:53Z</time>
      </trkpt>
      <trkpt lat="44.33872" lon="3.8651">
        <ele>919.24</ele>
        <time>2025-11-18T12:27:13Z</time>
      </trkpt>
      <trkpt lat="44.33883" lon="3.86518">
        <ele>921.28</ele>
        <time>2025-11-18T12:27:35Z</time>
      </trkpt>
      <trkpt lat="44.33883" lon="3.86505">
        <ele>923.09</ele>
        <time>2025-11-18T12:27:58Z</time>
      </trkpt>
      <trkpt lat="44.33882" lon="3.86492">
        <ele>925.48</ele>
        <time>2025-11-18T12:28:17Z</time>
      </trkpt>
      <trkpt lat="44.33881" lon="3.86482">
        <ele>927.62</ele>
        <time>2025-11-18T12:28:47Z</time>
      </trkpt>
      <trkpt lat="44.33885" lon="3.86485">
        <ele>928.58</ele>
        <time>2025-11-18T12:29:06Z</time>
      </trkpt>
      <trkpt lat="44.3389" lon="3.8649">
        <ele>929.95</ele>
        <time>2025-11-18T12:29:20Z</time>
      </trkpt>
      <trkpt lat="44.33886" lon="3.8648">
        <ele>932.09</ele>
        <time>2025-11-18T12:29:40Z</time>
      </trkpt>
      <trkpt lat="44.33883" lon="3.86469">
        <ele>933.25</ele>
        <time>2025-11-18T12:29:56Z</time>
      </trkpt>
      <trkpt lat="44.33878" lon="3.86458">
        <ele>935</ele>
        <time>2025-11-18T12:30:14Z</time>
      </trkpt>
      <trkpt lat="44.33875" lon="3.86445">
        <ele>937.2</ele>
        <time>2025-11-18T12:30:38Z</time>
      </trkpt>
      <trkpt lat="44.33872" lon="3.86433">
        <ele>939.72</ele>
        <time>2025-11-18T12:30:59Z</time>
      </trkpt>
      <trkpt lat="44.33867" lon="3.86417">
        <ele>943.21</ele>
        <time>2025-11-18T12:31:25Z</time>
      </trkpt>
      <trkpt lat="44.33865" lon="3.86401">
        <ele>945.04</ele>
        <time>2025-11-18T12:31:50Z</time>
      </trkpt>
      <trkpt lat="44.33863" lon="3.86389">
        <ele>946.02</ele>
        <time>2025-11-18T12:32:14Z</time>
      </trkpt>
      <trkpt lat="44.33859" lon="3.86375">
        <ele>947.39</ele>
        <time>2025-11-18T12:32:31Z</time>
      </trkpt>
      <trkpt lat="44.33856" lon="3.86362">
        <ele>948.44</ele>
        <time>2025-11-18T12:32:49Z</time>
      </trkpt>
      <trkpt lat="44.33852" lon="3.86348">
        <ele>949</ele>
        <time>2025-11-18T12:33:29Z</time>
      </trkpt>
      <trkpt lat="44.33846" lon="3.86334">
        <ele>949.79</ele>
        <time>2025-11-18T12:34:20Z</time>
      </trkpt>
      <trkpt lat="44.33841" lon="3.86326">
        <ele>951.54</ele>
        <time>2025-11-18T12:34:34Z</time>
      </trkpt>
      <trkpt lat="44.3384" lon="3.86317">
        <ele>954.3</ele>
        <time>2025-11-18T12:34:59Z</time>
      </trkpt>
      <trkpt lat="44.33849" lon="3.86319">
        <ele>957.44</ele>
        <time>2025-11-18T12:35:24Z</time>
      </trkpt>
      <trkpt lat="44.33848" lon="3.86308">
        <ele>960.03</ele>
        <time>2025-11-18T12:35:41Z</time>
      </trkpt>
      <trkpt lat="44.33852" lon="3.86297">
        <ele>961.6</ele>
        <time>2025-11-18T12:35:54Z</time>
      </trkpt>
      <trkpt lat="44.33859" lon="3.86288">
        <ele>963.72</ele>
        <time>2025-11-18T12:36:09Z</time>
      </trkpt>
      <trkpt lat="44.33867" lon="3.86282">
        <ele>964.32</ele>
        <time>2025-11-18T12:37:22Z</time>
      </trkpt>
      <trkpt lat="44.33875" lon="3.86275">
        <ele>965.09</ele>
        <time>2025-11-18T12:37:35Z</time>
      </trkpt>
      <trkpt lat="44.33881" lon="3.86268">
        <ele>967.75</ele>
        <time>2025-11-18T12:37:57Z</time>
      </trkpt>
      <trkpt lat="44.33891" lon="3.86263">
        <ele>969.69</ele>
        <time>2025-11-18T12:38:18Z</time>
      </trkpt>
      <trkpt lat="44.339" lon="3.8626">
        <ele>972.06</ele>
        <time>2025-11-18T12:38:43Z</time>
      </trkpt>
      <trkpt lat="44.33909" lon="3.86255">
        <ele>974.42</ele>
        <time>2025-11-18T12:39:01Z</time>
      </trkpt>
      <trkpt lat="44.33917" lon="3.86247">
        <ele>977.32</ele>
        <time>2025-11-18T12:39:23Z</time>
      </trkpt>
      <trkpt lat="44.33925" lon="3.8625">
        <ele>976.95</ele>
        <time>2025-11-18T12:39:41Z</time>
      </trkpt>
      <trkpt lat="44.33933" lon="3.86247">
        <ele>979.09</ele>
        <time>2025-11-18T12:40:00Z</time>
      </trkpt>
      <trkpt lat="44.33939" lon="3.86239">
        <ele>982.1</ele>
        <time>2025-11-18T12:40:21Z</time>
      </trkpt>
      <trkpt lat="44.33945" lon="3.86233">
        <ele>983.86</ele>
        <time>2025-11-18T12:40:39Z</time>
      </trkpt>
      <trkpt lat="44.33956" lon="3.86229">
        <ele>986.58</ele>
        <time>2025-11-18T12:41:01Z</time>
      </trkpt>
      <trkpt lat="44.33964" lon="3.86227">
        <ele>987.9</ele>
        <time>2025-11-18T12:41:22Z</time>
      </trkpt>
      <trkpt lat="44.3397" lon="3.86218">
        <ele>990.29</ele>
        <time>2025-11-18T12:41:43Z</time>
      </trkpt>
      <trkpt lat="44.33977" lon="3.86212">
        <ele>991.5</ele>
        <time>2025-11-18T12:42:02Z</time>
      </trkpt>
      <trkpt lat="44.3398" lon="3.86211">
        <ele>991.91</ele>
        <time>2025-11-18T12:42:28Z</time>
      </trkpt>
      <trkpt lat="44.33985" lon="3.86205">
        <ele>992.38</ele>
        <time>2025-11-18T12:42:56Z</time>
      </trkpt>
      <trkpt lat="44.33993" lon="3.86196">
        <ele>994.39</ele>
        <time>2025-11-18T12:43:18Z</time>
      </trkpt>
      <trkpt lat="44.34002" lon="3.86196">
        <ele>994.23</ele>
        <time>2025-11-18T12:43:51Z</time>
      </trkpt>
      <trkpt lat="44.34001" lon="3.86193">
        <ele>994.72</ele>
        <time>2025-11-18T12:44:15Z</time>
      </trkpt>
      <trkpt lat="44.34003" lon="3.86179">
        <ele>995.99</ele>
        <time>2025-11-18T12:44:33Z</time>
      </trkpt>
      <trkpt lat="44.34009" lon="3.86163">
        <ele>996.7</ele>
        <time>2025-11-18T12:44:52Z</time>
      </trkpt>
      <trkpt lat="44.34017" lon="3.86148">
        <ele>999.99</ele>
        <time>2025-11-18T12:45:13Z</time>
      </trkpt>
      <trkpt lat="44.34022" lon="3.86139">
        <ele>1002.5</ele>
        <time>2025-11-18T12:45:31Z</time>
      </trkpt>
      <trkpt lat="44.34031" lon="3.86133">
        <ele>1004.8</ele>
        <time>2025-11-18T12:45:51Z</time>
      </trkpt>
      <trkpt lat="44.34039" lon="3.86122">
        <ele>1006.82</ele>
        <time>2025-11-18T12:46:10Z</time>
      </trkpt>
      <trkpt lat="44.34045" lon="3.86106">
        <ele>1009.16</ele>
        <time>2025-11-18T12:46:30Z</time>
      </trkpt>
      <trkpt lat="44.34048" lon="3.86091">
        <ele>1010.64</ele>
        <time>2025-11-18T12:46:50Z</time>
      </trkpt>
      <trkpt lat="44.34051" lon="3.86076">
        <ele>1012.34</ele>
        <time>2025-11-18T12:47:10Z</time>
      </trkpt>
      <trkpt lat="44.34056" lon="3.86065">
        <ele>1014.19</ele>
        <time>2025-11-18T12:47:33Z</time>
      </trkpt>
      <trkpt lat="44.34059" lon="3.8605">
        <ele>1016.79</ele>
        <time>2025-11-18T12:47:55Z</time>
      </trkpt>
      <trkpt lat="44.34059" lon="3.86035">
        <ele>1018.59</ele>
        <time>2025-11-18T12:48:15Z</time>
      </trkpt>
      <trkpt lat="44.34059" lon="3.8603">
        <ele>1019.01</ele>
        <time>2025-11-18T12:49:15Z</time>
      </trkpt>
      <trkpt lat="44.34061" lon="3.86033">
        <ele>1019.64</ele>
        <time>2025-11-18T12:50:41Z</time>
      </trkpt>
      <trkpt lat="44.34065" lon="3.86042">
        <ele>1023.01</ele>
        <time>2025-11-18T12:51:17Z</time>
      </trkpt>
      <trkpt lat="44.34071" lon="3.86034">
        <ele>1025.71</ele>
        <time>2025-11-18T12:51:38Z</time>
      </trkpt>
      <trkpt lat="44.34072" lon="3.86022">
        <ele>1028.47</ele>
        <time>2025-11-18T12:52:05Z</time>
      </trkpt>
      <trkpt lat="44.34079" lon="3.86025">
        <ele>1030.67</ele>
        <time>2025-11-18T12:52:31Z</time>
      </trkpt>
      <trkpt lat="44.34076" lon="3.8601">
        <ele>1032.19</ele>
        <time>2025-11-18T12:53:30Z</time>
      </trkpt>
      <trkpt lat="44.34077" lon="3.86007">
        <ele>1032.31</ele>
        <time>2025-11-18T12:54:12Z</time>
      </trkpt>
      <trkpt lat="44.34081" lon="3.86018">
        <ele>1034.71</ele>
        <time>2025-11-18T12:54:37Z</time>
      </trkpt>
      <trkpt lat="44.34088" lon="3.86015">
        <ele>1037.22</ele>
        <time>2025-11-18T12:54:58Z</time>
      </trkpt>
      <trkpt lat="44.34092" lon="3.86005">
        <ele>1040.13</ele>
        <time>2025-11-18T12:55:19Z</time>
      </trkpt>
      <trkpt lat="44.3409" lon="3.85994">
        <ele>1041.87</ele>
        <time>2025-11-18T12:55:48Z</time>
      </trkpt>
      <trkpt lat="44.34082" lon="3.85985">
        <ele>1042.6</ele>
        <time>2025-11-18T12:56:16Z</time>
      </trkpt>
      <trkpt lat="44.34078" lon="3.85981">
        <ele>1042.42</ele>
        <time>2025-11-18T12:56:54Z</time>
      </trkpt>
      <trkpt lat="44.34072" lon="3.85986">
        <ele>1042.09</ele>
        <time>2025-11-18T12:57:24Z</time>
      </trkpt>
      <trkpt lat="44.34078" lon="3.85983">
        <ele>1043.53</ele>
        <time>2025-11-18T12:57:58Z</time>
      </trkpt>
      <trkpt lat="44.34085" lon="3.85989">
        <ele>1046.26</ele>
        <time>2025-11-18T12:58:15Z</time>
      </trkpt>
      <trkpt lat="44.34093" lon="3.85996">
        <ele>1048.77</ele>
        <time>2025-11-18T12:58:38Z</time>
      </trkpt>
      <trkpt lat="44.34102" lon="3.86005">
        <ele>1051.76</ele>
        <time>2025-11-18T12:59:03Z</time>
      </trkpt>
      <trkpt lat="44.3411" lon="3.85993">
        <ele>1053.17</ele>
        <time>2025-11-18T12:59:26Z</time>
      </trkpt>
      <trkpt lat="44.34108" lon="3.85978">
        <ele>1055.13</ele>
        <time>2025-11-18T12:59:47Z</time>
      </trkpt>
      <trkpt lat="44.34103" lon="3.85964">
        <ele>1057.33</ele>
        <time>2025-11-18T13:00:06Z</time>
      </trkpt>
      <trkpt lat="44.34096" lon="3.85956">
        <ele>1057.59</ele>
        <time>2025-11-18T13:00:33Z</time>
      </trkpt>
      <trkpt lat="44.34092" lon="3.85951">
        <ele>1058.45</ele>
        <time>2025-11-18T13:00:53Z</time>
      </trkpt>
      <trkpt lat="44.34092" lon="3.85937">
        <ele>1060.84</ele>
        <time>2025-11-18T13:01:13Z</time>
      </trkpt>
      <trkpt lat="44.34092" lon="3.85939">
        <ele>1064.31</ele>
        <time>2025-11-18T13:01:39Z</time>
      </trkpt>
      <trkpt lat="44.34094" lon="3.85953">
        <ele>1066.12</ele>
        <time>2025-11-18T13:01:59Z</time>
      </trkpt>
      <trkpt lat="44.34104" lon="3.85963">
        <ele>1068.11</ele>
        <time>2025-11-18T13:02:24Z</time>
      </trkpt>
      <trkpt lat="44.34114" lon="3.85964">
        <ele>1069.54</ele>
        <time>2025-11-18T13:02:47Z</time>
      </trkpt>
      <trkpt lat="44.34115" lon="3.85951">
        <ele>1071.81</ele>
        <time>2025-11-18T13:03:05Z</time>
      </trkpt>
      <trkpt lat="44.34114" lon="3.85939">
        <ele>1072.9</ele>
        <time>2025-11-18T13:03:24Z</time>
      </trkpt>
      <trkpt lat="44.34109" lon="3.85927">
        <ele>1073.3</ele>
        <time>2025-11-18T13:03:52Z</time>
      </trkpt>
      <trkpt lat="44.34105" lon="3.85917">
        <ele>1075.3</ele>
        <time>2025-11-18T13:04:08Z</time>
      </trkpt>
      <trkpt lat="44.34098" lon="3.85905">
        <ele>1077.33</ele>
        <time>2025-11-18T13:04:28Z</time>
      </trkpt>
      <trkpt lat="44.34103" lon="3.85908">
        <ele>1079.11</ele>
        <time>2025-11-18T13:04:47Z</time>
      </trkpt>
      <trkpt lat="44.34112" lon="3.85916">
        <ele>1080.75</ele>
        <time>2025-11-18T13:05:05Z</time>
      </trkpt>
      <trkpt lat="44.3412" lon="3.85927">
        <ele>1083.54</ele>
        <time>2025-11-18T13:05:27Z</time>
      </trkpt>
      <trkpt lat="44.34123" lon="3.85928">
        <ele>1084.07</ele>
        <time>2025-11-18T13:06:05Z</time>
      </trkpt>
      <trkpt lat="44.34123" lon="3.85925">
        <ele>1085.37</ele>
        <time>2025-11-18T13:06:27Z</time>
      </trkpt>
      <trkpt lat="44.34124" lon="3.85913">
        <ele>1086.95</ele>
        <time>2025-11-18T13:06:43Z</time>
      </trkpt>
      <trkpt lat="44.34127" lon="3.85901">
        <ele>1089.62</ele>
        <time>2025-11-18T13:07:02Z</time>
      </trkpt>
      <trkpt lat="44.34129" lon="3.85892">
        <ele>1091.47</ele>
        <time>2025-11-18T13:07:39Z</time>
      </trkpt>
      <trkpt lat="44.34133" lon="3.85903">
        <ele>1093.28</ele>
        <time>2025-11-18T13:07:55Z</time>
      </trkpt>
      <trkpt lat="44.34134" lon="3.85913">
        <ele>1095.2</ele>
        <time>2025-11-18T13:08:16Z</time>
      </trkpt>
      <trkpt lat="44.34142" lon="3.85915">
        <ele>1096.55</ele>
        <time>2025-11-18T13:09:15Z</time>
      </trkpt>
      <trkpt lat="44.34142" lon="3.85913">
        <ele>1100.43</ele>
        <time>2025-11-18T13:09:38Z</time>
      </trkpt>
      <trkpt lat="44.34143" lon="3.859">
        <ele>1103.08</ele>
        <time>2025-11-18T13:09:57Z</time>
      </trkpt>
      <trkpt lat="44.34149" lon="3.85905">
        <ele>1104.9</ele>
        <time>2025-11-18T13:10:26Z</time>
      </trkpt>
      <trkpt lat="44.34151" lon="3.85917">
        <ele>1107.54</ele>
        <time>2025-11-18T13:10:44Z</time>
      </trkpt>
      <trkpt lat="44.34161" lon="3.85925">
        <ele>1110.63</ele>
        <time>2025-11-18T13:11:22Z</time>
      </trkpt>
      <trkpt lat="44.34166" lon="3.85917">
        <ele>1112.14</ele>
        <time>2025-11-18T13:11:35Z</time>
      </trkpt>
      <trkpt lat="44.34174" lon="3.85921">
        <ele>1114.63</ele>
        <time>2025-11-18T13:12:05Z</time>
      </trkpt>
      <trkpt lat="44.34182" lon="3.85915">
        <ele>1117.02</ele>
        <time>2025-11-18T13:12:21Z</time>
      </trkpt>
      <trkpt lat="44.34192" lon="3.85916">
        <ele>1118.64</ele>
        <time>2025-11-18T13:13:07Z</time>
      </trkpt>
      <trkpt lat="44.342" lon="3.85917">
        <ele>1120.92</ele>
        <time>2025-11-18T13:13:22Z</time>
      </trkpt>
      <trkpt lat="44.34211" lon="3.85918">
        <ele>1123.42</ele>
        <time>2025-11-18T13:13:47Z</time>
      </trkpt>
      <trkpt lat="44.3422" lon="3.85919">
        <ele>1125.78</ele>
        <time>2025-11-18T13:14:01Z</time>
      </trkpt>
      <trkpt lat="44.34229" lon="3.85922">
        <ele>1127.15</ele>
        <time>2025-11-18T13:14:14Z</time>
      </trkpt>
      <trkpt lat="44.34238" lon="3.8592">
        <ele>1128.6</ele>
        <time>2025-11-18T13:14:27Z</time>
      </trkpt>
      <trkpt lat="44.34248" lon="3.85918">
        <ele>1129.79</ele>
        <time>2025-11-18T13:14:45Z</time>
      </trkpt>
      <trkpt lat="44.34258" lon="3.85917">
        <ele>1131.25</ele>
        <time>2025-11-18T13:15:05Z</time>
      </trkpt>
      <trkpt lat="44.34269" lon="3.85911">
        <ele>1132.1</ele>
        <time>2025-11-18T13:15:21Z</time>
      </trkpt>
      <trkpt lat="44.34278" lon="3.85909">
        <ele>1133.64</ele>
        <time>2025-11-18T13:15:34Z</time>
      </trkpt>
      <trkpt lat="44.34285" lon="3.85901">
        <ele>1135.26</ele>
        <time>2025-11-18T13:15:50Z</time>
      </trkpt>
      <trkpt lat="44.34293" lon="3.8589">
        <ele>1136.56</ele>
        <time>2025-11-18T13:16:06Z</time>
      </trkpt>
      <trkpt lat="44.34301" lon="3.85881">
        <ele>1138.13</ele>
        <time>2025-11-18T13:16:23Z</time>
      </trkpt>
      <trkpt lat="44.3431" lon="3.85873">
        <ele>1139.96</ele>
        <time>2025-11-18T13:16:41Z</time>
      </trkpt>
      <trkpt lat="44.34319" lon="3.85864">
        <ele>1141.65</ele>
        <time>2025-11-18T13:17:05Z</time>
      </trkpt>
      <trkpt lat="44.34328" lon="3.85859">
        <ele>1143.18</ele>
        <time>2025-11-18T13:17:21Z</time>
      </trkpt>
      <trkpt lat="44.34337" lon="3.85855">
        <ele>1145.33</ele>
        <time>2025-11-18T13:17:36Z</time>
      </trkpt>
      <trkpt lat="44.34346" lon="3.85849">
        <ele>1147.71</ele>
        <time>2025-11-18T13:18:00Z</time>
      </trkpt>
      <trkpt lat="44.34354" lon="3.85842">
        <ele>1150.53</ele>
        <time>2025-11-18T13:18:16Z</time>
      </trkpt>
      <trkpt lat="44.34362" lon="3.85834">
        <ele>1152.31</ele>
        <time>2025-11-18T13:18:54Z</time>
      </trkpt>
      <trkpt lat="44.34369" lon="3.85823">
        <ele>1154.35</ele>
        <time>2025-11-18T13:19:13Z</time>
      </trkpt>
      <trkpt lat="44.34375" lon="3.85815">
        <ele>1156.51</ele>
        <time>2025-11-18T13:19:42Z</time>
      </trkpt>
      <trkpt lat="44.34386" lon="3.85806">
        <ele>1158.87</ele>
        <time>2025-11-18T13:19:59Z</time>
      </trkpt>
      <trkpt lat="44.34394" lon="3.85798">
        <ele>1161.35</ele>
        <time>2025-11-18T13:20:33Z</time>
      </trkpt>
      <trkpt lat="44.34401" lon="3.85791">
        <ele>1161.85</ele>
        <time>2025-11-18T13:21:10Z</time>
      </trkpt>
      <trkpt lat="44.3441" lon="3.85791">
        <ele>1164.93</ele>
        <time>2025-11-18T13:22:27Z</time>
      </trkpt>
      <trkpt lat="44.34419" lon="3.85791">
        <ele>1167.29</ele>
        <time>2025-11-18T13:22:59Z</time>
      </trkpt>
      <trkpt lat="44.34421" lon="3.85798">
        <ele>1169.66</ele>
        <time>2025-11-18T13:23:31Z</time>
      </trkpt>
      <trkpt lat="44.34419" lon="3.85806">
        <ele>1171.78</ele>
        <time>2025-11-18T13:24:01Z</time>
      </trkpt>
      <trkpt lat="44.34429" lon="3.85815">
        <ele>1173.98</ele>
        <time>2025-11-18T13:24:22Z</time>
      </trkpt>
      <trkpt lat="44.34436" lon="3.85818">
        <ele>1176.95</ele>
        <time>2025-11-18T13:25:02Z</time>
      </trkpt>
      <trkpt lat="44.34447" lon="3.85817">
        <ele>1179.19</ele>
        <time>2025-11-18T13:25:35Z</time>
      </trkpt>
      <trkpt lat="44.34456" lon="3.8582">
        <ele>1182.31</ele>
        <time>2025-11-18T13:26:04Z</time>
      </trkpt>
      <trkpt lat="44.34466" lon="3.85815">
        <ele>1182.8</ele>
        <time>2025-11-18T13:27:39Z</time>
      </trkpt>
      <trkpt lat="44.34471" lon="3.85803">
        <ele>1184.21</ele>
        <time>2025-11-18T13:28:07Z</time>
      </trkpt>
      <trkpt lat="44.34474" lon="3.8579">
        <ele>1187.35</ele>
        <time>2025-11-18T13:28:32Z</time>
      </trkpt>
      <trkpt lat="44.34479" lon="3.85775">
        <ele>1190.9</ele>
        <time>2025-11-18T13:28:52Z</time>
      </trkpt>
      <trkpt lat="44.34479" lon="3.85761">
        <ele>1192.63</ele>
        <time>2025-11-18T13:29:08Z</time>
      </trkpt>
      <trkpt lat="44.34475" lon="3.85746">
        <ele>1193.54</ele>
        <time>2025-11-18T13:29:27Z</time>
      </trkpt>
      <trkpt lat="44.3447" lon="3.8573">
        <ele>1195.18</ele>
        <time>2025-11-18T13:29:45Z</time>
      </trkpt>
      <trkpt lat="44.34464" lon="3.85716">
        <ele>1196.9</ele>
        <time>2025-11-18T13:29:59Z</time>
      </trkpt>
      <trkpt lat="44.34464" lon="3.85706">
        <ele>1197.58</ele>
        <time>2025-11-18T13:30:21Z</time>
      </trkpt>
      <trkpt lat="44.34469" lon="3.85699">
        <ele>1200.16</ele>
        <time>2025-11-18T13:30:37Z</time>
      </trkpt>
      <trkpt lat="44.34477" lon="3.85693">
        <ele>1203.42</ele>
        <time>2025-11-18T13:30:58Z</time>
      </trkpt>
      <trkpt lat="44.34481" lon="3.85678">
        <ele>1206.46</ele>
        <time>2025-11-18T13:31:24Z</time>
      </trkpt>
      <trkpt lat="44.34485" lon="3.85667">
        <ele>1207.96</ele>
        <time>2025-11-18T13:31:48Z</time>
      </trkpt>
      <trkpt lat="44.34484" lon="3.85659">
        <ele>1207.78</ele>
        <time>2025-11-18T13:32:45Z</time>
      </trkpt>
      <trkpt lat="44.34488" lon="3.85657">
        <ele>1208.1</ele>
        <time>2025-11-18T13:33:19Z</time>
      </trkpt>
      <trkpt lat="44.34492" lon="3.85654">
        <ele>1209.63</ele>
        <time>2025-11-18T13:34:03Z</time>
      </trkpt>
      <trkpt lat="44.345" lon="3.85646">
        <ele>1210.92</ele>
        <time>2025-11-18T13:34:28Z</time>
      </trkpt>
      <trkpt lat="44.345" lon="3.85635">
        <ele>1211.57</ele>
        <time>2025-11-18T13:34:47Z</time>
      </trkpt>
      <trkpt lat="44.34502" lon="3.85627">
        <ele>1212.11</ele>
        <time>2025-11-18T13:35:05Z</time>
      </trkpt>
      <trkpt lat="44.34507" lon="3.85613">
        <ele>1213.13</ele>
        <time>2025-11-18T13:35:19Z</time>
      </trkpt>
      <trkpt lat="44.34511" lon="3.85599">
        <ele>1213.87</ele>
        <time>2025-11-18T13:35:30Z</time>
      </trkpt>
      <trkpt lat="44.34515" lon="3.85585">
        <ele>1213.57</ele>
        <time>2025-11-18T13:35:40Z</time>
      </trkpt>
      <trkpt lat="44.34518" lon="3.8557">
        <ele>1213.65</ele>
        <time>2025-11-18T13:35:51Z</time>
      </trkpt>
      <trkpt lat="44.34521" lon="3.85556">
        <ele>1213.96</ele>
        <time>2025-11-18T13:36:14Z</time>
      </trkpt>
      <trkpt lat="44.34524" lon="3.85542">
        <ele>1213.86</ele>
        <time>2025-11-18T13:36:25Z</time>
      </trkpt>
      <trkpt lat="44.34525" lon="3.85527">
        <ele>1214.54</ele>
        <time>2025-11-18T13:36:37Z</time>
      </trkpt>
      <trkpt lat="44.34526" lon="3.85513">
        <ele>1215.84</ele>
        <time>2025-11-18T13:37:15Z</time>
      </trkpt>
      <trkpt lat="44.34529" lon="3.855">
        <ele>1217.14</ele>
        <time>2025-11-18T13:37:35Z</time>
      </trkpt>
      <trkpt lat="44.34529" lon="3.85491">
        <ele>1217.42</ele>
        <time>2025-11-18T13:38:18Z</time>
      </trkpt>
      <trkpt lat="44.34535" lon="3.85481">
        <ele>1219</ele>
        <time>2025-11-18T13:38:30Z</time>
      </trkpt>
      <trkpt lat="44.34534" lon="3.85467">
        <ele>1220.36</ele>
        <time>2025-11-18T13:38:49Z</time>
      </trkpt>
      <trkpt lat="44.34535" lon="3.85452">
        <ele>1221.05</ele>
        <time>2025-11-18T13:39:05Z</time>
      </trkpt>
      <trkpt lat="44.34536" lon="3.85437">
        <ele>1222.51</ele>
        <time>2025-11-18T13:39:27Z</time>
      </trkpt>
      <trkpt lat="44.34535" lon="3.85421">
        <ele>1224.41</ele>
        <time>2025-11-18T13:39:38Z</time>
      </trkpt>
      <trkpt lat="44.34534" lon="3.85405">
        <ele>1225.79</ele>
        <time>2025-11-18T13:39:55Z</time>
      </trkpt>
      <trkpt lat="44.34531" lon="3.85393">
        <ele>1227.21</ele>
        <time>2025-11-18T13:40:07Z</time>
      </trkpt>
      <trkpt lat="44.34529" lon="3.85377">
        <ele>1229.11</ele>
        <time>2025-11-18T13:40:19Z</time>
      </trkpt>
      <trkpt lat="44.34528" lon="3.85362">
        <ele>1229.78</ele>
        <time>2025-11-18T13:41:03Z</time>
      </trkpt>
      <trkpt lat="44.34525" lon="3.85349">
        <ele>1231.1</ele>
        <time>2025-11-18T13:41:13Z</time>
      </trkpt>
      <trkpt lat="44.3452" lon="3.85338">
        <ele>1232.34</ele>
        <time>2025-11-18T13:41:23Z</time>
      </trkpt>
      <trkpt lat="44.34516" lon="3.85325">
        <ele>1232.93</ele>
        <time>2025-11-18T13:41:32Z</time>
      </trkpt>
      <trkpt lat="44.34512" lon="3.85313">
        <ele>1233.89</ele>
        <time>2025-11-18T13:41:41Z</time>
      </trkpt>
      <trkpt lat="44.34514" lon="3.85298">
        <ele>1235.13</ele>
        <time>2025-11-18T13:42:18Z</time>
      </trkpt>
      <trkpt lat="44.34516" lon="3.85285">
        <ele>1236.08</ele>
        <time>2025-11-18T13:42:27Z</time>
      </trkpt>
      <trkpt lat="44.34517" lon="3.85271">
        <ele>1236.92</ele>
        <time>2025-11-18T13:42:39Z</time>
      </trkpt>
      <trkpt lat="44.34521" lon="3.85258">
        <ele>1237.4</ele>
        <time>2025-11-18T13:42:48Z</time>
      </trkpt>
      <trkpt lat="44.34523" lon="3.85245">
        <ele>1238.26</ele>
        <time>2025-11-18T13:42:57Z</time>
      </trkpt>
      <trkpt lat="44.34526" lon="3.85232">
        <ele>1238.91</ele>
        <time>2025-11-18T13:43:07Z</time>
      </trkpt>
      <trkpt lat="44.3453" lon="3.85221">
        <ele>1240.1</ele>
        <time>2025-11-18T13:43:16Z</time>
      </trkpt>
      <trkpt lat="44.34534" lon="3.85209">
        <ele>1240.93</ele>
        <time>2025-11-18T13:43:25Z</time>
      </trkpt>
      <trkpt lat="44.34539" lon="3.85195">
        <ele>1241.46</ele>
        <time>2025-11-18T13:43:39Z</time>
      </trkpt>
      <trkpt lat="44.34543" lon="3.85183">
        <ele>1241.66</ele>
        <time>2025-11-18T13:43:48Z</time>
      </trkpt>
      <trkpt lat="44.34547" lon="3.8517">
        <ele>1241.57</ele>
        <time>2025-11-18T13:44:00Z</time>
      </trkpt>
      <trkpt lat="44.34552" lon="3.85158">
        <ele>1240.71</ele>
        <time>2025-11-18T13:44:10Z</time>
      </trkpt>
      <trkpt lat="44.34557" lon="3.85144">
        <ele>1241.87</ele>
        <time>2025-11-18T13:44:19Z</time>
      </trkpt>
      <trkpt lat="44.34563" lon="3.85132">
        <ele>1242.78</ele>
        <time>2025-11-18T13:44:29Z</time>
      </trkpt>
      <trkpt lat="44.34569" lon="3.85121">
        <ele>1243.23</ele>
        <time>2025-11-18T13:44:38Z</time>
      </trkpt>
      <trkpt lat="44.34575" lon="3.85111">
        <ele>1243.99</ele>
        <time>2025-11-18T13:44:47Z</time>
      </trkpt>
      <trkpt lat="44.34583" lon="3.85102">
        <ele>1245.49</ele>
        <time>2025-11-18T13:44:56Z</time>
      </trkpt>
      <trkpt lat="44.34592" lon="3.85094">
        <ele>1246.59</ele>
        <time>2025-11-18T13:45:05Z</time>
      </trkpt>
      <trkpt lat="44.34599" lon="3.85094">
        <ele>1246.86</ele>
        <time>2025-11-18T13:46:11Z</time>
      </trkpt>
      <trkpt lat="44.3461" lon="3.8509">
        <ele>1248.33</ele>
        <time>2025-11-18T13:49:41Z</time>
      </trkpt>
      <trkpt lat="44.34619" lon="3.85088">
        <ele>1248.71</ele>
        <time>2025-11-18T13:49:50Z</time>
      </trkpt>
      <trkpt lat="44.34628" lon="3.85086">
        <ele>1248.95</ele>
        <time>2025-11-18T13:49:59Z</time>
      </trkpt>
      <trkpt lat="44.34637" lon="3.8508">
        <ele>1249.13</ele>
        <time>2025-11-18T13:50:08Z</time>
      </trkpt>
      <trkpt lat="44.34646" lon="3.85074">
        <ele>1250.15</ele>
        <time>2025-11-18T13:50:17Z</time>
      </trkpt>
      <trkpt lat="44.34654" lon="3.85069">
        <ele>1250.88</ele>
        <time>2025-11-18T13:50:26Z</time>
      </trkpt>
      <trkpt lat="44.34662" lon="3.85067">
        <ele>1251.72</ele>
        <time>2025-11-18T13:50:35Z</time>
      </trkpt>
      <trkpt lat="44.34671" lon="3.85067">
        <ele>1252.9</ele>
        <time>2025-11-18T13:50:45Z</time>
      </trkpt>
      <trkpt lat="44.34681" lon="3.85067">
        <ele>1253.7</ele>
        <time>2025-11-18T13:50:57Z</time>
      </trkpt>
      <trkpt lat="44.34691" lon="3.85066">
        <ele>1254.48</ele>
        <time>2025-11-18T13:51:06Z</time>
      </trkpt>
      <trkpt lat="44.34701" lon="3.85067">
        <ele>1254.87</ele>
        <time>2025-11-18T13:51:15Z</time>
      </trkpt>
      <trkpt lat="44.3471" lon="3.85068">
        <ele>1255.78</ele>
        <time>2025-11-18T13:51:24Z</time>
      </trkpt>
      <trkpt lat="44.3472" lon="3.85067">
        <ele>1256.46</ele>
        <time>2025-11-18T13:51:33Z</time>
      </trkpt>
      <trkpt lat="44.34729" lon="3.85064">
        <ele>1256.72</ele>
        <time>2025-11-18T13:51:42Z</time>
      </trkpt>
      <trkpt lat="44.34738" lon="3.85056">
        <ele>1257.04</ele>
        <time>2025-11-18T13:51:51Z</time>
      </trkpt>
      <trkpt lat="44.34746" lon="3.85049">
        <ele>1257.09</ele>
        <time>2025-11-18T13:51:59Z</time>
      </trkpt>
      <trkpt lat="44.34754" lon="3.85046">
        <ele>1256.85</ele>
        <time>2025-11-18T13:52:20Z</time>
      </trkpt>
      <trkpt lat="44.34764" lon="3.85039">
        <ele>1256.54</ele>
        <time>2025-11-18T13:52:28Z</time>
      </trkpt>
      <trkpt lat="44.34772" lon="3.85031">
        <ele>1256.41</ele>
        <time>2025-11-18T13:52:36Z</time>
      </trkpt>
      <trkpt lat="44.34778" lon="3.85023">
        <ele>1256.33</ele>
        <time>2025-11-18T13:52:44Z</time>
      </trkpt>
      <trkpt lat="44.34786" lon="3.85014">
        <ele>1256.05</ele>
        <time>2025-11-18T13:52:53Z</time>
      </trkpt>
      <trkpt lat="44.34794" lon="3.85007">
        <ele>1255.45</ele>
        <time>2025-11-18T13:53:01Z</time>
      </trkpt>
      <trkpt lat="44.34801" lon="3.84999">
        <ele>1254.77</ele>
        <time>2025-11-18T13:53:10Z</time>
      </trkpt>
      <trkpt lat="44.3481" lon="3.84991">
        <ele>1254.36</ele>
        <time>2025-11-18T13:53:19Z</time>
      </trkpt>
      <trkpt lat="44.34817" lon="3.84982">
        <ele>1254.24</ele>
        <time>2025-11-18T13:53:31Z</time>
      </trkpt>
      <trkpt lat="44.34824" lon="3.84972">
        <ele>1254.05</ele>
        <time>2025-11-18T13:53:40Z</time>
      </trkpt>
      <trkpt lat="44.34832" lon="3.84963">
        <ele>1253.61</ele>
        <time>2025-11-18T13:53:49Z</time>
      </trkpt>
      <trkpt lat="44.34839" lon="3.84955">
        <ele>1252.57</ele>
        <time>2025-11-18T13:54:08Z</time>
      </trkpt>
      <trkpt lat="44.34847" lon="3.84947">
        <ele>1252.17</ele>
        <time>2025-11-18T13:54:16Z</time>
      </trkpt>
      <trkpt lat="44.34853" lon="3.84938">
        <ele>1252.03</ele>
        <time>2025-11-18T13:54:24Z</time>
      </trkpt>
      <trkpt lat="44.3486" lon="3.8493">
        <ele>1251.83</ele>
        <time>2025-11-18T13:54:36Z</time>
      </trkpt>
      <trkpt lat="44.34866" lon="3.84918">
        <ele>1251.5</ele>
        <time>2025-11-18T13:54:46Z</time>
      </trkpt>
      <trkpt lat="44.34873" lon="3.84906">
        <ele>1251.3</ele>
        <time>2025-11-18T13:54:59Z</time>
      </trkpt>
      <trkpt lat="44.34879" lon="3.84895">
        <ele>1250.92</ele>
        <time>2025-11-18T13:55:09Z</time>
      </trkpt>
      <trkpt lat="44.34887" lon="3.84887">
        <ele>1250.04</ele>
        <time>2025-11-18T13:55:18Z</time>
      </trkpt>
      <trkpt lat="44.34889" lon="3.84889">
        <ele>1248.74</ele>
        <time>2025-11-18T13:57:36Z</time>
      </trkpt>
      <trkpt lat="44.34889" lon="3.8489">
        <ele>1248.96</ele>
        <time>2025-11-18T13:59:18Z</time>
      </trkpt>
      <trkpt lat="44.34889" lon="3.84902">
        <ele>1249.43</ele>
        <time>2025-11-18T14:00:02Z</time>
      </trkpt>
      <trkpt lat="44.34898" lon="3.84907">
        <ele>1249.53</ele>
        <time>2025-11-18T14:00:16Z</time>
      </trkpt>
      <trkpt lat="44.34901" lon="3.84921">
        <ele>1249.5</ele>
        <time>2025-11-18T14:00:28Z</time>
      </trkpt>
      <trkpt lat="44.34906" lon="3.84935">
        <ele>1249.62</ele>
        <time>2025-11-18T14:00:53Z</time>
      </trkpt>
      <trkpt lat="44.34907" lon="3.84948">
        <ele>1249.94</ele>
        <time>2025-11-18T14:01:02Z</time>
      </trkpt>
      <trkpt lat="44.3491" lon="3.84959">
        <ele>1250.17</ele>
        <time>2025-11-18T14:01:10Z</time>
      </trkpt>
      <trkpt lat="44.34914" lon="3.84972">
        <ele>1250.07</ele>
        <time>2025-11-18T14:01:46Z</time>
      </trkpt>
      <trkpt lat="44.34921" lon="3.84982">
        <ele>1250.01</ele>
        <time>2025-11-18T14:01:55Z</time>
      </trkpt>
      <trkpt lat="44.34926" lon="3.84994">
        <ele>1249.92</ele>
        <time>2025-11-18T14:02:04Z</time>
      </trkpt>
      <trkpt lat="44.34926" lon="3.85007">
        <ele>1250.12</ele>
        <time>2025-11-18T14:02:12Z</time>
      </trkpt>
      <trkpt lat="44.34927" lon="3.85019">
        <ele>1250.74</ele>
        <time>2025-11-18T14:02:21Z</time>
      </trkpt>
      <trkpt lat="44.34927" lon="3.85033">
        <ele>1251.4</ele>
        <time>2025-11-18T14:02:47Z</time>
      </trkpt>
      <trkpt lat="44.34927" lon="3.85047">
        <ele>1251.23</ele>
        <time>2025-11-18T14:02:57Z</time>
      </trkpt>
      <trkpt lat="44.34928" lon="3.85059">
        <ele>1251.46</ele>
        <time>2025-11-18T14:03:06Z</time>
      </trkpt>
      <trkpt lat="44.34925" lon="3.85071">
        <ele>1251.66</ele>
        <time>2025-11-18T14:03:19Z</time>
      </trkpt>
      <trkpt lat="44.34922" lon="3.85086">
        <ele>1252.37</ele>
        <time>2025-11-18T14:03:53Z</time>
      </trkpt>
      <trkpt lat="44.34916" lon="3.85095">
        <ele>1252.76</ele>
        <time>2025-11-18T14:04:06Z</time>
      </trkpt>
      <trkpt lat="44.3491" lon="3.85107">
        <ele>1253.41</ele>
        <time>2025-11-18T14:04:15Z</time>
      </trkpt>
      <trkpt lat="44.34905" lon="3.85119">
        <ele>1254.05</ele>
        <time>2025-11-18T14:04:25Z</time>
      </trkpt>
      <trkpt lat="44.34903" lon="3.85133">
        <ele>1252.84</ele>
        <time>2025-11-18T14:04:35Z</time>
      </trkpt>
      <trkpt lat="44.34902" lon="3.85146">
        <ele>1252.46</ele>
        <time>2025-11-18T14:04:44Z</time>
      </trkpt>
      <trkpt lat="44.34901" lon="3.85159">
        <ele>1252.3</ele>
        <time>2025-11-18T14:05:30Z</time>
      </trkpt>
      <trkpt lat="44.34901" lon="3.85174">
        <ele>1252.64</ele>
        <time>2025-11-18T14:06:09Z</time>
      </trkpt>
      <trkpt lat="44.34903" lon="3.85187">
        <ele>1252.06</ele>
        <time>2025-11-18T14:06:19Z</time>
      </trkpt>
      <trkpt lat="44.34903" lon="3.852">
        <ele>1251.83</ele>
        <time>2025-11-18T14:06:30Z</time>
      </trkpt>
      <trkpt lat="44.34909" lon="3.8521">
        <ele>1253.62</ele>
        <time>2025-11-18T14:06:40Z</time>
      </trkpt>
      <trkpt lat="44.34916" lon="3.85219">
        <ele>1253.89</ele>
        <time>2025-11-18T14:06:50Z</time>
      </trkpt>
      <trkpt lat="44.34922" lon="3.85229">
        <ele>1254.59</ele>
        <time>2025-11-18T14:06:59Z</time>
      </trkpt>
      <trkpt lat="44.34927" lon="3.85242">
        <ele>1254.97</ele>
        <time>2025-11-18T14:07:15Z</time>
      </trkpt>
      <trkpt lat="44.34931" lon="3.85255">
        <ele>1255.25</ele>
        <time>2025-11-18T14:07:25Z</time>
      </trkpt>
      <trkpt lat="44.34932" lon="3.85267">
        <ele>1255.03</ele>
        <time>2025-11-18T14:07:34Z</time>
      </trkpt>
      <trkpt lat="44.3493" lon="3.85279">
        <ele>1254.98</ele>
        <time>2025-11-18T14:08:07Z</time>
      </trkpt>
      <trkpt lat="44.34934" lon="3.85291">
        <ele>1255.58</ele>
        <time>2025-11-18T14:08:16Z</time>
      </trkpt>
      <trkpt lat="44.34935" lon="3.85306">
        <ele>1255.7</ele>
        <time>2025-11-18T14:08:25Z</time>
      </trkpt>
      <trkpt lat="44.34936" lon="3.8532">
        <ele>1255.97</ele>
        <time>2025-11-18T14:08:35Z</time>
      </trkpt>
      <trkpt lat="44.34938" lon="3.85333">
        <ele>1256.37</ele>
        <time>2025-11-18T14:08:45Z</time>
      </trkpt>
      <trkpt lat="44.3494" lon="3.85346">
        <ele>1256.68</ele>
        <time>2025-11-18T14:08:55Z</time>
      </trkpt>
      <trkpt lat="44.34938" lon="3.8536">
        <ele>1257.5</ele>
        <time>2025-11-18T14:09:05Z</time>
      </trkpt>
      <trkpt lat="44.3494" lon="3.85373">
        <ele>1257.82</ele>
        <time>2025-11-18T14:09:16Z</time>
      </trkpt>
      <trkpt lat="44.34939" lon="3.85388">
        <ele>1258.08</ele>
        <time>2025-11-18T14:09:26Z</time>
      </trkpt>
      <trkpt lat="44.34937" lon="3.85402">
        <ele>1258.33</ele>
        <time>2025-11-18T14:09:35Z</time>
      </trkpt>
      <trkpt lat="44.34936" lon="3.85414">
        <ele>1258.83</ele>
        <time>2025-11-18T14:09:51Z</time>
      </trkpt>
      <trkpt lat="44.34937" lon="3.85427">
        <ele>1259.64</ele>
        <time>2025-11-18T14:10:01Z</time>
      </trkpt>
      <trkpt lat="44.34938" lon="3.8544">
        <ele>1259.99</ele>
        <time>2025-11-18T14:10:13Z</time>
      </trkpt>
      <trkpt lat="44.3494" lon="3.85454">
        <ele>1260.8</ele>
        <time>2025-11-18T14:10:25Z</time>
      </trkpt>
      <trkpt lat="44.34942" lon="3.85468">
        <ele>1261.38</ele>
        <time>2025-11-18T14:10:35Z</time>
      </trkpt>
      <trkpt lat="44.34946" lon="3.85482">
        <ele>1261.58</ele>
        <time>2025-11-18T14:10:45Z</time>
      </trkpt>
      <trkpt lat="44.34946" lon="3.85497">
        <ele>1261.87</ele>
        <time>2025-11-18T14:10:55Z</time>
      </trkpt>
      <trkpt lat="44.34947" lon="3.85509">
        <ele>1262.15</ele>
        <time>2025-11-18T14:11:26Z</time>
      </trkpt>
      <trkpt lat="44.34946" lon="3.85522">
        <ele>1262.42</ele>
        <time>2025-11-18T14:11:35Z</time>
      </trkpt>
      <trkpt lat="44.34943" lon="3.85537">
        <ele>1263.09</ele>
        <time>2025-11-18T14:13:08Z</time>
      </trkpt>
      <trkpt lat="44.3494" lon="3.8555">
        <ele>1263.42</ele>
        <time>2025-11-18T14:13:17Z</time>
      </trkpt>
      <trkpt lat="44.34935" lon="3.85562">
        <ele>1263.76</ele>
        <time>2025-11-18T14:13:26Z</time>
      </trkpt>
      <trkpt lat="44.34928" lon="3.85574">
        <ele>1264.62</ele>
        <time>2025-11-18T14:13:36Z</time>
      </trkpt>
      <trkpt lat="44.34925" lon="3.85585">
        <ele>1264.82</ele>
        <time>2025-11-18T14:13:45Z</time>
      </trkpt>
      <trkpt lat="44.34922" lon="3.85598">
        <ele>1264.81</ele>
        <time>2025-11-18T14:13:55Z</time>
      </trkpt>
      <trkpt lat="44.34915" lon="3.85606">
        <ele>1265.38</ele>
        <time>2025-11-18T14:14:05Z</time>
      </trkpt>
      <trkpt lat="44.34914" lon="3.85619">
        <ele>1265.81</ele>
        <time>2025-11-18T14:14:15Z</time>
      </trkpt>
      <trkpt lat="44.34911" lon="3.85633">
        <ele>1265.37</ele>
        <time>2025-11-18T14:14:24Z</time>
      </trkpt>
      <trkpt lat="44.34911" lon="3.85647">
        <ele>1265.42</ele>
        <time>2025-11-18T14:14:33Z</time>
      </trkpt>
      <trkpt lat="44.34909" lon="3.85661">
        <ele>1265.36</ele>
        <time>2025-11-18T14:14:45Z</time>
      </trkpt>
      <trkpt lat="44.34907" lon="3.85675">
        <ele>1265.89</ele>
        <time>2025-11-18T14:14:55Z</time>
      </trkpt>
      <trkpt lat="44.34906" lon="3.85688">
        <ele>1266.08</ele>
        <time>2025-11-18T14:15:04Z</time>
      </trkpt>
      <trkpt lat="44.34906" lon="3.85701">
        <ele>1265.99</ele>
        <time>2025-11-18T14:15:15Z</time>
      </trkpt>
      <trkpt lat="44.3491" lon="3.85713">
        <ele>1266.3</ele>
        <time>2025-11-18T14:15:25Z</time>
      </trkpt>
      <trkpt lat="44.34913" lon="3.85726">
        <ele>1266.65</ele>
        <time>2025-11-18T14:16:29Z</time>
      </trkpt>
      <trkpt lat="44.34912" lon="3.8574">
        <ele>1267.15</ele>
        <time>2025-11-18T14:16:38Z</time>
      </trkpt>
      <trkpt lat="44.34914" lon="3.85752">
        <ele>1268.07</ele>
        <time>2025-11-18T14:16:48Z</time>
      </trkpt>
      <trkpt lat="44.34913" lon="3.85765">
        <ele>1267.93</ele>
        <time>2025-11-18T14:16:58Z</time>
      </trkpt>
      <trkpt lat="44.34911" lon="3.8578">
        <ele>1269.66</ele>
        <time>2025-11-18T14:17:12Z</time>
      </trkpt>
      <trkpt lat="44.34911" lon="3.85795">
        <ele>1270.3</ele>
        <time>2025-11-18T14:17:34Z</time>
      </trkpt>
      <trkpt lat="44.34912" lon="3.85809">
        <ele>1271.65</ele>
        <time>2025-11-18T14:17:46Z</time>
      </trkpt>
      <trkpt lat="44.34917" lon="3.85823">
        <ele>1273.04</ele>
        <time>2025-11-18T14:18:15Z</time>
      </trkpt>
      <trkpt lat="44.34916" lon="3.85838">
        <ele>1274.63</ele>
        <time>2025-11-18T14:18:28Z</time>
      </trkpt>
      <trkpt lat="44.34913" lon="3.85849">
        <ele>1275.85</ele>
        <time>2025-11-18T14:18:52Z</time>
      </trkpt>
      <trkpt lat="44.34916" lon="3.85862">
        <ele>1276.75</ele>
        <time>2025-11-18T14:19:04Z</time>
      </trkpt>
      <trkpt lat="44.34921" lon="3.85874">
        <ele>1277.71</ele>
        <time>2025-11-18T14:19:15Z</time>
      </trkpt>
      <trkpt lat="44.34916" lon="3.85884">
        <ele>1278.91</ele>
        <time>2025-11-18T14:19:32Z</time>
      </trkpt>
      <trkpt lat="44.34915" lon="3.85896">
        <ele>1280.23</ele>
        <time>2025-11-18T14:19:44Z</time>
      </trkpt>
      <trkpt lat="44.34912" lon="3.8591">
        <ele>1281.29</ele>
        <time>2025-11-18T14:19:54Z</time>
      </trkpt>
      <trkpt lat="44.34916" lon="3.85917">
        <ele>1281.62</ele>
        <time>2025-11-18T14:21:05Z</time>
      </trkpt>
      <trkpt lat="44.34922" lon="3.85925">
        <ele>1281.94</ele>
        <time>2025-11-18T14:21:16Z</time>
      </trkpt>
      <trkpt lat="44.34928" lon="3.85936">
        <ele>1281.95</ele>
        <time>2025-11-18T14:21:26Z</time>
      </trkpt>
      <trkpt lat="44.34934" lon="3.85944">
        <ele>1282.75</ele>
        <time>2025-11-18T14:21:37Z</time>
      </trkpt>
      <trkpt lat="44.34942" lon="3.85951">
        <ele>1282.09</ele>
        <time>2025-11-18T14:21:50Z</time>
      </trkpt>
      <trkpt lat="44.34949" lon="3.85962">
        <ele>1282.86</ele>
        <time>2025-11-18T14:22:01Z</time>
      </trkpt>
      <trkpt lat="44.34955" lon="3.85973">
        <ele>1283.51</ele>
        <time>2025-11-18T14:22:12Z</time>
      </trkpt>
      <trkpt lat="44.34957" lon="3.85987">
        <ele>1283.93</ele>
        <time>2025-11-18T14:22:25Z</time>
      </trkpt>
      <trkpt lat="44.34964" lon="3.85999">
        <ele>1284.93</ele>
        <time>2025-11-18T14:22:41Z</time>
      </trkpt>
      <trkpt lat="44.34972" lon="3.86008">
        <ele>1285.76</ele>
        <time>2025-11-18T14:22:58Z</time>
      </trkpt>
      <trkpt lat="44.34978" lon="3.8602">
        <ele>1287.36</ele>
        <time>2025-11-18T14:23:13Z</time>
      </trkpt>
      <trkpt lat="44.34984" lon="3.8603">
        <ele>1287.08</ele>
        <time>2025-11-18T14:23:27Z</time>
      </trkpt>
      <trkpt lat="44.34989" lon="3.8604">
        <ele>1289.12</ele>
        <time>2025-11-18T14:24:18Z</time>
      </trkpt>
      <trkpt lat="44.34995" lon="3.8605">
        <ele>1289.51</ele>
        <time>2025-11-18T14:24:29Z</time>
      </trkpt>
      <trkpt lat="44.35001" lon="3.8606">
        <ele>1288.7</ele>
        <time>2025-11-18T14:24:39Z</time>
      </trkpt>
      <trkpt lat="44.35005" lon="3.86073">
        <ele>1289.64</ele>
        <time>2025-11-18T14:24:58Z</time>
      </trkpt>
      <trkpt lat="44.35013" lon="3.86081">
        <ele>1289.99</ele>
        <time>2025-11-18T14:25:25Z</time>
      </trkpt>
      <trkpt lat="44.35022" lon="3.86086">
        <ele>1290.6</ele>
        <time>2025-11-18T14:25:42Z</time>
      </trkpt>
      <trkpt lat="44.35032" lon="3.86093">
        <ele>1290.78</ele>
        <time>2025-11-18T14:25:56Z</time>
      </trkpt>
      <trkpt lat="44.35041" lon="3.86098">
        <ele>1290.77</ele>
        <time>2025-11-18T14:26:05Z</time>
      </trkpt>
      <trkpt lat="44.35047" lon="3.86105">
        <ele>1290.66</ele>
        <time>2025-11-18T14:26:15Z</time>
      </trkpt>
      <trkpt lat="44.35055" lon="3.8611">
        <ele>1290.72</ele>
        <time>2025-11-18T14:26:29Z</time>
      </trkpt>
      <trkpt lat="44.35064" lon="3.86115">
        <ele>1291.23</ele>
        <time>2025-11-18T14:26:38Z</time>
      </trkpt>
      <trkpt lat="44.35072" lon="3.86118">
        <ele>1291.63</ele>
        <time>2025-11-18T14:26:47Z</time>
      </trkpt>
      <trkpt lat="44.35079" lon="3.86125">
        <ele>1292.73</ele>
        <time>2025-11-18T14:27:13Z</time>
      </trkpt>
      <trkpt lat="44.35087" lon="3.86131">
        <ele>1292.69</ele>
        <time>2025-11-18T14:27:27Z</time>
      </trkpt>
      <trkpt lat="44.35096" lon="3.86136">
        <ele>1293.86</ele>
        <time>2025-11-18T14:27:39Z</time>
      </trkpt>
      <trkpt lat="44.35104" lon="3.86143">
        <ele>1294.47</ele>
        <time>2025-11-18T14:27:55Z</time>
      </trkpt>
      <trkpt lat="44.35115" lon="3.86145">
        <ele>1294.67</ele>
        <time>2025-11-18T14:28:05Z</time>
      </trkpt>
      <trkpt lat="44.35124" lon="3.86148">
        <ele>1294.84</ele>
        <time>2025-11-18T14:28:14Z</time>
      </trkpt>
      <trkpt lat="44.35132" lon="3.86153">
        <ele>1295.07</ele>
        <time>2025-11-18T14:28:24Z</time>
      </trkpt>
      <trkpt lat="44.35141" lon="3.86156">
        <ele>1295.57</ele>
        <time>2025-11-18T14:28:33Z</time>
      </trkpt>
      <trkpt lat="44.35151" lon="3.86161">
        <ele>1296.07</ele>
        <time>2025-11-18T14:28:43Z</time>
      </trkpt>
      <trkpt lat="44.35162" lon="3.86163">
        <ele>1296.58</ele>
        <time>2025-11-18T14:28:52Z</time>
      </trkpt>
      <trkpt lat="44.35171" lon="3.86165">
        <ele>1297.05</ele>
        <time>2025-11-18T14:29:14Z</time>
      </trkpt>
      <trkpt lat="44.3518" lon="3.8617">
        <ele>1297.42</ele>
        <time>2025-11-18T14:29:24Z</time>
      </trkpt>
      <trkpt lat="44.35189" lon="3.86173">
        <ele>1297.1</ele>
        <time>2025-11-18T14:29:47Z</time>
      </trkpt>
      <trkpt lat="44.35199" lon="3.86174">
        <ele>1297.66</ele>
        <time>2025-11-18T14:29:56Z</time>
      </trkpt>
      <trkpt lat="44.35206" lon="3.86183">
        <ele>1298.44</ele>
        <time>2025-11-18T14:30:10Z</time>
      </trkpt>
      <trkpt lat="44.35215" lon="3.86183">
        <ele>1298.93</ele>
        <time>2025-11-18T14:30:20Z</time>
      </trkpt>
      <trkpt lat="44.3522" lon="3.86193">
        <ele>1299.04</ele>
        <time>2025-11-18T14:30:37Z</time>
      </trkpt>
      <trkpt lat="44.35226" lon="3.86201">
        <ele>1299.39</ele>
        <time>2025-11-18T14:30:48Z</time>
      </trkpt>
      <trkpt lat="44.35232" lon="3.86209">
        <ele>1299.59</ele>
        <time>2025-11-18T14:31:01Z</time>
      </trkpt>
      <trkpt lat="44.35239" lon="3.86219">
        <ele>1301.62</ele>
        <time>2025-11-18T14:31:35Z</time>
      </trkpt>
      <trkpt lat="44.35244" lon="3.86228">
        <ele>1304.95</ele>
        <time>2025-11-18T14:31:47Z</time>
      </trkpt>
      <trkpt lat="44.3525" lon="3.86236">
        <ele>1306.72</ele>
        <time>2025-11-18T14:32:01Z</time>
      </trkpt>
      <trkpt lat="44.35257" lon="3.86243">
        <ele>1307.49</ele>
        <time>2025-11-18T14:32:48Z</time>
      </trkpt>
      <trkpt lat="44.35264" lon="3.86248">
        <ele>1308.79</ele>
        <time>2025-11-18T14:33:00Z</time>
      </trkpt>
      <trkpt lat="44.35273" lon="3.86246">
        <ele>1309.52</ele>
        <time>2025-11-18T14:33:09Z</time>
      </trkpt>
      <trkpt lat="44.35282" lon="3.86243">
        <ele>1310.51</ele>
        <time>2025-11-18T14:33:19Z</time>
      </trkpt>
      <trkpt lat="44.35292" lon="3.8624">
        <ele>1310.9</ele>
        <time>2025-11-18T14:33:29Z</time>
      </trkpt>
      <trkpt lat="44.35301" lon="3.86237">
        <ele>1311.38</ele>
        <time>2025-11-18T14:33:40Z</time>
      </trkpt>
      <trkpt lat="44.35311" lon="3.86236">
        <ele>1311.22</ele>
        <time>2025-11-18T14:33:51Z</time>
      </trkpt>
      <trkpt lat="44.35318" lon="3.86242">
        <ele>1312.19</ele>
        <time>2025-11-18T14:34:05Z</time>
      </trkpt>
      <trkpt lat="44.35326" lon="3.86249">
        <ele>1313.19</ele>
        <time>2025-11-18T14:34:17Z</time>
      </trkpt>
      <trkpt lat="44.35336" lon="3.86249">
        <ele>1313.19</ele>
        <time>2025-11-18T14:34:27Z</time>
      </trkpt>
      <trkpt lat="44.35346" lon="3.86248">
        <ele>1312.45</ele>
        <time>2025-11-18T14:34:36Z</time>
      </trkpt>
      <trkpt lat="44.35355" lon="3.86246">
        <ele>1312.16</ele>
        <time>2025-11-18T14:34:48Z</time>
      </trkpt>
      <trkpt lat="44.35365" lon="3.86242">
        <ele>1311.54</ele>
        <time>2025-11-18T14:34:58Z</time>
      </trkpt>
      <trkpt lat="44.35374" lon="3.86244">
        <ele>1311.48</ele>
        <time>2025-11-18T14:35:09Z</time>
      </trkpt>
      <trkpt lat="44.35383" lon="3.8625">
        <ele>1311.79</ele>
        <time>2025-11-18T14:35:22Z</time>
      </trkpt>
      <trkpt lat="44.35392" lon="3.86254">
        <ele>1311.64</ele>
        <time>2025-11-18T14:35:33Z</time>
      </trkpt>
      <trkpt lat="44.354" lon="3.86261">
        <ele>1311.86</ele>
        <time>2025-11-18T14:35:52Z</time>
      </trkpt>
      <trkpt lat="44.35409" lon="3.86261">
        <ele>1311.42</ele>
        <time>2025-11-18T14:36:05Z</time>
      </trkpt>
      <trkpt lat="44.35419" lon="3.86264">
        <ele>1311.7</ele>
        <time>2025-11-18T14:36:16Z</time>
      </trkpt>
      <trkpt lat="44.35428" lon="3.86272">
        <ele>1312.18</ele>
        <time>2025-11-18T14:36:46Z</time>
      </trkpt>
      <trkpt lat="44.35436" lon="3.86278">
        <ele>1311.73</ele>
        <time>2025-11-18T14:36:57Z</time>
      </trkpt>
      <trkpt lat="44.35442" lon="3.86288">
        <ele>1312.9</ele>
        <time>2025-11-18T14:37:14Z</time>
      </trkpt>
      <trkpt lat="44.35448" lon="3.86297">
        <ele>1313.19</ele>
        <time>2025-11-18T14:37:56Z</time>
      </trkpt>
      <trkpt lat="44.35452" lon="3.86293">
        <ele>1312.56</ele>
        <time>2025-11-18T14:38:51Z</time>
      </trkpt>
      <trkpt lat="44.35459" lon="3.86294">
        <ele>1312.29</ele>
        <time>2025-11-18T14:39:12Z</time>
      </trkpt>
      <trkpt lat="44.35464" lon="3.86306">
        <ele>1313.8</ele>
        <time>2025-11-18T14:39:28Z</time>
      </trkpt>
      <trkpt lat="44.35467" lon="3.86321">
        <ele>1314.88</ele>
        <time>2025-11-18T14:39:43Z</time>
      </trkpt>
      <trkpt lat="44.35473" lon="3.86331">
        <ele>1315.98</ele>
        <time>2025-11-18T14:40:01Z</time>
      </trkpt>
      <trkpt lat="44.35478" lon="3.86342">
        <ele>1316.27</ele>
        <time>2025-11-18T14:40:12Z</time>
      </trkpt>
      <trkpt lat="44.35478" lon="3.86357">
        <ele>1316.85</ele>
        <time>2025-11-18T14:40:27Z</time>
      </trkpt>
      <trkpt lat="44.35479" lon="3.86371">
        <ele>1316.95</ele>
        <time>2025-11-18T14:40:39Z</time>
      </trkpt>
      <trkpt lat="44.35482" lon="3.86384">
        <ele>1316.96</ele>
        <time>2025-11-18T14:40:52Z</time>
      </trkpt>
      <trkpt lat="44.35485" lon="3.86397">
        <ele>1317.03</ele>
        <time>2025-11-18T14:41:04Z</time>
      </trkpt>
      <trkpt lat="44.3549" lon="3.86407">
        <ele>1317.08</ele>
        <time>2025-11-18T14:41:23Z</time>
      </trkpt>
      <trkpt lat="44.35499" lon="3.86413">
        <ele>1316.38</ele>
        <time>2025-11-18T14:41:35Z</time>
      </trkpt>
      <trkpt lat="44.35506" lon="3.8642">
        <ele>1316.67</ele>
        <time>2025-11-18T14:41:45Z</time>
      </trkpt>
      <trkpt lat="44.35516" lon="3.86422">
        <ele>1316.91</ele>
        <time>2025-11-18T14:41:56Z</time>
      </trkpt>
      <trkpt lat="44.35525" lon="3.86422">
        <ele>1317.11</ele>
        <time>2025-11-18T14:42:05Z</time>
      </trkpt>
      <trkpt lat="44.35535" lon="3.86421">
        <ele>1317.28</ele>
        <time>2025-11-18T14:42:15Z</time>
      </trkpt>
      <trkpt lat="44.35538" lon="3.86419">
        <ele>1317.52</ele>
        <time>2025-11-18T14:43:17Z</time>
      </trkpt>
      <trkpt lat="44.35545" lon="3.86415">
        <ele>1317.92</ele>
        <time>2025-11-18T14:43:32Z</time>
      </trkpt>
      <trkpt lat="44.35544" lon="3.86418">
        <ele>1317.66</ele>
        <time>2025-11-18T14:44:30Z</time>
      </trkpt>
      <trkpt lat="44.35542" lon="3.86432">
        <ele>1317.92</ele>
        <time>2025-11-18T14:44:39Z</time>
      </trkpt>
      <trkpt lat="44.35541" lon="3.86446">
        <ele>1318.12</ele>
        <time>2025-11-18T14:44:48Z</time>
      </trkpt>
      <trkpt lat="44.35542" lon="3.86458">
        <ele>1318.63</ele>
        <time>2025-11-18T14:44:59Z</time>
      </trkpt>
      <trkpt lat="44.35544" lon="3.8647">
        <ele>1318.88</ele>
        <time>2025-11-18T14:45:13Z</time>
      </trkpt>
      <trkpt lat="44.35548" lon="3.86485">
        <ele>1319.6</ele>
        <time>2025-11-18T14:45:31Z</time>
      </trkpt>
      <trkpt lat="44.3555" lon="3.86498">
        <ele>1320.17</ele>
        <time>2025-11-18T14:45:41Z</time>
      </trkpt>
      <trkpt lat="44.35549" lon="3.86512">
        <ele>1320.86</ele>
        <time>2025-11-18T14:45:51Z</time>
      </trkpt>
      <trkpt lat="44.35546" lon="3.86526">
        <ele>1320.97</ele>
        <time>2025-11-18T14:46:00Z</time>
      </trkpt>
      <trkpt lat="44.35542" lon="3.86537">
        <ele>1321.17</ele>
        <time>2025-11-18T14:46:09Z</time>
      </trkpt>
      <trkpt lat="44.35543" lon="3.86549">
        <ele>1321.97</ele>
        <time>2025-11-18T14:46:27Z</time>
      </trkpt>
      <trkpt lat="44.35541" lon="3.86562">
        <ele>1322.66</ele>
        <time>2025-11-18T14:46:36Z</time>
      </trkpt>
      <trkpt lat="44.35538" lon="3.86576">
        <ele>1323.48</ele>
        <time>2025-11-18T14:46:46Z</time>
      </trkpt>
      <trkpt lat="44.35537" lon="3.8659">
        <ele>1324.62</ele>
        <time>2025-11-18T14:46:57Z</time>
      </trkpt>
      <trkpt lat="44.35538" lon="3.86601">
        <ele>1327.33</ele>
        <time>2025-11-18T14:47:12Z</time>
      </trkpt>
      <trkpt lat="44.35537" lon="3.86613">
        <ele>1329.12</ele>
        <time>2025-11-18T14:47:37Z</time>
      </trkpt>
      <trkpt lat="44.35537" lon="3.86626">
        <ele>1331.8</ele>
        <time>2025-11-18T14:47:56Z</time>
      </trkpt>
      <trkpt lat="44.35531" lon="3.8663">
        <ele>1333.64</ele>
        <time>2025-11-18T14:48:20Z</time>
      </trkpt>
      <trkpt lat="44.35531" lon="3.86644">
        <ele>1336.35</ele>
        <time>2025-11-18T14:48:40Z</time>
      </trkpt>
      <trkpt lat="44.35532" lon="3.86655">
        <ele>1339.28</ele>
        <time>2025-11-18T14:48:58Z</time>
      </trkpt>
      <trkpt lat="44.35531" lon="3.86662">
        <ele>1340.9</ele>
        <time>2025-11-18T14:49:27Z</time>
      </trkpt>
      <trkpt lat="44.3553" lon="3.86672">
        <ele>1343.19</ele>
        <time>2025-11-18T14:49:46Z</time>
      </trkpt>
      <trkpt lat="44.35531" lon="3.86683">
        <ele>1346.12</ele>
        <time>2025-11-18T14:50:02Z</time>
      </trkpt>
      <trkpt lat="44.35532" lon="3.86694">
        <ele>1347.66</ele>
        <time>2025-11-18T14:50:21Z</time>
      </trkpt>
      <trkpt lat="44.35525" lon="3.86703">
        <ele>1348.15</ele>
        <time>2025-11-18T14:50:32Z</time>
      </trkpt>
      <trkpt lat="44.35518" lon="3.86712">
        <ele>1348.67</ele>
        <time>2025-11-18T14:50:42Z</time>
      </trkpt>
      <trkpt lat="44.35512" lon="3.86722">
        <ele>1349.19</ele>
        <time>2025-11-18T14:50:53Z</time>
      </trkpt>
      <trkpt lat="44.35508" lon="3.86735">
        <ele>1349.16</ele>
        <time>2025-11-18T14:51:02Z</time>
      </trkpt>
      <trkpt lat="44.35505" lon="3.8675">
        <ele>1349.37</ele>
        <time>2025-11-18T14:51:12Z</time>
      </trkpt>
      <trkpt lat="44.35506" lon="3.86758">
        <ele>1349.53</ele>
        <time>2025-11-18T14:51:31Z</time>
      </trkpt>
      <trkpt lat="44.35504" lon="3.86773">
        <ele>1349.54</ele>
        <time>2025-11-18T14:51:54Z</time>
      </trkpt>
      <trkpt lat="44.35503" lon="3.86788">
        <ele>1350.16</ele>
        <time>2025-11-18T14:52:03Z</time>
      </trkpt>
      <trkpt lat="44.35502" lon="3.86802">
        <ele>1350.43</ele>
        <time>2025-11-18T14:52:12Z</time>
      </trkpt>
      <trkpt lat="44.35502" lon="3.86816">
        <ele>1350.84</ele>
        <time>2025-11-18T14:52:21Z</time>
      </trkpt>
      <trkpt lat="44.35502" lon="3.86829">
        <ele>1351.22</ele>
        <time>2025-11-18T14:52:30Z</time>
      </trkpt>
      <trkpt lat="44.35504" lon="3.86841">
        <ele>1349.6</ele>
        <time>2025-11-18T14:56:51Z</time>
      </trkpt>
      <trkpt lat="44.35506" lon="3.86846">
        <ele>1351.45</ele>
        <time>2025-11-18T15:13:15Z</time>
      </trkpt>
      <trkpt lat="44.35511" lon="3.86858">
        <ele>1351.33</ele>
        <time>2025-11-18T15:13:24Z</time>
      </trkpt>
      <trkpt lat="44.35516" lon="3.86869">
        <ele>1351.2</ele>
        <time>2025-11-18T15:13:32Z</time>
      </trkpt>
      <trkpt lat="44.35522" lon="3.86879">
        <ele>1350.85</ele>
        <time>2025-11-18T15:13:40Z</time>
      </trkpt>
      <trkpt lat="44.35529" lon="3.86888">
        <ele>1350.55</ele>
        <time>2025-11-18T15:13:48Z</time>
      </trkpt>
      <trkpt lat="44.35536" lon="3.86897">
        <ele>1350.06</ele>
        <time>2025-11-18T15:13:56Z</time>
      </trkpt>
      <trkpt lat="44.35543" lon="3.86906">
        <ele>1349.76</ele>
        <time>2025-11-18T15:14:04Z</time>
      </trkpt>
      <trkpt lat="44.35549" lon="3.86915">
        <ele>1349.37</ele>
        <time>2025-11-18T15:14:12Z</time>
      </trkpt>
      <trkpt lat="44.35556" lon="3.86924">
        <ele>1349.53</ele>
        <time>2025-11-18T15:14:20Z</time>
      </trkpt>
      <trkpt lat="44.35563" lon="3.86932">
        <ele>1349.32</ele>
        <time>2025-11-18T15:14:28Z</time>
      </trkpt>
      <trkpt lat="44.3557" lon="3.86941">
        <ele>1349.04</ele>
        <time>2025-11-18T15:14:36Z</time>
      </trkpt>
      <trkpt lat="44.35578" lon="3.86951">
        <ele>1349.29</ele>
        <time>2025-11-18T15:14:45Z</time>
      </trkpt>
      <trkpt lat="44.35586" lon="3.86961">
        <ele>1349.1</ele>
        <time>2025-11-18T15:14:53Z</time>
      </trkpt>
      <trkpt lat="44.35593" lon="3.86971">
        <ele>1349</ele>
        <time>2025-11-18T15:15:01Z</time>
      </trkpt>
      <trkpt lat="44.356" lon="3.86981">
        <ele>1349.07</ele>
        <time>2025-11-18T15:15:09Z</time>
      </trkpt>
      <trkpt lat="44.35607" lon="3.8699">
        <ele>1349.05</ele>
        <time>2025-11-18T15:15:17Z</time>
      </trkpt>
      <trkpt lat="44.35615" lon="3.87001">
        <ele>1349.03</ele>
        <time>2025-11-18T15:15:25Z</time>
      </trkpt>
      <trkpt lat="44.35621" lon="3.87009">
        <ele>1348.68</ele>
        <time>2025-11-18T15:15:33Z</time>
      </trkpt>
      <trkpt lat="44.35629" lon="3.8702">
        <ele>1348.28</ele>
        <time>2025-11-18T15:15:42Z</time>
      </trkpt>
      <trkpt lat="44.35635" lon="3.87031">
        <ele>1348.13</ele>
        <time>2025-11-18T15:15:50Z</time>
      </trkpt>
      <trkpt lat="44.35643" lon="3.87041">
        <ele>1347.38</ele>
        <time>2025-11-18T15:16:01Z</time>
      </trkpt>
      <trkpt lat="44.35649" lon="3.87052">
        <ele>1347.2</ele>
        <time>2025-11-18T15:16:09Z</time>
      </trkpt>
      <trkpt lat="44.35656" lon="3.87061">
        <ele>1346.67</ele>
        <time>2025-11-18T15:16:16Z</time>
      </trkpt>
      <trkpt lat="44.35662" lon="3.87071">
        <ele>1346.52</ele>
        <time>2025-11-18T15:16:23Z</time>
      </trkpt>
      <trkpt lat="44.3567" lon="3.8708">
        <ele>1346.11</ele>
        <time>2025-11-18T15:16:31Z</time>
      </trkpt>
      <trkpt lat="44.35677" lon="3.87089">
        <ele>1345.75</ele>
        <time>2025-11-18T15:16:39Z</time>
      </trkpt>
      <trkpt lat="44.35684" lon="3.87099">
        <ele>1345.36</ele>
        <time>2025-11-18T15:16:47Z</time>
      </trkpt>
      <trkpt lat="44.35691" lon="3.87108">
        <ele>1344.39</ele>
        <time>2025-11-18T15:16:55Z</time>
      </trkpt>
      <trkpt lat="44.35698" lon="3.87117">
        <ele>1343.86</ele>
        <time>2025-11-18T15:17:03Z</time>
      </trkpt>
      <trkpt lat="44.35705" lon="3.87127">
        <ele>1343.08</ele>
        <time>2025-11-18T15:17:12Z</time>
      </trkpt>
      <trkpt lat="44.35711" lon="3.87138">
        <ele>1342.99</ele>
        <time>2025-11-18T15:17:21Z</time>
      </trkpt>
      <trkpt lat="44.35715" lon="3.8715">
        <ele>1342.6</ele>
        <time>2025-11-18T15:17:30Z</time>
      </trkpt>
      <trkpt lat="44.35718" lon="3.87164">
        <ele>1342.16</ele>
        <time>2025-11-18T15:17:38Z</time>
      </trkpt>
      <trkpt lat="44.3572" lon="3.87177">
        <ele>1341.74</ele>
        <time>2025-11-18T15:17:46Z</time>
      </trkpt>
      <trkpt lat="44.35721" lon="3.87191">
        <ele>1341.16</ele>
        <time>2025-11-18T15:17:54Z</time>
      </trkpt>
      <trkpt lat="44.35722" lon="3.87206">
        <ele>1340.51</ele>
        <time>2025-11-18T15:18:03Z</time>
      </trkpt>
      <trkpt lat="44.35724" lon="3.8722">
        <ele>1340.09</ele>
        <time>2025-11-18T15:18:12Z</time>
      </trkpt>
      <trkpt lat="44.35725" lon="3.87234">
        <ele>1339.08</ele>
        <time>2025-11-18T15:18:21Z</time>
      </trkpt>
      <trkpt lat="44.35726" lon="3.87248">
        <ele>1338.85</ele>
        <time>2025-11-18T15:18:30Z</time>
      </trkpt>
      <trkpt lat="44.35725" lon="3.87263">
        <ele>1338.65</ele>
        <time>2025-11-18T15:18:39Z</time>
      </trkpt>
      <trkpt lat="44.35725" lon="3.87277">
        <ele>1337.81</ele>
        <time>2025-11-18T15:18:48Z</time>
      </trkpt>
      <trkpt lat="44.35727" lon="3.87292">
        <ele>1337.19</ele>
        <time>2025-11-18T15:18:56Z</time>
      </trkpt>
      <trkpt lat="44.35729" lon="3.87306">
        <ele>1336.82</ele>
        <time>2025-11-18T15:19:04Z</time>
      </trkpt>
      <trkpt lat="44.35728" lon="3.8732">
        <ele>1336.55</ele>
        <time>2025-11-18T15:19:12Z</time>
      </trkpt>
      <trkpt lat="44.35727" lon="3.87333">
        <ele>1336.27</ele>
        <time>2025-11-18T15:19:20Z</time>
      </trkpt>
      <trkpt lat="44.35723" lon="3.87345">
        <ele>1335.83</ele>
        <time>2025-11-18T15:19:28Z</time>
      </trkpt>
      <trkpt lat="44.35716" lon="3.87355">
        <ele>1335.22</ele>
        <time>2025-11-18T15:19:37Z</time>
      </trkpt>
      <trkpt lat="44.35707" lon="3.87361">
        <ele>1334.4</ele>
        <time>2025-11-18T15:19:46Z</time>
      </trkpt>
      <trkpt lat="44.35699" lon="3.87368">
        <ele>1333.83</ele>
        <time>2025-11-18T15:19:54Z</time>
      </trkpt>
      <trkpt lat="44.3569" lon="3.87374">
        <ele>1333.11</ele>
        <time>2025-11-18T15:20:02Z</time>
      </trkpt>
      <trkpt lat="44.35681" lon="3.8738">
        <ele>1332.45</ele>
        <time>2025-11-18T15:20:10Z</time>
      </trkpt>
      <trkpt lat="44.35673" lon="3.87386">
        <ele>1331.67</ele>
        <time>2025-11-18T15:20:18Z</time>
      </trkpt>
      <trkpt lat="44.35666" lon="3.87393">
        <ele>1331.14</ele>
        <time>2025-11-18T15:20:26Z</time>
      </trkpt>
      <trkpt lat="44.35658" lon="3.87401">
        <ele>1330.21</ele>
        <time>2025-11-18T15:20:34Z</time>
      </trkpt>
      <trkpt lat="44.35649" lon="3.87408">
        <ele>1328.86</ele>
        <time>2025-11-18T15:20:43Z</time>
      </trkpt>
      <trkpt lat="44.35639" lon="3.87413">
        <ele>1328.18</ele>
        <time>2025-11-18T15:20:51Z</time>
      </trkpt>
      <trkpt lat="44.35631" lon="3.87419">
        <ele>1327.55</ele>
        <time>2025-11-18T15:20:59Z</time>
      </trkpt>
      <trkpt lat="44.35623" lon="3.87425">
        <ele>1326.88</ele>
        <time>2025-11-18T15:21:07Z</time>
      </trkpt>
      <trkpt lat="44.35615" lon="3.8743">
        <ele>1325.96</ele>
        <time>2025-11-18T15:21:15Z</time>
      </trkpt>
      <trkpt lat="44.35606" lon="3.87437">
        <ele>1325.07</ele>
        <time>2025-11-18T15:21:24Z</time>
      </trkpt>
      <trkpt lat="44.356" lon="3.87442">
        <ele>1325</ele>
        <time>2025-11-18T15:21:58Z</time>
      </trkpt>
      <trkpt lat="44.35591" lon="3.8745">
        <ele>1323.6</ele>
        <time>2025-11-18T15:22:07Z</time>
      </trkpt>
      <trkpt lat="44.35589" lon="3.87459">
        <ele>1322.32</ele>
        <time>2025-11-18T15:22:51Z</time>
      </trkpt>
      <trkpt lat="44.35582" lon="3.87468">
        <ele>1321.34</ele>
        <time>2025-11-18T15:22:59Z</time>
      </trkpt>
      <trkpt lat="44.35575" lon="3.87476">
        <ele>1320.36</ele>
        <time>2025-11-18T15:23:07Z</time>
      </trkpt>
      <trkpt lat="44.35567" lon="3.87484">
        <ele>1319.73</ele>
        <time>2025-11-18T15:23:15Z</time>
      </trkpt>
      <trkpt lat="44.35559" lon="3.87494">
        <ele>1318.82</ele>
        <time>2025-11-18T15:23:23Z</time>
      </trkpt>
      <trkpt lat="44.35552" lon="3.87503">
        <ele>1318.03</ele>
        <time>2025-11-18T15:23:31Z</time>
      </trkpt>
      <trkpt lat="44.35544" lon="3.87513">
        <ele>1317.16</ele>
        <time>2025-11-18T15:23:40Z</time>
      </trkpt>
      <trkpt lat="44.35537" lon="3.87523">
        <ele>1316.14</ele>
        <time>2025-11-18T15:23:48Z</time>
      </trkpt>
      <trkpt lat="44.3553" lon="3.87533">
        <ele>1315.31</ele>
        <time>2025-11-18T15:23:56Z</time>
      </trkpt>
      <trkpt lat="44.35524" lon="3.87543">
        <ele>1314.47</ele>
        <time>2025-11-18T15:24:04Z</time>
      </trkpt>
      <trkpt lat="44.35518" lon="3.87553">
        <ele>1313.65</ele>
        <time>2025-11-18T15:24:12Z</time>
      </trkpt>
      <trkpt lat="44.3551" lon="3.87563">
        <ele>1313.03</ele>
        <time>2025-11-18T15:24:21Z</time>
      </trkpt>
      <trkpt lat="44.35503" lon="3.87572">
        <ele>1312.34</ele>
        <time>2025-11-18T15:24:30Z</time>
      </trkpt>
      <trkpt lat="44.35495" lon="3.87582">
        <ele>1312.03</ele>
        <time>2025-11-18T15:24:39Z</time>
      </trkpt>
      <trkpt lat="44.35488" lon="3.87592">
        <ele>1311.89</ele>
        <time>2025-11-18T15:24:47Z</time>
      </trkpt>
      <trkpt lat="44.3548" lon="3.87602">
        <ele>1311.48</ele>
        <time>2025-11-18T15:24:56Z</time>
      </trkpt>
      <trkpt lat="44.35473" lon="3.87611">
        <ele>1311.23</ele>
        <time>2025-11-18T15:25:04Z</time>
      </trkpt>
      <trkpt lat="44.35466" lon="3.87621">
        <ele>1311.07</ele>
        <time>2025-11-18T15:25:12Z</time>
      </trkpt>
      <trkpt lat="44.35459" lon="3.8763">
        <ele>1310.7</ele>
        <time>2025-11-18T15:25:20Z</time>
      </trkpt>
      <trkpt lat="44.35453" lon="3.87639">
        <ele>1310.4</ele>
        <time>2025-11-18T15:25:28Z</time>
      </trkpt>
      <trkpt lat="44.35446" lon="3.87649">
        <ele>1310.06</ele>
        <time>2025-11-18T15:25:37Z</time>
      </trkpt>
      <trkpt lat="44.35438" lon="3.87658">
        <ele>1309.42</ele>
        <time>2025-11-18T15:25:45Z</time>
      </trkpt>
      <trkpt lat="44.35432" lon="3.87669">
        <ele>1308.88</ele>
        <time>2025-11-18T15:25:53Z</time>
      </trkpt>
      <trkpt lat="44.35425" lon="3.87678">
        <ele>1308.44</ele>
        <time>2025-11-18T15:26:01Z</time>
      </trkpt>
      <trkpt lat="44.35419" lon="3.87689">
        <ele>1307.84</ele>
        <time>2025-11-18T15:26:09Z</time>
      </trkpt>
      <trkpt lat="44.35411" lon="3.877">
        <ele>1307.28</ele>
        <time>2025-11-18T15:26:17Z</time>
      </trkpt>
      <trkpt lat="44.35404" lon="3.87709">
        <ele>1306.76</ele>
        <time>2025-11-18T15:26:25Z</time>
      </trkpt>
      <trkpt lat="44.35397" lon="3.87718">
        <ele>1306.11</ele>
        <time>2025-11-18T15:26:33Z</time>
      </trkpt>
      <trkpt lat="44.3539" lon="3.87728">
        <ele>1305.34</ele>
        <time>2025-11-18T15:26:41Z</time>
      </trkpt>
      <trkpt lat="44.35382" lon="3.87736">
        <ele>1304.78</ele>
        <time>2025-11-18T15:26:49Z</time>
      </trkpt>
      <trkpt lat="44.35375" lon="3.87744">
        <ele>1304.34</ele>
        <time>2025-11-18T15:26:57Z</time>
      </trkpt>
      <trkpt lat="44.35367" lon="3.87754">
        <ele>1303.6</ele>
        <time>2025-11-18T15:27:05Z</time>
      </trkpt>
      <trkpt lat="44.35361" lon="3.87763">
        <ele>1303.03</ele>
        <time>2025-11-18T15:27:13Z</time>
      </trkpt>
      <trkpt lat="44.35353" lon="3.87773">
        <ele>1302.29</ele>
        <time>2025-11-18T15:27:21Z</time>
      </trkpt>
      <trkpt lat="44.35345" lon="3.87783">
        <ele>1301.79</ele>
        <time>2025-11-18T15:27:31Z</time>
      </trkpt>
      <trkpt lat="44.3534" lon="3.87792">
        <ele>1301.05</ele>
        <time>2025-11-18T15:27:39Z</time>
      </trkpt>
      <trkpt lat="44.35333" lon="3.87802">
        <ele>1300.39</ele>
        <time>2025-11-18T15:27:47Z</time>
      </trkpt>
      <trkpt lat="44.35326" lon="3.87812">
        <ele>1299.82</ele>
        <time>2025-11-18T15:27:55Z</time>
      </trkpt>
      <trkpt lat="44.3532" lon="3.87822">
        <ele>1299.19</ele>
        <time>2025-11-18T15:28:03Z</time>
      </trkpt>
      <trkpt lat="44.35313" lon="3.87833">
        <ele>1298.23</ele>
        <time>2025-11-18T15:28:11Z</time>
      </trkpt>
      <trkpt lat="44.35306" lon="3.87843">
        <ele>1297.62</ele>
        <time>2025-11-18T15:28:19Z</time>
      </trkpt>
      <trkpt lat="44.35299" lon="3.87852">
        <ele>1297.02</ele>
        <time>2025-11-18T15:28:27Z</time>
      </trkpt>
      <trkpt lat="44.35292" lon="3.8786">
        <ele>1296.19</ele>
        <time>2025-11-18T15:28:35Z</time>
      </trkpt>
      <trkpt lat="44.35286" lon="3.8787">
        <ele>1295.62</ele>
        <time>2025-11-18T15:28:43Z</time>
      </trkpt>
      <trkpt lat="44.3528" lon="3.87881">
        <ele>1295.1</ele>
        <time>2025-11-18T15:28:51Z</time>
      </trkpt>
      <trkpt lat="44.35275" lon="3.87892">
        <ele>1294.47</ele>
        <time>2025-11-18T15:28:59Z</time>
      </trkpt>
      <trkpt lat="44.35271" lon="3.87905">
        <ele>1294.13</ele>
        <time>2025-11-18T15:29:07Z</time>
      </trkpt>
      <trkpt lat="44.35269" lon="3.87918">
        <ele>1293.56</ele>
        <time>2025-11-18T15:29:15Z</time>
      </trkpt>
      <trkpt lat="44.35269" lon="3.8793">
        <ele>1293.11</ele>
        <time>2025-11-18T15:29:24Z</time>
      </trkpt>
      <trkpt lat="44.35272" lon="3.87944">
        <ele>1292.48</ele>
        <time>2025-11-18T15:29:32Z</time>
      </trkpt>
      <trkpt lat="44.35279" lon="3.87953">
        <ele>1292.2</ele>
        <time>2025-11-18T15:29:40Z</time>
      </trkpt>
      <trkpt lat="44.35287" lon="3.8796">
        <ele>1291.59</ele>
        <time>2025-11-18T15:29:48Z</time>
      </trkpt>
      <trkpt lat="44.35296" lon="3.87965">
        <ele>1290.91</ele>
        <time>2025-11-18T15:29:56Z</time>
      </trkpt>
      <trkpt lat="44.35305" lon="3.87971">
        <ele>1290.32</ele>
        <time>2025-11-18T15:30:03Z</time>
      </trkpt>
      <trkpt lat="44.35313" lon="3.87976">
        <ele>1289.77</ele>
        <time>2025-11-18T15:30:11Z</time>
      </trkpt>
      <trkpt lat="44.35322" lon="3.87982">
        <ele>1289.23</ele>
        <time>2025-11-18T15:30:19Z</time>
      </trkpt>
      <trkpt lat="44.35331" lon="3.87987">
        <ele>1288.85</ele>
        <time>2025-11-18T15:30:27Z</time>
      </trkpt>
      <trkpt lat="44.3534" lon="3.87993">
        <ele>1288.46</ele>
        <time>2025-11-18T15:30:35Z</time>
      </trkpt>
      <trkpt lat="44.35348" lon="3.87999">
        <ele>1287.85</ele>
        <time>2025-11-18T15:30:43Z</time>
      </trkpt>
      <trkpt lat="44.35357" lon="3.88003">
        <ele>1286.88</ele>
        <time>2025-11-18T15:30:50Z</time>
      </trkpt>
      <trkpt lat="44.35366" lon="3.88006">
        <ele>1285.93</ele>
        <time>2025-11-18T15:31:00Z</time>
      </trkpt>
      <trkpt lat="44.35364" lon="3.88004">
        <ele>1286.51</ele>
        <time>2025-11-18T15:33:29Z</time>
      </trkpt>
      <trkpt lat="44.35372" lon="3.88006">
        <ele>1285.87</ele>
        <time>2025-11-18T15:33:58Z</time>
      </trkpt>
      <trkpt lat="44.35382" lon="3.88007">
        <ele>1285.02</ele>
        <time>2025-11-18T15:34:07Z</time>
      </trkpt>
      <trkpt lat="44.35392" lon="3.88008">
        <ele>1284.36</ele>
        <time>2025-11-18T15:34:16Z</time>
      </trkpt>
      <trkpt lat="44.35403" lon="3.8801">
        <ele>1283.51</ele>
        <time>2025-11-18T15:34:24Z</time>
      </trkpt>
      <trkpt lat="44.35414" lon="3.88011">
        <ele>1282.96</ele>
        <time>2025-11-18T15:34:32Z</time>
      </trkpt>
      <trkpt lat="44.35424" lon="3.88013">
        <ele>1282.3</ele>
        <time>2025-11-18T15:34:40Z</time>
      </trkpt>
      <trkpt lat="44.35435" lon="3.88016">
        <ele>1281.25</ele>
        <time>2025-11-18T15:34:49Z</time>
      </trkpt>
      <trkpt lat="44.35444" lon="3.88019">
        <ele>1280.3</ele>
        <time>2025-11-18T15:34:58Z</time>
      </trkpt>
      <trkpt lat="44.35454" lon="3.88021">
        <ele>1279.48</ele>
        <time>2025-11-18T15:35:06Z</time>
      </trkpt>
      <trkpt lat="44.35464" lon="3.88024">
        <ele>1278.94</ele>
        <time>2025-11-18T15:35:15Z</time>
      </trkpt>
      <trkpt lat="44.35474" lon="3.88027">
        <ele>1278.39</ele>
        <time>2025-11-18T15:35:23Z</time>
      </trkpt>
      <trkpt lat="44.35484" lon="3.88029">
        <ele>1277.59</ele>
        <time>2025-11-18T15:35:32Z</time>
      </trkpt>
      <trkpt lat="44.35494" lon="3.88032">
        <ele>1276.97</ele>
        <time>2025-11-18T15:35:41Z</time>
      </trkpt>
      <trkpt lat="44.35503" lon="3.88037">
        <ele>1276.14</ele>
        <time>2025-11-18T15:35:49Z</time>
      </trkpt>
      <trkpt lat="44.35512" lon="3.88039">
        <ele>1275.58</ele>
        <time>2025-11-18T15:35:57Z</time>
      </trkpt>
      <trkpt lat="44.35522" lon="3.88041">
        <ele>1274.91</ele>
        <time>2025-11-18T15:36:06Z</time>
      </trkpt>
      <trkpt lat="44.35532" lon="3.88046">
        <ele>1274.4</ele>
        <time>2025-11-18T15:36:14Z</time>
      </trkpt>
      <trkpt lat="44.3554" lon="3.88052">
        <ele>1273.75</ele>
        <time>2025-11-18T15:36:21Z</time>
      </trkpt>
      <trkpt lat="44.35548" lon="3.88059">
        <ele>1272.49</ele>
        <time>2025-11-18T15:36:29Z</time>
      </trkpt>
      <trkpt lat="44.35556" lon="3.88066">
        <ele>1271.86</ele>
        <time>2025-11-18T15:36:37Z</time>
      </trkpt>
      <trkpt lat="44.35563" lon="3.88074">
        <ele>1270.75</ele>
        <time>2025-11-18T15:36:45Z</time>
      </trkpt>
      <trkpt lat="44.35572" lon="3.88081">
        <ele>1269.74</ele>
        <time>2025-11-18T15:36:53Z</time>
      </trkpt>
      <trkpt lat="44.3558" lon="3.88085">
        <ele>1269.01</ele>
        <time>2025-11-18T15:37:01Z</time>
      </trkpt>
      <trkpt lat="44.35589" lon="3.88089">
        <ele>1268.14</ele>
        <time>2025-11-18T15:37:09Z</time>
      </trkpt>
      <trkpt lat="44.35599" lon="3.88089">
        <ele>1266.7</ele>
        <time>2025-11-18T15:37:17Z</time>
      </trkpt>
      <trkpt lat="44.35608" lon="3.8809">
        <ele>1265.9</ele>
        <time>2025-11-18T15:37:25Z</time>
      </trkpt>
      <trkpt lat="44.35617" lon="3.88091">
        <ele>1264.86</ele>
        <time>2025-11-18T15:37:33Z</time>
      </trkpt>
      <trkpt lat="44.35627" lon="3.8809">
        <ele>1264.2</ele>
        <time>2025-11-18T15:37:41Z</time>
      </trkpt>
      <trkpt lat="44.35636" lon="3.88091">
        <ele>1263.44</ele>
        <time>2025-11-18T15:37:49Z</time>
      </trkpt>
      <trkpt lat="44.35647" lon="3.88093">
        <ele>1262.86</ele>
        <time>2025-11-18T15:37:57Z</time>
      </trkpt>
      <trkpt lat="44.35656" lon="3.88094">
        <ele>1261.94</ele>
        <time>2025-11-18T15:38:06Z</time>
      </trkpt>
      <trkpt lat="44.35664" lon="3.88097">
        <ele>1260.89</ele>
        <time>2025-11-18T15:38:17Z</time>
      </trkpt>
      <trkpt lat="44.35676" lon="3.88098">
        <ele>1260.11</ele>
        <time>2025-11-18T15:38:32Z</time>
      </trkpt>
      <trkpt lat="44.35686" lon="3.88099">
        <ele>1259.41</ele>
        <time>2025-11-18T15:38:40Z</time>
      </trkpt>
      <trkpt lat="44.35696" lon="3.88101">
        <ele>1258.38</ele>
        <time>2025-11-18T15:38:48Z</time>
      </trkpt>
      <trkpt lat="44.35704" lon="3.88107">
        <ele>1257.61</ele>
        <time>2025-11-18T15:38:56Z</time>
      </trkpt>
      <trkpt lat="44.35707" lon="3.88118">
        <ele>1256.74</ele>
        <time>2025-11-18T15:39:04Z</time>
      </trkpt>
      <trkpt lat="44.35707" lon="3.88131">
        <ele>1255.51</ele>
        <time>2025-11-18T15:39:12Z</time>
      </trkpt>
      <trkpt lat="44.35706" lon="3.88143">
        <ele>1254.35</ele>
        <time>2025-11-18T15:39:20Z</time>
      </trkpt>
      <trkpt lat="44.35705" lon="3.88156">
        <ele>1253.07</ele>
        <time>2025-11-18T15:39:28Z</time>
      </trkpt>
      <trkpt lat="44.35705" lon="3.88169">
        <ele>1251.99</ele>
        <time>2025-11-18T15:39:36Z</time>
      </trkpt>
      <trkpt lat="44.35704" lon="3.88182">
        <ele>1251.19</ele>
        <time>2025-11-18T15:39:46Z</time>
      </trkpt>
      <trkpt lat="44.35703" lon="3.88196">
        <ele>1250.09</ele>
        <time>2025-11-18T15:39:57Z</time>
      </trkpt>
      <trkpt lat="44.35701" lon="3.88211">
        <ele>1249.39</ele>
        <time>2025-11-18T15:40:06Z</time>
      </trkpt>
      <trkpt lat="44.35698" lon="3.88225">
        <ele>1248.67</ele>
        <time>2025-11-18T15:40:15Z</time>
      </trkpt>
      <trkpt lat="44.35689" lon="3.88228">
        <ele>1248.59</ele>
        <time>2025-11-18T15:40:22Z</time>
      </trkpt>
      <trkpt lat="44.35679" lon="3.88229">
        <ele>1249.11</ele>
        <time>2025-11-18T15:40:35Z</time>
      </trkpt>
      <trkpt lat="44.35671" lon="3.88239">
        <ele>1248.16</ele>
        <time>2025-11-18T15:40:45Z</time>
      </trkpt>
      <trkpt lat="44.35662" lon="3.88248">
        <ele>1247.03</ele>
        <time>2025-11-18T15:40:55Z</time>
      </trkpt>
      <trkpt lat="44.35652" lon="3.88255">
        <ele>1246.19</ele>
        <time>2025-11-18T15:41:07Z</time>
      </trkpt>
      <trkpt lat="44.35643" lon="3.88261">
        <ele>1245.73</ele>
        <time>2025-11-18T15:41:16Z</time>
      </trkpt>
      <trkpt lat="44.35634" lon="3.88266">
        <ele>1245.08</ele>
        <time>2025-11-18T15:41:25Z</time>
      </trkpt>
      <trkpt lat="44.35623" lon="3.88271">
        <ele>1244.89</ele>
        <time>2025-11-18T15:41:35Z</time>
      </trkpt>
      <trkpt lat="44.35612" lon="3.88274">
        <ele>1244.69</ele>
        <time>2025-11-18T15:41:47Z</time>
      </trkpt>
      <trkpt lat="44.35599" lon="3.88279">
        <ele>1244.31</ele>
        <time>2025-11-18T15:42:08Z</time>
      </trkpt>
      <trkpt lat="44.35587" lon="3.88287">
        <ele>1244.19</ele>
        <time>2025-11-18T15:42:32Z</time>
      </trkpt>
      <trkpt lat="44.35579" lon="3.883">
        <ele>1243.41</ele>
        <time>2025-11-18T15:42:45Z</time>
      </trkpt>
      <trkpt lat="44.35568" lon="3.8831">
        <ele>1243.27</ele>
        <time>2025-11-18T15:42:55Z</time>
      </trkpt>
      <trkpt lat="44.35562" lon="3.88322">
        <ele>1241.91</ele>
        <time>2025-11-18T15:43:04Z</time>
      </trkpt>
      <trkpt lat="44.35556" lon="3.88334">
        <ele>1240.58</ele>
        <time>2025-11-18T15:43:12Z</time>
      </trkpt>
      <trkpt lat="44.3555" lon="3.88344">
        <ele>1240.36</ele>
        <time>2025-11-18T15:43:20Z</time>
      </trkpt>
      <trkpt lat="44.35543" lon="3.8835">
        <ele>1239.88</ele>
        <time>2025-11-18T15:43:28Z</time>
      </trkpt>
      <trkpt lat="44.35535" lon="3.88356">
        <ele>1238.55</ele>
        <time>2025-11-18T15:43:38Z</time>
      </trkpt>
      <trkpt lat="44.35525" lon="3.88365">
        <ele>1236.23</ele>
        <time>2025-11-18T15:43:51Z</time>
      </trkpt>
      <trkpt lat="44.35516" lon="3.88368">
        <ele>1234.4</ele>
        <time>2025-11-18T15:44:01Z</time>
      </trkpt>
      <trkpt lat="44.35507" lon="3.88372">
        <ele>1233.18</ele>
        <time>2025-11-18T15:44:20Z</time>
      </trkpt>
      <trkpt lat="44.35497" lon="3.88374">
        <ele>1231.66</ele>
        <time>2025-11-18T15:44:36Z</time>
      </trkpt>
      <trkpt lat="44.35488" lon="3.88378">
        <ele>1229.86</ele>
        <time>2025-11-18T15:44:46Z</time>
      </trkpt>
      <trkpt lat="44.35477" lon="3.88378">
        <ele>1228.31</ele>
        <time>2025-11-18T15:44:59Z</time>
      </trkpt>
      <trkpt lat="44.35466" lon="3.88378">
        <ele>1226.09</ele>
        <time>2025-11-18T15:45:11Z</time>
      </trkpt>
      <trkpt lat="44.35456" lon="3.8838">
        <ele>1224.89</ele>
        <time>2025-11-18T15:45:24Z</time>
      </trkpt>
      <trkpt lat="44.35443" lon="3.88386">
        <ele>1223.46</ele>
        <time>2025-11-18T15:45:36Z</time>
      </trkpt>
      <trkpt lat="44.35433" lon="3.88386">
        <ele>1221.56</ele>
        <time>2025-11-18T15:45:47Z</time>
      </trkpt>
      <trkpt lat="44.35421" lon="3.88386">
        <ele>1219.59</ele>
        <time>2025-11-18T15:45:58Z</time>
      </trkpt>
      <trkpt lat="44.3541" lon="3.88386">
        <ele>1217.42</ele>
        <time>2025-11-18T15:46:12Z</time>
      </trkpt>
      <trkpt lat="44.35399" lon="3.88385">
        <ele>1216.03</ele>
        <time>2025-11-18T15:46:22Z</time>
      </trkpt>
      <trkpt lat="44.3539" lon="3.88389">
        <ele>1216.12</ele>
        <time>2025-11-18T15:47:01Z</time>
      </trkpt>
      <trkpt lat="44.35381" lon="3.88384">
        <ele>1215.35</ele>
        <time>2025-11-18T15:47:12Z</time>
      </trkpt>
      <trkpt lat="44.35372" lon="3.88378">
        <ele>1214.1</ele>
        <time>2025-11-18T15:47:24Z</time>
      </trkpt>
      <trkpt lat="44.35361" lon="3.88377">
        <ele>1213.96</ele>
        <time>2025-11-18T15:47:44Z</time>
      </trkpt>
      <trkpt lat="44.3535" lon="3.88375">
        <ele>1213.72</ele>
        <time>2025-11-18T15:47:54Z</time>
      </trkpt>
      <trkpt lat="44.3534" lon="3.88373">
        <ele>1212.9</ele>
        <time>2025-11-18T15:48:03Z</time>
      </trkpt>
      <trkpt lat="44.35329" lon="3.88371">
        <ele>1212.24</ele>
        <time>2025-11-18T15:48:13Z</time>
      </trkpt>
      <trkpt lat="44.35318" lon="3.88376">
        <ele>1210.57</ele>
        <time>2025-11-18T15:48:23Z</time>
      </trkpt>
      <trkpt lat="44.35306" lon="3.88378">
        <ele>1210.45</ele>
        <time>2025-11-18T15:48:40Z</time>
      </trkpt>
      <trkpt lat="44.35296" lon="3.88376">
        <ele>1209.68</ele>
        <time>2025-11-18T15:48:49Z</time>
      </trkpt>
      <trkpt lat="44.35285" lon="3.88378">
        <ele>1209.08</ele>
        <time>2025-11-18T15:48:58Z</time>
      </trkpt>
      <trkpt lat="44.35273" lon="3.88381">
        <ele>1208.3</ele>
        <time>2025-11-18T15:49:08Z</time>
      </trkpt>
      <trkpt lat="44.35263" lon="3.88385">
        <ele>1206.66</ele>
        <time>2025-11-18T15:49:24Z</time>
      </trkpt>
      <trkpt lat="44.35254" lon="3.88392">
        <ele>1205.68</ele>
        <time>2025-11-18T15:49:46Z</time>
      </trkpt>
      <trkpt lat="44.35243" lon="3.88395">
        <ele>1204.75</ele>
        <time>2025-11-18T15:49:56Z</time>
      </trkpt>
      <trkpt lat="44.35233" lon="3.88395">
        <ele>1203.98</ele>
        <time>2025-11-18T15:50:06Z</time>
      </trkpt>
      <trkpt lat="44.35221" lon="3.88398">
        <ele>1202.97</ele>
        <time>2025-11-18T15:50:19Z</time>
      </trkpt>
      <trkpt lat="44.3521" lon="3.88401">
        <ele>1202.7</ele>
        <time>2025-11-18T15:50:28Z</time>
      </trkpt>
      <trkpt lat="44.352" lon="3.88406">
        <ele>1201.7</ele>
        <time>2025-11-18T15:50:37Z</time>
      </trkpt>
      <trkpt lat="44.35192" lon="3.88411">
        <ele>1199.75</ele>
        <time>2025-11-18T15:50:48Z</time>
      </trkpt>
      <trkpt lat="44.35182" lon="3.88419">
        <ele>1198.42</ele>
        <time>2025-11-18T15:51:03Z</time>
      </trkpt>
      <trkpt lat="44.35171" lon="3.88425">
        <ele>1196.87</ele>
        <time>2025-11-18T15:51:20Z</time>
      </trkpt>
      <trkpt lat="44.35164" lon="3.88433">
        <ele>1195.3</ele>
        <time>2025-11-18T15:51:29Z</time>
      </trkpt>
      <trkpt lat="44.35154" lon="3.88437">
        <ele>1194.74</ele>
        <time>2025-11-18T15:51:38Z</time>
      </trkpt>
      <trkpt lat="44.35144" lon="3.88441">
        <ele>1194.44</ele>
        <time>2025-11-18T15:51:47Z</time>
      </trkpt>
      <trkpt lat="44.35135" lon="3.88445">
        <ele>1193.51</ele>
        <time>2025-11-18T15:51:57Z</time>
      </trkpt>
      <trkpt lat="44.35125" lon="3.88454">
        <ele>1192.83</ele>
        <time>2025-11-18T15:52:06Z</time>
      </trkpt>
      <trkpt lat="44.35115" lon="3.88458">
        <ele>1192.73</ele>
        <time>2025-11-18T15:52:14Z</time>
      </trkpt>
      <trkpt lat="44.35107" lon="3.88462">
        <ele>1193.09</ele>
        <time>2025-11-18T15:52:25Z</time>
      </trkpt>
      <trkpt lat="44.35097" lon="3.88467">
        <ele>1192.06</ele>
        <time>2025-11-18T15:53:13Z</time>
      </trkpt>
      <trkpt lat="44.35087" lon="3.8847">
        <ele>1190.58</ele>
        <time>2025-11-18T15:53:21Z</time>
      </trkpt>
      <trkpt lat="44.35078" lon="3.88476">
        <ele>1189.63</ele>
        <time>2025-11-18T15:53:29Z</time>
      </trkpt>
      <trkpt lat="44.35068" lon="3.88479">
        <ele>1189.05</ele>
        <time>2025-11-18T15:53:37Z</time>
      </trkpt>
      <trkpt lat="44.35059" lon="3.88485">
        <ele>1188.65</ele>
        <time>2025-11-18T15:53:45Z</time>
      </trkpt>
      <trkpt lat="44.35051" lon="3.88491">
        <ele>1188.41</ele>
        <time>2025-11-18T15:53:54Z</time>
      </trkpt>
      <trkpt lat="44.35042" lon="3.88496">
        <ele>1188.1</ele>
        <time>2025-11-18T15:54:03Z</time>
      </trkpt>
      <trkpt lat="44.35033" lon="3.88502">
        <ele>1187.41</ele>
        <time>2025-11-18T15:54:11Z</time>
      </trkpt>
      <trkpt lat="44.35023" lon="3.88505">
        <ele>1187.63</ele>
        <time>2025-11-18T15:54:19Z</time>
      </trkpt>
      <trkpt lat="44.35013" lon="3.88507">
        <ele>1187.07</ele>
        <time>2025-11-18T15:54:27Z</time>
      </trkpt>
      <trkpt lat="44.35003" lon="3.88509">
        <ele>1186.53</ele>
        <time>2025-11-18T15:54:35Z</time>
      </trkpt>
      <trkpt lat="44.34994" lon="3.88513">
        <ele>1185.6</ele>
        <time>2025-11-18T15:54:43Z</time>
      </trkpt>
      <trkpt lat="44.34986" lon="3.88518">
        <ele>1184.8</ele>
        <time>2025-11-18T15:54:51Z</time>
      </trkpt>
      <trkpt lat="44.34977" lon="3.88522">
        <ele>1184.13</ele>
        <time>2025-11-18T15:54:59Z</time>
      </trkpt>
      <trkpt lat="44.34968" lon="3.88527">
        <ele>1183.52</ele>
        <time>2025-11-18T15:55:07Z</time>
      </trkpt>
      <trkpt lat="44.34959" lon="3.88532">
        <ele>1182.83</ele>
        <time>2025-11-18T15:55:16Z</time>
      </trkpt>
      <trkpt lat="44.3495" lon="3.88535">
        <ele>1182</ele>
        <time>2025-11-18T15:55:25Z</time>
      </trkpt>
      <trkpt lat="44.34939" lon="3.88537">
        <ele>1181.69</ele>
        <time>2025-11-18T15:55:54Z</time>
      </trkpt>
      <trkpt lat="44.3493" lon="3.88538">
        <ele>1181.25</ele>
        <time>2025-11-18T15:56:02Z</time>
      </trkpt>
      <trkpt lat="44.3492" lon="3.88535">
        <ele>1180.78</ele>
        <time>2025-11-18T15:56:11Z</time>
      </trkpt>
      <trkpt lat="44.34911" lon="3.88533">
        <ele>1179.67</ele>
        <time>2025-11-18T15:56:19Z</time>
      </trkpt>
      <trkpt lat="44.34902" lon="3.88533">
        <ele>1179.17</ele>
        <time>2025-11-18T15:56:36Z</time>
      </trkpt>
      <trkpt lat="44.34893" lon="3.8853">
        <ele>1177.72</ele>
        <time>2025-11-18T15:56:45Z</time>
      </trkpt>
      <trkpt lat="44.34883" lon="3.88529">
        <ele>1177.33</ele>
        <time>2025-11-18T15:56:54Z</time>
      </trkpt>
      <trkpt lat="44.34874" lon="3.8853">
        <ele>1176.57</ele>
        <time>2025-11-18T15:57:04Z</time>
      </trkpt>
      <trkpt lat="44.34865" lon="3.88528">
        <ele>1175.81</ele>
        <time>2025-11-18T15:57:13Z</time>
      </trkpt>
      <trkpt lat="44.34858" lon="3.8852">
        <ele>1174.82</ele>
        <time>2025-11-18T15:57:23Z</time>
      </trkpt>
      <trkpt lat="44.34854" lon="3.88509">
        <ele>1173.48</ele>
        <time>2025-11-18T15:57:33Z</time>
      </trkpt>
      <trkpt lat="44.34848" lon="3.88499">
        <ele>1172.31</ele>
        <time>2025-11-18T15:57:42Z</time>
      </trkpt>
      <trkpt lat="44.34842" lon="3.88489">
        <ele>1171.49</ele>
        <time>2025-11-18T15:57:51Z</time>
      </trkpt>
      <trkpt lat="44.34838" lon="3.88477">
        <ele>1170.76</ele>
        <time>2025-11-18T15:58:02Z</time>
      </trkpt>
      <trkpt lat="44.34836" lon="3.88464">
        <ele>1168.68</ele>
        <time>2025-11-18T15:58:14Z</time>
      </trkpt>
      <trkpt lat="44.34832" lon="3.88455">
        <ele>1166.37</ele>
        <time>2025-11-18T15:58:26Z</time>
      </trkpt>
      <trkpt lat="44.34827" lon="3.88465">
        <ele>1164.37</ele>
        <time>2025-11-18T15:58:46Z</time>
      </trkpt>
      <trkpt lat="44.34819" lon="3.88474">
        <ele>1162.6</ele>
        <time>2025-11-18T15:59:12Z</time>
      </trkpt>
      <trkpt lat="44.34812" lon="3.88486">
        <ele>1160.09</ele>
        <time>2025-11-18T15:59:27Z</time>
      </trkpt>
      <trkpt lat="44.34805" lon="3.88496">
        <ele>1158.35</ele>
        <time>2025-11-18T15:59:38Z</time>
      </trkpt>
      <trkpt lat="44.34798" lon="3.88504">
        <ele>1157.25</ele>
        <time>2025-11-18T15:59:48Z</time>
      </trkpt>
      <trkpt lat="44.34788" lon="3.88509">
        <ele>1156.38</ele>
        <time>2025-11-18T15:59:58Z</time>
      </trkpt>
      <trkpt lat="44.3478" lon="3.88514">
        <ele>1154.89</ele>
        <time>2025-11-18T16:00:08Z</time>
      </trkpt>
      <trkpt lat="44.34771" lon="3.88518">
        <ele>1153.55</ele>
        <time>2025-11-18T16:00:18Z</time>
      </trkpt>
      <trkpt lat="44.34763" lon="3.88526">
        <ele>1151.62</ele>
        <time>2025-11-18T16:00:28Z</time>
      </trkpt>
      <trkpt lat="44.34755" lon="3.88531">
        <ele>1150.21</ele>
        <time>2025-11-18T16:00:38Z</time>
      </trkpt>
      <trkpt lat="44.34746" lon="3.88537">
        <ele>1149.3</ele>
        <time>2025-11-18T16:00:47Z</time>
      </trkpt>
      <trkpt lat="44.34738" lon="3.88544">
        <ele>1147.52</ele>
        <time>2025-11-18T16:01:00Z</time>
      </trkpt>
      <trkpt lat="44.34732" lon="3.8855">
        <ele>1146.04</ele>
        <time>2025-11-18T16:01:14Z</time>
      </trkpt>
      <trkpt lat="44.34724" lon="3.88559">
        <ele>1144.07</ele>
        <time>2025-11-18T16:01:28Z</time>
      </trkpt>
      <trkpt lat="44.34717" lon="3.88569">
        <ele>1143.16</ele>
        <time>2025-11-18T16:01:37Z</time>
      </trkpt>
      <trkpt lat="44.3471" lon="3.88577">
        <ele>1141.86</ele>
        <time>2025-11-18T16:01:49Z</time>
      </trkpt>
      <trkpt lat="44.34704" lon="3.88588">
        <ele>1139.45</ele>
        <time>2025-11-18T16:02:03Z</time>
      </trkpt>
      <trkpt lat="44.347" lon="3.886">
        <ele>1137.93</ele>
        <time>2025-11-18T16:02:14Z</time>
      </trkpt>
      <trkpt lat="44.34695" lon="3.88611">
        <ele>1136.73</ele>
        <time>2025-11-18T16:02:26Z</time>
      </trkpt>
      <trkpt lat="44.34688" lon="3.8862">
        <ele>1135.25</ele>
        <time>2025-11-18T16:02:37Z</time>
      </trkpt>
      <trkpt lat="44.34684" lon="3.88632">
        <ele>1134.02</ele>
        <time>2025-11-18T16:02:56Z</time>
      </trkpt>
      <trkpt lat="44.34679" lon="3.88645">
        <ele>1132.85</ele>
        <time>2025-11-18T16:03:06Z</time>
      </trkpt>
      <trkpt lat="44.34676" lon="3.88657">
        <ele>1131.75</ele>
        <time>2025-11-18T16:03:19Z</time>
      </trkpt>
      <trkpt lat="44.34674" lon="3.8867">
        <ele>1130.03</ele>
        <time>2025-11-18T16:03:33Z</time>
      </trkpt>
      <trkpt lat="44.34677" lon="3.88684">
        <ele>1128.31</ele>
        <time>2025-11-18T16:03:44Z</time>
      </trkpt>
      <trkpt lat="44.34681" lon="3.88695">
        <ele>1126.98</ele>
        <time>2025-11-18T16:03:54Z</time>
      </trkpt>
      <trkpt lat="44.34687" lon="3.88706">
        <ele>1125.07</ele>
        <time>2025-11-18T16:04:05Z</time>
      </trkpt>
      <trkpt lat="44.34694" lon="3.88714">
        <ele>1123.22</ele>
        <time>2025-11-18T16:04:17Z</time>
      </trkpt>
      <trkpt lat="44.34701" lon="3.88723">
        <ele>1121.22</ele>
        <time>2025-11-18T16:04:28Z</time>
      </trkpt>
      <trkpt lat="44.34707" lon="3.88732">
        <ele>1119.74</ele>
        <time>2025-11-18T16:04:38Z</time>
      </trkpt>
      <trkpt lat="44.34714" lon="3.88742">
        <ele>1117.78</ele>
        <time>2025-11-18T16:04:58Z</time>
      </trkpt>
      <trkpt lat="44.34718" lon="3.88751">
        <ele>1116.08</ele>
        <time>2025-11-18T16:05:10Z</time>
      </trkpt>
      <trkpt lat="44.34709" lon="3.88748">
        <ele>1114.29</ele>
        <time>2025-11-18T16:05:21Z</time>
      </trkpt>
      <trkpt lat="44.347" lon="3.88746">
        <ele>1112.76</ele>
        <time>2025-11-18T16:05:31Z</time>
      </trkpt>
      <trkpt lat="44.34691" lon="3.88743">
        <ele>1111.32</ele>
        <time>2025-11-18T16:05:42Z</time>
      </trkpt>
      <trkpt lat="44.34681" lon="3.88742">
        <ele>1109.29</ele>
        <time>2025-11-18T16:05:53Z</time>
      </trkpt>
      <trkpt lat="44.34673" lon="3.8874">
        <ele>1108</ele>
        <time>2025-11-18T16:06:04Z</time>
      </trkpt>
      <trkpt lat="44.34664" lon="3.88739">
        <ele>1106.49</ele>
        <time>2025-11-18T16:06:16Z</time>
      </trkpt>
      <trkpt lat="44.34655" lon="3.8874">
        <ele>1104.69</ele>
        <time>2025-11-18T16:06:26Z</time>
      </trkpt>
      <trkpt lat="44.34645" lon="3.88738">
        <ele>1103.31</ele>
        <time>2025-11-18T16:06:37Z</time>
      </trkpt>
      <trkpt lat="44.34636" lon="3.88736">
        <ele>1101.8</ele>
        <time>2025-11-18T16:06:47Z</time>
      </trkpt>
      <trkpt lat="44.34633" lon="3.88739">
        <ele>1100.5</ele>
        <time>2025-11-18T16:08:35Z</time>
      </trkpt>
      <trkpt lat="44.34623" lon="3.8874">
        <ele>1098.76</ele>
        <time>2025-11-18T16:08:47Z</time>
      </trkpt>
      <trkpt lat="44.34615" lon="3.88741">
        <ele>1096.78</ele>
        <time>2025-11-18T16:08:57Z</time>
      </trkpt>
      <trkpt lat="44.3462" lon="3.88752">
        <ele>1095.79</ele>
        <time>2025-11-18T16:09:12Z</time>
      </trkpt>
      <trkpt lat="44.34628" lon="3.88757">
        <ele>1095.47</ele>
        <time>2025-11-18T16:09:20Z</time>
      </trkpt>
      <trkpt lat="44.34636" lon="3.88766">
        <ele>1094.98</ele>
        <time>2025-11-18T16:09:29Z</time>
      </trkpt>
      <trkpt lat="44.34644" lon="3.88772">
        <ele>1094.36</ele>
        <time>2025-11-18T16:09:38Z</time>
      </trkpt>
      <trkpt lat="44.34652" lon="3.88779">
        <ele>1093.16</ele>
        <time>2025-11-18T16:09:46Z</time>
      </trkpt>
      <trkpt lat="44.3466" lon="3.88783">
        <ele>1093.35</ele>
        <time>2025-11-18T16:09:54Z</time>
      </trkpt>
      <trkpt lat="44.34669" lon="3.88787">
        <ele>1092.11</ele>
        <time>2025-11-18T16:10:04Z</time>
      </trkpt>
      <trkpt lat="44.34677" lon="3.88795">
        <ele>1091.12</ele>
        <time>2025-11-18T16:10:13Z</time>
      </trkpt>
      <trkpt lat="44.34684" lon="3.88804">
        <ele>1089.69</ele>
        <time>2025-11-18T16:10:23Z</time>
      </trkpt>
      <trkpt lat="44.34691" lon="3.88811">
        <ele>1088.19</ele>
        <time>2025-11-18T16:10:44Z</time>
      </trkpt>
      <trkpt lat="44.34697" lon="3.88821">
        <ele>1086.78</ele>
        <time>2025-11-18T16:10:54Z</time>
      </trkpt>
      <trkpt lat="44.34703" lon="3.8883">
        <ele>1085.62</ele>
        <time>2025-11-18T16:11:04Z</time>
      </trkpt>
      <trkpt lat="44.34709" lon="3.88839">
        <ele>1084.14</ele>
        <time>2025-11-18T16:11:17Z</time>
      </trkpt>
      <trkpt lat="44.34716" lon="3.88848">
        <ele>1082.42</ele>
        <time>2025-11-18T16:11:27Z</time>
      </trkpt>
      <trkpt lat="44.34724" lon="3.88857">
        <ele>1081.17</ele>
        <time>2025-11-18T16:11:37Z</time>
      </trkpt>
      <trkpt lat="44.34733" lon="3.88862">
        <ele>1080.71</ele>
        <time>2025-11-18T16:11:47Z</time>
      </trkpt>
      <trkpt lat="44.34741" lon="3.88868">
        <ele>1079.86</ele>
        <time>2025-11-18T16:11:57Z</time>
      </trkpt>
      <trkpt lat="44.34748" lon="3.88877">
        <ele>1078.4</ele>
        <time>2025-11-18T16:12:07Z</time>
      </trkpt>
      <trkpt lat="44.34756" lon="3.88879">
        <ele>1077.45</ele>
        <time>2025-11-18T16:12:16Z</time>
      </trkpt>
      <trkpt lat="44.34765" lon="3.88882">
        <ele>1075.9</ele>
        <time>2025-11-18T16:12:28Z</time>
      </trkpt>
      <trkpt lat="44.34774" lon="3.88888">
        <ele>1074.9</ele>
        <time>2025-11-18T16:12:37Z</time>
      </trkpt>
      <trkpt lat="44.34783" lon="3.88892">
        <ele>1073.57</ele>
        <time>2025-11-18T16:12:47Z</time>
      </trkpt>
      <trkpt lat="44.34792" lon="3.88896">
        <ele>1071.9</ele>
        <time>2025-11-18T16:12:56Z</time>
      </trkpt>
      <trkpt lat="44.34801" lon="3.88895">
        <ele>1070.84</ele>
        <time>2025-11-18T16:13:06Z</time>
      </trkpt>
      <trkpt lat="44.3481" lon="3.88898">
        <ele>1069.14</ele>
        <time>2025-11-18T16:13:17Z</time>
      </trkpt>
      <trkpt lat="44.34819" lon="3.88898">
        <ele>1067.68</ele>
        <time>2025-11-18T16:13:28Z</time>
      </trkpt>
      <trkpt lat="44.34828" lon="3.88899">
        <ele>1066.05</ele>
        <time>2025-11-18T16:13:39Z</time>
      </trkpt>
      <trkpt lat="44.34837" lon="3.88903">
        <ele>1064.16</ele>
        <time>2025-11-18T16:13:50Z</time>
      </trkpt>
      <trkpt lat="44.34846" lon="3.88907">
        <ele>1062.53</ele>
        <time>2025-11-18T16:14:01Z</time>
      </trkpt>
      <trkpt lat="44.34855" lon="3.8891">
        <ele>1061.07</ele>
        <time>2025-11-18T16:14:12Z</time>
      </trkpt>
      <trkpt lat="44.34865" lon="3.8891">
        <ele>1058.76</ele>
        <time>2025-11-18T16:14:23Z</time>
      </trkpt>
      <trkpt lat="44.34874" lon="3.88914">
        <ele>1057.5</ele>
        <time>2025-11-18T16:14:35Z</time>
      </trkpt>
      <trkpt lat="44.34883" lon="3.88917">
        <ele>1056.29</ele>
        <time>2025-11-18T16:14:46Z</time>
      </trkpt>
      <trkpt lat="44.34892" lon="3.88918">
        <ele>1055.2</ele>
        <time>2025-11-18T16:14:57Z</time>
      </trkpt>
      <trkpt lat="44.34902" lon="3.88919">
        <ele>1053.79</ele>
        <time>2025-11-18T16:15:09Z</time>
      </trkpt>
      <trkpt lat="44.3491" lon="3.88922">
        <ele>1052.95</ele>
        <time>2025-11-18T16:15:18Z</time>
      </trkpt>
      <trkpt lat="44.34919" lon="3.88925">
        <ele>1051.36</ele>
        <time>2025-11-18T16:15:29Z</time>
      </trkpt>
      <trkpt lat="44.34928" lon="3.88925">
        <ele>1050.49</ele>
        <time>2025-11-18T16:15:39Z</time>
      </trkpt>
      <trkpt lat="44.34924" lon="3.8893">
        <ele>1048.71</ele>
        <time>2025-11-18T16:15:52Z</time>
      </trkpt>
      <trkpt lat="44.34916" lon="3.88936">
        <ele>1046.81</ele>
        <time>2025-11-18T16:16:03Z</time>
      </trkpt>
      <trkpt lat="44.34907" lon="3.88942">
        <ele>1045.05</ele>
        <time>2025-11-18T16:16:14Z</time>
      </trkpt>
      <trkpt lat="44.34899" lon="3.8895">
        <ele>1042.17</ele>
        <time>2025-11-18T16:16:30Z</time>
      </trkpt>
      <trkpt lat="44.3489" lon="3.88957">
        <ele>1040.28</ele>
        <time>2025-11-18T16:16:46Z</time>
      </trkpt>
      <trkpt lat="44.34883" lon="3.88968">
        <ele>1038.46</ele>
        <time>2025-11-18T16:17:00Z</time>
      </trkpt>
      <trkpt lat="44.34875" lon="3.88979">
        <ele>1036.09</ele>
        <time>2025-11-18T16:17:15Z</time>
      </trkpt>
      <trkpt lat="44.34866" lon="3.88983">
        <ele>1034.36</ele>
        <time>2025-11-18T16:17:25Z</time>
      </trkpt>
      <trkpt lat="44.34859" lon="3.88991">
        <ele>1032.87</ele>
        <time>2025-11-18T16:17:37Z</time>
      </trkpt>
      <trkpt lat="44.34855" lon="3.89005">
        <ele>1031.81</ele>
        <time>2025-11-18T16:17:53Z</time>
      </trkpt>
      <trkpt lat="44.34853" lon="3.89019">
        <ele>1029.9</ele>
        <time>2025-11-18T16:18:05Z</time>
      </trkpt>
      <trkpt lat="44.34852" lon="3.89033">
        <ele>1028.31</ele>
        <time>2025-11-18T16:18:17Z</time>
      </trkpt>
      <trkpt lat="44.34844" lon="3.89043">
        <ele>1026.21</ele>
        <time>2025-11-18T16:18:29Z</time>
      </trkpt>
      <trkpt lat="44.34838" lon="3.89053">
        <ele>1023.93</ele>
        <time>2025-11-18T16:18:41Z</time>
      </trkpt>
      <trkpt lat="44.3483" lon="3.89059">
        <ele>1022.26</ele>
        <time>2025-11-18T16:18:52Z</time>
      </trkpt>
      <trkpt lat="44.34822" lon="3.89068">
        <ele>1020.1</ele>
        <time>2025-11-18T16:19:04Z</time>
      </trkpt>
      <trkpt lat="44.34814" lon="3.89075">
        <ele>1017.99</ele>
        <time>2025-11-18T16:19:16Z</time>
      </trkpt>
      <trkpt lat="44.34805" lon="3.8908">
        <ele>1016.14</ele>
        <time>2025-11-18T16:19:27Z</time>
      </trkpt>
      <trkpt lat="44.34796" lon="3.89086">
        <ele>1014.35</ele>
        <time>2025-11-18T16:19:39Z</time>
      </trkpt>
      <trkpt lat="44.34787" lon="3.89091">
        <ele>1012.26</ele>
        <time>2025-11-18T16:19:50Z</time>
      </trkpt>
      <trkpt lat="44.34778" lon="3.89097">
        <ele>1009.84</ele>
        <time>2025-11-18T16:20:04Z</time>
      </trkpt>
      <trkpt lat="44.34769" lon="3.89101">
        <ele>1007.68</ele>
        <time>2025-11-18T16:20:15Z</time>
      </trkpt>
      <trkpt lat="44.3476" lon="3.89104">
        <ele>1005.93</ele>
        <time>2025-11-18T16:20:27Z</time>
      </trkpt>
      <trkpt lat="44.34751" lon="3.89107">
        <ele>1003.93</ele>
        <time>2025-11-18T16:20:38Z</time>
      </trkpt>
      <trkpt lat="44.34742" lon="3.89112">
        <ele>1002.06</ele>
        <time>2025-11-18T16:20:48Z</time>
      </trkpt>
      <trkpt lat="44.34734" lon="3.89116">
        <ele>1000.21</ele>
        <time>2025-11-18T16:21:00Z</time>
      </trkpt>
      <trkpt lat="44.34725" lon="3.89117">
        <ele>998.52</ele>
        <time>2025-11-18T16:21:13Z</time>
      </trkpt>
      <trkpt lat="44.34716" lon="3.89123">
        <ele>996.36</ele>
        <time>2025-11-18T16:21:25Z</time>
      </trkpt>
      <trkpt lat="44.34707" lon="3.8913">
        <ele>993.93</ele>
        <time>2025-11-18T16:21:38Z</time>
      </trkpt>
      <trkpt lat="44.34697" lon="3.89133">
        <ele>991.75</ele>
        <time>2025-11-18T16:21:49Z</time>
      </trkpt>
      <trkpt lat="44.34687" lon="3.89136">
        <ele>990.26</ele>
        <time>2025-11-18T16:22:00Z</time>
      </trkpt>
      <trkpt lat="44.34677" lon="3.8914">
        <ele>988.08</ele>
        <time>2025-11-18T16:22:12Z</time>
      </trkpt>
      <trkpt lat="44.34669" lon="3.89143">
        <ele>986.11</ele>
        <time>2025-11-18T16:22:24Z</time>
      </trkpt>
      <trkpt lat="44.34659" lon="3.89144">
        <ele>984.18</ele>
        <time>2025-11-18T16:22:35Z</time>
      </trkpt>
      <trkpt lat="44.34649" lon="3.89149">
        <ele>982.06</ele>
        <time>2025-11-18T16:22:47Z</time>
      </trkpt>
      <trkpt lat="44.34641" lon="3.89154">
        <ele>980.63</ele>
        <time>2025-11-18T16:22:57Z</time>
      </trkpt>
      <trkpt lat="44.34633" lon="3.8916">
        <ele>978.39</ele>
        <time>2025-11-18T16:23:12Z</time>
      </trkpt>
      <trkpt lat="44.34624" lon="3.89167">
        <ele>976.28</ele>
        <time>2025-11-18T16:23:24Z</time>
      </trkpt>
      <trkpt lat="44.34615" lon="3.89172">
        <ele>974.24</ele>
        <time>2025-11-18T16:23:35Z</time>
      </trkpt>
      <trkpt lat="44.34607" lon="3.89181">
        <ele>972.37</ele>
        <time>2025-11-18T16:23:49Z</time>
      </trkpt>
      <trkpt lat="44.34597" lon="3.89185">
        <ele>970.45</ele>
        <time>2025-11-18T16:24:08Z</time>
      </trkpt>
      <trkpt lat="44.34587" lon="3.89191">
        <ele>968.48</ele>
        <time>2025-11-18T16:24:22Z</time>
      </trkpt>
      <trkpt lat="44.34578" lon="3.89196">
        <ele>966.26</ele>
        <time>2025-11-18T16:24:33Z</time>
      </trkpt>
      <trkpt lat="44.34569" lon="3.89201">
        <ele>964.22</ele>
        <time>2025-11-18T16:24:46Z</time>
      </trkpt>
      <trkpt lat="44.34561" lon="3.89206">
        <ele>962.15</ele>
        <time>2025-11-18T16:24:56Z</time>
      </trkpt>
      <trkpt lat="44.34552" lon="3.89212">
        <ele>960.74</ele>
        <time>2025-11-18T16:25:06Z</time>
      </trkpt>
      <trkpt lat="44.34545" lon="3.89218">
        <ele>958.66</ele>
        <time>2025-11-18T16:25:20Z</time>
      </trkpt>
      <trkpt lat="44.34538" lon="3.89225">
        <ele>956.16</ele>
        <time>2025-11-18T16:25:35Z</time>
      </trkpt>
      <trkpt lat="44.34527" lon="3.89231">
        <ele>954.08</ele>
        <time>2025-11-18T16:25:47Z</time>
      </trkpt>
      <trkpt lat="44.34518" lon="3.89235">
        <ele>952.79</ele>
        <time>2025-11-18T16:25:57Z</time>
      </trkpt>
      <trkpt lat="44.34509" lon="3.89239">
        <ele>950.57</ele>
        <time>2025-11-18T16:26:08Z</time>
      </trkpt>
      <trkpt lat="44.34499" lon="3.89244">
        <ele>948.61</ele>
        <time>2025-11-18T16:26:32Z</time>
      </trkpt>
      <trkpt lat="44.34489" lon="3.89249">
        <ele>946.31</ele>
        <time>2025-11-18T16:26:46Z</time>
      </trkpt>
      <trkpt lat="44.34479" lon="3.89252">
        <ele>944.67</ele>
        <time>2025-11-18T16:26:58Z</time>
      </trkpt>
      <trkpt lat="44.3447" lon="3.89257">
        <ele>942.87</ele>
        <time>2025-11-18T16:27:09Z</time>
      </trkpt>
      <trkpt lat="44.34461" lon="3.89262">
        <ele>941.13</ele>
        <time>2025-11-18T16:27:26Z</time>
      </trkpt>
      <trkpt lat="44.3445" lon="3.89264">
        <ele>939.46</ele>
        <time>2025-11-18T16:27:41Z</time>
      </trkpt>
      <trkpt lat="44.3444" lon="3.89267">
        <ele>938.47</ele>
        <time>2025-11-18T16:27:52Z</time>
      </trkpt>
      <trkpt lat="44.3443" lon="3.89272">
        <ele>937.03</ele>
        <time>2025-11-18T16:28:10Z</time>
      </trkpt>
      <trkpt lat="44.3442" lon="3.89272">
        <ele>936.18</ele>
        <time>2025-11-18T16:28:22Z</time>
      </trkpt>
      <trkpt lat="44.3441" lon="3.89274">
        <ele>935.24</ele>
        <time>2025-11-18T16:28:32Z</time>
      </trkpt>
      <trkpt lat="44.344" lon="3.89272">
        <ele>934.54</ele>
        <time>2025-11-18T16:28:43Z</time>
      </trkpt>
      <trkpt lat="44.34391" lon="3.89273">
        <ele>933.86</ele>
        <time>2025-11-18T16:28:51Z</time>
      </trkpt>
      <trkpt lat="44.34381" lon="3.89274">
        <ele>933.49</ele>
        <time>2025-11-18T16:29:04Z</time>
      </trkpt>
      <trkpt lat="44.34371" lon="3.89274">
        <ele>932.17</ele>
        <time>2025-11-18T16:29:15Z</time>
      </trkpt>
      <trkpt lat="44.34361" lon="3.89275">
        <ele>930.83</ele>
        <time>2025-11-18T16:29:27Z</time>
      </trkpt>
      <trkpt lat="44.34351" lon="3.89276">
        <ele>930.09</ele>
        <time>2025-11-18T16:29:44Z</time>
      </trkpt>
      <trkpt lat="44.3434" lon="3.89279">
        <ele>928.87</ele>
        <time>2025-11-18T16:29:59Z</time>
      </trkpt>
      <trkpt lat="44.34331" lon="3.89279">
        <ele>928.03</ele>
        <time>2025-11-18T16:30:08Z</time>
      </trkpt>
      <trkpt lat="44.34322" lon="3.89277">
        <ele>926.71</ele>
        <time>2025-11-18T16:30:19Z</time>
      </trkpt>
      <trkpt lat="44.34313" lon="3.89277">
        <ele>925.91</ele>
        <time>2025-11-18T16:30:28Z</time>
      </trkpt>
      <trkpt lat="44.34304" lon="3.89274">
        <ele>925.52</ele>
        <time>2025-11-18T16:30:36Z</time>
      </trkpt>
      <trkpt lat="44.34296" lon="3.89269">
        <ele>925.09</ele>
        <time>2025-11-18T16:30:44Z</time>
      </trkpt>
      <trkpt lat="44.3429" lon="3.89259">
        <ele>924.7</ele>
        <time>2025-11-18T16:30:57Z</time>
      </trkpt>
      <trkpt lat="44.3429" lon="3.89247">
        <ele>923.19</ele>
        <time>2025-11-18T16:31:08Z</time>
      </trkpt>
      <trkpt lat="44.34286" lon="3.89234">
        <ele>922.6</ele>
        <time>2025-11-18T16:31:16Z</time>
      </trkpt>
      <trkpt lat="44.3428" lon="3.89223">
        <ele>922.27</ele>
        <time>2025-11-18T16:31:25Z</time>
      </trkpt>
      <trkpt lat="44.34273" lon="3.89213">
        <ele>921.12</ele>
        <time>2025-11-18T16:31:36Z</time>
      </trkpt>
      <trkpt lat="44.34264" lon="3.89207">
        <ele>920.58</ele>
        <time>2025-11-18T16:31:47Z</time>
      </trkpt>
      <trkpt lat="44.34254" lon="3.89201">
        <ele>919.59</ele>
        <time>2025-11-18T16:31:58Z</time>
      </trkpt>
      <trkpt lat="44.34244" lon="3.89197">
        <ele>918.48</ele>
        <time>2025-11-18T16:32:07Z</time>
      </trkpt>
      <trkpt lat="44.34233" lon="3.89192">
        <ele>917.6</ele>
        <time>2025-11-18T16:32:16Z</time>
      </trkpt>
      <trkpt lat="44.34225" lon="3.89184">
        <ele>916.78</ele>
        <time>2025-11-18T16:32:26Z</time>
      </trkpt>
      <trkpt lat="44.3422" lon="3.89171">
        <ele>916.42</ele>
        <time>2025-11-18T16:32:36Z</time>
      </trkpt>
      <trkpt lat="44.34216" lon="3.8916">
        <ele>914.8</ele>
        <time>2025-11-18T16:32:48Z</time>
      </trkpt>
      <trkpt lat="44.34207" lon="3.8915">
        <ele>913.11</ele>
        <time>2025-11-18T16:33:03Z</time>
      </trkpt>
      <trkpt lat="44.34196" lon="3.89151">
        <ele>912.77</ele>
        <time>2025-11-18T16:34:14Z</time>
      </trkpt>
      <trkpt lat="44.34187" lon="3.89154">
        <ele>912.84</ele>
        <time>2025-11-18T16:34:30Z</time>
      </trkpt>
      <trkpt lat="44.34181" lon="3.89147">
        <ele>909.03</ele>
        <time>2025-11-18T16:37:08Z</time>
      </trkpt>
      <trkpt lat="44.3417" lon="3.89148">
        <ele>906.17</ele>
        <time>2025-11-18T16:37:19Z</time>
      </trkpt>
      <trkpt lat="44.3416" lon="3.89151">
        <ele>903.84</ele>
        <time>2025-11-18T16:37:31Z</time>
      </trkpt>
      <trkpt lat="44.34149" lon="3.89155">
        <ele>900.94</ele>
        <time>2025-11-18T16:37:43Z</time>
      </trkpt>
      <trkpt lat="44.34139" lon="3.89158">
        <ele>898.76</ele>
        <time>2025-11-18T16:37:52Z</time>
      </trkpt>
      <trkpt lat="44.3413" lon="3.89163">
        <ele>896.21</ele>
        <time>2025-11-18T16:38:02Z</time>
      </trkpt>
      <trkpt lat="44.34121" lon="3.89166">
        <ele>894.37</ele>
        <time>2025-11-18T16:38:11Z</time>
      </trkpt>
      <trkpt lat="44.34111" lon="3.89167">
        <ele>892.51</ele>
        <time>2025-11-18T16:38:20Z</time>
      </trkpt>
      <trkpt lat="44.34102" lon="3.89169">
        <ele>890.64</ele>
        <time>2025-11-18T16:38:29Z</time>
      </trkpt>
      <trkpt lat="44.34096" lon="3.8917">
        <ele>889.93</ele>
        <time>2025-11-18T16:38:46Z</time>
      </trkpt>
      <trkpt lat="44.34093" lon="3.89171">
        <ele>890.75</ele>
        <time>2025-11-18T16:40:35Z</time>
      </trkpt>
      <trkpt lat="44.34095" lon="3.89157">
        <ele>891.34</ele>
        <time>2025-11-18T16:40:43Z</time>
      </trkpt>
      <trkpt lat="44.34098" lon="3.89143">
        <ele>892.61</ele>
        <time>2025-11-18T16:40:51Z</time>
      </trkpt>
      <trkpt lat="44.341" lon="3.89129">
        <ele>893.09</ele>
        <time>2025-11-18T16:41:00Z</time>
      </trkpt>
      <trkpt lat="44.34101" lon="3.89117">
        <ele>893.74</ele>
        <time>2025-11-18T16:41:09Z</time>
      </trkpt>
      <trkpt lat="44.341" lon="3.89103">
        <ele>894.11</ele>
        <time>2025-11-18T16:41:18Z</time>
      </trkpt>
      <trkpt lat="44.34095" lon="3.89091">
        <ele>894.18</ele>
        <time>2025-11-18T16:41:27Z</time>
      </trkpt>
      <trkpt lat="44.34087" lon="3.89082">
        <ele>894.57</ele>
        <time>2025-11-18T16:41:36Z</time>
      </trkpt>
      <trkpt lat="44.34078" lon="3.89077">
        <ele>894.5</ele>
        <time>2025-11-18T16:41:44Z</time>
      </trkpt>
      <trkpt lat="44.34068" lon="3.89074">
        <ele>894.28</ele>
        <time>2025-11-18T16:41:52Z</time>
      </trkpt>
      <trkpt lat="44.34059" lon="3.89069">
        <ele>894.08</ele>
        <time>2025-11-18T16:42:00Z</time>
      </trkpt>
      <trkpt lat="44.34052" lon="3.8906">
        <ele>893.74</ele>
        <time>2025-11-18T16:42:08Z</time>
      </trkpt>
      <trkpt lat="44.34044" lon="3.8905">
        <ele>893.12</ele>
        <time>2025-11-18T16:42:16Z</time>
      </trkpt>
      <trkpt lat="44.34037" lon="3.89041">
        <ele>892.48</ele>
        <time>2025-11-18T16:42:24Z</time>
      </trkpt>
      <trkpt lat="44.34029" lon="3.89033">
        <ele>892.06</ele>
        <time>2025-11-18T16:42:33Z</time>
      </trkpt>
      <trkpt lat="44.34025" lon="3.89021">
        <ele>891.32</ele>
        <time>2025-11-18T16:42:42Z</time>
      </trkpt>
      <trkpt lat="44.34024" lon="3.89008">
        <ele>890.69</ele>
        <time>2025-11-18T16:42:50Z</time>
      </trkpt>
      <trkpt lat="44.34025" lon="3.88996">
        <ele>889.64</ele>
        <time>2025-11-18T16:42:59Z</time>
      </trkpt>
      <trkpt lat="44.34022" lon="3.88984">
        <ele>888.45</ele>
        <time>2025-11-18T16:43:07Z</time>
      </trkpt>
      <trkpt lat="44.34017" lon="3.88971">
        <ele>886.86</ele>
        <time>2025-11-18T16:43:20Z</time>
      </trkpt>
      <trkpt lat="44.34002" lon="3.8897">
        <ele>886.52</ele>
        <time>2025-11-18T16:43:30Z</time>
      </trkpt>
      <trkpt lat="44.33991" lon="3.88973">
        <ele>886.17</ele>
        <time>2025-11-18T16:43:38Z</time>
      </trkpt>
      <trkpt lat="44.3398" lon="3.88976">
        <ele>885.47</ele>
        <time>2025-11-18T16:43:46Z</time>
      </trkpt>
      <trkpt lat="44.33969" lon="3.8898">
        <ele>884.55</ele>
        <time>2025-11-18T16:43:55Z</time>
      </trkpt>
      <trkpt lat="44.3396" lon="3.88986">
        <ele>883.73</ele>
        <time>2025-11-18T16:44:03Z</time>
      </trkpt>
      <trkpt lat="44.3395" lon="3.88992">
        <ele>882.76</ele>
        <time>2025-11-18T16:44:12Z</time>
      </trkpt>
      <trkpt lat="44.3394" lon="3.89">
        <ele>881.93</ele>
        <time>2025-11-18T16:44:20Z</time>
      </trkpt>
      <trkpt lat="44.3393" lon="3.89007">
        <ele>880.77</ele>
        <time>2025-11-18T16:44:28Z</time>
      </trkpt>
      <trkpt lat="44.33921" lon="3.89013">
        <ele>879.82</ele>
        <time>2025-11-18T16:44:36Z</time>
      </trkpt>
      <trkpt lat="44.33913" lon="3.89019">
        <ele>878.83</ele>
        <time>2025-11-18T16:44:44Z</time>
      </trkpt>
      <trkpt lat="44.33905" lon="3.89028">
        <ele>877.95</ele>
        <time>2025-11-18T16:44:52Z</time>
      </trkpt>
      <trkpt lat="44.33898" lon="3.89038">
        <ele>876.53</ele>
        <time>2025-11-18T16:45:00Z</time>
      </trkpt>
      <trkpt lat="44.33891" lon="3.89047">
        <ele>875.57</ele>
        <time>2025-11-18T16:45:08Z</time>
      </trkpt>
      <trkpt lat="44.33883" lon="3.89053">
        <ele>874.33</ele>
        <time>2025-11-18T16:45:16Z</time>
      </trkpt>
      <trkpt lat="44.33878" lon="3.89065">
        <ele>873.66</ele>
        <time>2025-11-18T16:45:36Z</time>
      </trkpt>
      <trkpt lat="44.33871" lon="3.89075">
        <ele>871.07</ele>
        <time>2025-11-18T16:46:23Z</time>
      </trkpt>
      <trkpt lat="44.33864" lon="3.89083">
        <ele>869.07</ele>
        <time>2025-11-18T16:46:36Z</time>
      </trkpt>
      <trkpt lat="44.33856" lon="3.89089">
        <ele>867.27</ele>
        <time>2025-11-18T16:46:46Z</time>
      </trkpt>
      <trkpt lat="44.33847" lon="3.89094">
        <ele>865.31</ele>
        <time>2025-11-18T16:46:57Z</time>
      </trkpt>
      <trkpt lat="44.33836" lon="3.89099">
        <ele>863.03</ele>
        <time>2025-11-18T16:47:11Z</time>
      </trkpt>
      <trkpt lat="44.33827" lon="3.89101">
        <ele>861.92</ele>
        <time>2025-11-18T16:47:20Z</time>
      </trkpt>
      <trkpt lat="44.3382" lon="3.89103">
        <ele>860.14</ele>
        <time>2025-11-18T16:47:30Z</time>
      </trkpt>
      <trkpt lat="44.33811" lon="3.89104">
        <ele>858.86</ele>
        <time>2025-11-18T16:47:40Z</time>
      </trkpt>
      <trkpt lat="44.33803" lon="3.89101">
        <ele>857.93</ele>
        <time>2025-11-18T16:47:49Z</time>
      </trkpt>
      <trkpt lat="44.33794" lon="3.891">
        <ele>856.12</ele>
        <time>2025-11-18T16:48:04Z</time>
      </trkpt>
      <trkpt lat="44.33784" lon="3.89099">
        <ele>854.14</ele>
        <time>2025-11-18T16:48:22Z</time>
      </trkpt>
      <trkpt lat="44.33774" lon="3.89097">
        <ele>852.4</ele>
        <time>2025-11-18T16:48:35Z</time>
      </trkpt>
      <trkpt lat="44.33763" lon="3.89097">
        <ele>849.33</ele>
        <time>2025-11-18T16:48:55Z</time>
      </trkpt>
      <trkpt lat="44.33753" lon="3.89096">
        <ele>847.33</ele>
        <time>2025-11-18T16:49:09Z</time>
      </trkpt>
      <trkpt lat="44.33743" lon="3.89097">
        <ele>845.54</ele>
        <time>2025-11-18T16:49:22Z</time>
      </trkpt>
      <trkpt lat="44.33733" lon="3.89095">
        <ele>844.24</ele>
        <time>2025-11-18T16:49:35Z</time>
      </trkpt>
      <trkpt lat="44.33723" lon="3.89096">
        <ele>842.02</ele>
        <time>2025-11-18T16:49:47Z</time>
      </trkpt>
      <trkpt lat="44.33714" lon="3.89096">
        <ele>840.25</ele>
        <time>2025-11-18T16:50:00Z</time>
      </trkpt>
      <trkpt lat="44.33702" lon="3.89095">
        <ele>837.8</ele>
        <time>2025-11-18T16:50:14Z</time>
      </trkpt>
      <trkpt lat="44.33693" lon="3.89094">
        <ele>835.8</ele>
        <time>2025-11-18T16:50:27Z</time>
      </trkpt>
      <trkpt lat="44.33685" lon="3.89097">
        <ele>833.06</ele>
        <time>2025-11-18T16:50:44Z</time>
      </trkpt>
      <trkpt lat="44.33676" lon="3.89098">
        <ele>830.68</ele>
        <time>2025-11-18T16:51:07Z</time>
      </trkpt>
      <trkpt lat="44.33662" lon="3.89097">
        <ele>829</ele>
        <time>2025-11-18T16:51:28Z</time>
      </trkpt>
      <trkpt lat="44.3365" lon="3.89102">
        <ele>827.31</ele>
        <time>2025-11-18T16:51:46Z</time>
      </trkpt>
      <trkpt lat="44.33638" lon="3.89104">
        <ele>825.59</ele>
        <time>2025-11-18T16:52:01Z</time>
      </trkpt>
      <trkpt lat="44.33629" lon="3.89106">
        <ele>823.96</ele>
        <time>2025-11-18T16:52:15Z</time>
      </trkpt>
      <trkpt lat="44.33618" lon="3.89106">
        <ele>822.26</ele>
        <time>2025-11-18T16:52:32Z</time>
      </trkpt>
      <trkpt lat="44.33609" lon="3.89101">
        <ele>820.86</ele>
        <time>2025-11-18T16:52:45Z</time>
      </trkpt>
      <trkpt lat="44.33598" lon="3.89099">
        <ele>819.28</ele>
        <time>2025-11-18T16:53:03Z</time>
      </trkpt>
      <trkpt lat="44.33588" lon="3.89102">
        <ele>817.21</ele>
        <time>2025-11-18T16:53:18Z</time>
      </trkpt>
      <trkpt lat="44.33593" lon="3.89114">
        <ele>815.02</ele>
        <time>2025-11-18T16:53:36Z</time>
      </trkpt>
      <trkpt lat="44.33597" lon="3.89126">
        <ele>812.63</ele>
        <time>2025-11-18T16:53:54Z</time>
      </trkpt>
      <trkpt lat="44.33606" lon="3.89137">
        <ele>810.59</ele>
        <time>2025-11-18T16:54:11Z</time>
      </trkpt>
      <trkpt lat="44.33604" lon="3.8914">
        <ele>807.32</ele>
        <time>2025-11-18T16:54:37Z</time>
      </trkpt>
      <trkpt lat="44.33594" lon="3.89139">
        <ele>805.54</ele>
        <time>2025-11-18T16:54:51Z</time>
      </trkpt>
      <trkpt lat="44.33587" lon="3.89138">
        <ele>803.81</ele>
        <time>2025-11-18T16:55:04Z</time>
      </trkpt>
      <trkpt lat="44.33577" lon="3.89136">
        <ele>801.43</ele>
        <time>2025-11-18T16:55:19Z</time>
      </trkpt>
      <trkpt lat="44.33565" lon="3.89138">
        <ele>799.8</ele>
        <time>2025-11-18T16:55:37Z</time>
      </trkpt>
      <trkpt lat="44.33554" lon="3.89138">
        <ele>798.5</ele>
        <time>2025-11-18T16:55:48Z</time>
      </trkpt>
      <trkpt lat="44.33545" lon="3.89136">
        <ele>797.07</ele>
        <time>2025-11-18T16:56:00Z</time>
      </trkpt>
      <trkpt lat="44.33536" lon="3.89132">
        <ele>795.13</ele>
        <time>2025-11-18T16:56:14Z</time>
      </trkpt>
      <trkpt lat="44.33524" lon="3.89135">
        <ele>792.58</ele>
        <time>2025-11-18T16:56:31Z</time>
      </trkpt>
      <trkpt lat="44.33514" lon="3.89135">
        <ele>790.87</ele>
        <time>2025-11-18T16:56:47Z</time>
      </trkpt>
      <trkpt lat="44.33501" lon="3.89133">
        <ele>787.97</ele>
        <time>2025-11-18T16:57:07Z</time>
      </trkpt>
      <trkpt lat="44.33487" lon="3.8913">
        <ele>786.41</ele>
        <time>2025-11-18T16:57:23Z</time>
      </trkpt>
      <trkpt lat="44.33475" lon="3.89125">
        <ele>784.82</ele>
        <time>2025-11-18T16:57:42Z</time>
      </trkpt>
      <trkpt lat="44.33465" lon="3.89121">
        <ele>782.54</ele>
        <time>2025-11-18T16:58:00Z</time>
      </trkpt>
      <trkpt lat="44.33451" lon="3.89115">
        <ele>780.19</ele>
        <time>2025-11-18T16:58:18Z</time>
      </trkpt>
      <trkpt lat="44.33439" lon="3.89111">
        <ele>778.02</ele>
        <time>2025-11-18T16:58:36Z</time>
      </trkpt>
      <trkpt lat="44.33429" lon="3.89103">
        <ele>776.38</ele>
        <time>2025-11-18T16:58:52Z</time>
      </trkpt>
      <trkpt lat="44.33415" lon="3.891">
        <ele>773.7</ele>
        <time>2025-11-18T16:59:07Z</time>
      </trkpt>
      <trkpt lat="44.33408" lon="3.89092">
        <ele>772.12</ele>
        <time>2025-11-18T16:59:28Z</time>
      </trkpt>
      <trkpt lat="44.33398" lon="3.89098">
        <ele>769.75</ele>
        <time>2025-11-18T16:59:48Z</time>
      </trkpt>
      <trkpt lat="44.33397" lon="3.89112">
        <ele>767.66</ele>
        <time>2025-11-18T17:00:09Z</time>
      </trkpt>
      <trkpt lat="44.33399" lon="3.89123">
        <ele>765.68</ele>
        <time>2025-11-18T17:00:25Z</time>
      </trkpt>
      <trkpt lat="44.33402" lon="3.89133">
        <ele>763.87</ele>
        <time>2025-11-18T17:00:41Z</time>
      </trkpt>
      <trkpt lat="44.33407" lon="3.89146">
        <ele>762.43</ele>
        <time>2025-11-18T17:00:58Z</time>
      </trkpt>
      <trkpt lat="44.33414" lon="3.89156">
        <ele>760.55</ele>
        <time>2025-11-18T17:01:12Z</time>
      </trkpt>
      <trkpt lat="44.33419" lon="3.8917">
        <ele>758.62</ele>
        <time>2025-11-18T17:01:27Z</time>
      </trkpt>
      <trkpt lat="44.33432" lon="3.89187">
        <ele>757.44</ele>
        <time>2025-11-18T17:01:44Z</time>
      </trkpt>
      <trkpt lat="44.33443" lon="3.89199">
        <ele>755.34</ele>
        <time>2025-11-18T17:02:00Z</time>
      </trkpt>
      <trkpt lat="44.33455" lon="3.89218">
        <ele>753.09</ele>
        <time>2025-11-18T17:02:16Z</time>
      </trkpt>
      <trkpt lat="44.33454" lon="3.89226">
        <ele>750.88</ele>
        <time>2025-11-18T17:02:35Z</time>
      </trkpt>
      <trkpt lat="44.33445" lon="3.89222">
        <ele>749.15</ele>
        <time>2025-11-18T17:02:48Z</time>
      </trkpt>
      <trkpt lat="44.33435" lon="3.89221">
        <ele>747.28</ele>
        <time>2025-11-18T17:03:03Z</time>
      </trkpt>
      <trkpt lat="44.33425" lon="3.89215">
        <ele>744.75</ele>
        <time>2025-11-18T17:03:17Z</time>
      </trkpt>
      <trkpt lat="44.33414" lon="3.89212">
        <ele>742.57</ele>
        <time>2025-11-18T17:03:33Z</time>
      </trkpt>
      <trkpt lat="44.33409" lon="3.89203">
        <ele>740.04</ele>
        <time>2025-11-18T17:03:53Z</time>
      </trkpt>
      <trkpt lat="44.33397" lon="3.89194">
        <ele>737.88</ele>
        <time>2025-11-18T17:04:10Z</time>
      </trkpt>
      <trkpt lat="44.33382" lon="3.89187">
        <ele>736.25</ele>
        <time>2025-11-18T17:04:27Z</time>
      </trkpt>
      <trkpt lat="44.33376" lon="3.89179">
        <ele>735.75</ele>
        <time>2025-11-18T17:04:46Z</time>
      </trkpt>
      <trkpt lat="44.33369" lon="3.8917">
        <ele>733.28</ele>
        <time>2025-11-18T17:05:08Z</time>
      </trkpt>
      <trkpt lat="44.3336" lon="3.89164">
        <ele>730.76</ele>
        <time>2025-11-18T17:05:28Z</time>
      </trkpt>
      <trkpt lat="44.33345" lon="3.89163">
        <ele>729</ele>
        <time>2025-11-18T17:05:44Z</time>
      </trkpt>
      <trkpt lat="44.33332" lon="3.89161">
        <ele>726.65</ele>
        <time>2025-11-18T17:06:03Z</time>
      </trkpt>
      <trkpt lat="44.33317" lon="3.89157">
        <ele>724.9</ele>
        <time>2025-11-18T17:06:20Z</time>
      </trkpt>
      <trkpt lat="44.33307" lon="3.89149">
        <ele>722.77</ele>
        <time>2025-11-18T17:06:37Z</time>
      </trkpt>
      <trkpt lat="44.33294" lon="3.89142">
        <ele>720.98</ele>
        <time>2025-11-18T17:06:55Z</time>
      </trkpt>
      <trkpt lat="44.33282" lon="3.89137">
        <ele>718.97</ele>
        <time>2025-11-18T17:07:13Z</time>
      </trkpt>
      <trkpt lat="44.33271" lon="3.89135">
        <ele>718.46</ele>
        <time>2025-11-18T17:07:33Z</time>
      </trkpt>
      <trkpt lat="44.33269" lon="3.89136">
        <ele>719.03</ele>
        <time>2025-11-18T17:08:10Z</time>
      </trkpt>
      <trkpt lat="44.3326" lon="3.89136">
        <ele>718.25</ele>
        <time>2025-11-18T17:08:46Z</time>
      </trkpt>
      <trkpt lat="44.3325" lon="3.89131">
        <ele>716.69</ele>
        <time>2025-11-18T17:09:04Z</time>
      </trkpt>
      <trkpt lat="44.33243" lon="3.89136">
        <ele>712.92</ele>
        <time>2025-11-18T17:09:27Z</time>
      </trkpt>
      <trkpt lat="44.33239" lon="3.89143">
        <ele>710.53</ele>
        <time>2025-11-18T17:09:52Z</time>
      </trkpt>
      <trkpt lat="44.33231" lon="3.89156">
        <ele>708.7</ele>
        <time>2025-11-18T17:10:12Z</time>
      </trkpt>
      <trkpt lat="44.33225" lon="3.89164">
        <ele>706.56</ele>
        <time>2025-11-18T17:10:34Z</time>
      </trkpt>
      <trkpt lat="44.33215" lon="3.89168">
        <ele>704.45</ele>
        <time>2025-11-18T17:10:53Z</time>
      </trkpt>
      <trkpt lat="44.33202" lon="3.89171">
        <ele>703.11</ele>
        <time>2025-11-18T17:11:12Z</time>
      </trkpt>
      <trkpt lat="44.33188" lon="3.89174">
        <ele>701.32</ele>
        <time>2025-11-18T17:11:30Z</time>
      </trkpt>
      <trkpt lat="44.33178" lon="3.89178">
        <ele>699.54</ele>
        <time>2025-11-18T17:11:47Z</time>
      </trkpt>
      <trkpt lat="44.33166" lon="3.89187">
        <ele>697.8</ele>
        <time>2025-11-18T17:12:02Z</time>
      </trkpt>
      <trkpt lat="44.33159" lon="3.89196">
        <ele>696.2</ele>
        <time>2025-11-18T17:12:19Z</time>
      </trkpt>
      <trkpt lat="44.33159" lon="3.89204">
        <ele>695.33</ele>
        <time>2025-11-18T17:12:37Z</time>
      </trkpt>
      <trkpt lat="44.33153" lon="3.89215">
        <ele>693.5</ele>
        <time>2025-11-18T17:12:54Z</time>
      </trkpt>
      <trkpt lat="44.33148" lon="3.89225">
        <ele>692.51</ele>
        <time>2025-11-18T17:13:10Z</time>
      </trkpt>
      <trkpt lat="44.3314" lon="3.89243">
        <ele>690.09</ele>
        <time>2025-11-18T17:13:25Z</time>
      </trkpt>
      <trkpt lat="44.33129" lon="3.89253">
        <ele>687.74</ele>
        <time>2025-11-18T17:13:43Z</time>
      </trkpt>
      <trkpt lat="44.33124" lon="3.89267">
        <ele>686.17</ele>
        <time>2025-11-18T17:13:58Z</time>
      </trkpt>
      <trkpt lat="44.33121" lon="3.89282">
        <ele>683.87</ele>
        <time>2025-11-18T17:14:16Z</time>
      </trkpt>
      <trkpt lat="44.33115" lon="3.89298">
        <ele>682.12</ele>
        <time>2025-11-18T17:14:35Z</time>
      </trkpt>
      <trkpt lat="44.3311" lon="3.89311">
        <ele>680.17</ele>
        <time>2025-11-18T17:14:53Z</time>
      </trkpt>
      <trkpt lat="44.33102" lon="3.89325">
        <ele>678.31</ele>
        <time>2025-11-18T17:15:07Z</time>
      </trkpt>
      <trkpt lat="44.33109" lon="3.89335">
        <ele>676.07</ele>
        <time>2025-11-18T17:15:24Z</time>
      </trkpt>
      <trkpt lat="44.33113" lon="3.89344">
        <ele>673.4</ele>
        <time>2025-11-18T17:15:48Z</time>
      </trkpt>
      <trkpt lat="44.33108" lon="3.89353">
        <ele>672.08</ele>
        <time>2025-11-18T17:16:03Z</time>
      </trkpt>
      <trkpt lat="44.33103" lon="3.89366">
        <ele>669.67</ele>
        <time>2025-11-18T17:16:29Z</time>
      </trkpt>
      <trkpt lat="44.33099" lon="3.89381">
        <ele>666.83</ele>
        <time>2025-11-18T17:16:48Z</time>
      </trkpt>
      <trkpt lat="44.33113" lon="3.89385">
        <ele>665.41</ele>
        <time>2025-11-18T17:17:02Z</time>
      </trkpt>
      <trkpt lat="44.33124" lon="3.89388">
        <ele>664.79</ele>
        <time>2025-11-18T17:17:15Z</time>
      </trkpt>
      <trkpt lat="44.33128" lon="3.89378">
        <ele>663.12</ele>
        <time>2025-11-18T17:17:32Z</time>
      </trkpt>
      <trkpt lat="44.33138" lon="3.89369">
        <ele>661.62</ele>
        <time>2025-11-18T17:17:50Z</time>
      </trkpt>
      <trkpt lat="44.33149" lon="3.8936">
        <ele>659.67</ele>
        <time>2025-11-18T17:18:02Z</time>
      </trkpt>
      <trkpt lat="44.33156" lon="3.89348">
        <ele>657.29</ele>
        <time>2025-11-18T17:18:16Z</time>
      </trkpt>
      <trkpt lat="44.33165" lon="3.89338">
        <ele>655.4</ele>
        <time>2025-11-18T17:18:30Z</time>
      </trkpt>
      <trkpt lat="44.33179" lon="3.89332">
        <ele>653.9</ele>
        <time>2025-11-18T17:18:43Z</time>
      </trkpt>
      <trkpt lat="44.33191" lon="3.89332">
        <ele>652.73</ele>
        <time>2025-11-18T17:18:52Z</time>
      </trkpt>
      <trkpt lat="44.33201" lon="3.89332">
        <ele>652.06</ele>
        <time>2025-11-18T17:19:00Z</time>
      </trkpt>
      <trkpt lat="44.33209" lon="3.89332">
        <ele>651.66</ele>
        <time>2025-11-18T17:19:09Z</time>
      </trkpt>
      <trkpt lat="44.33215" lon="3.89339">
        <ele>650.83</ele>
        <time>2025-11-18T17:19:22Z</time>
      </trkpt>
      <trkpt lat="44.33224" lon="3.89344">
        <ele>650.55</ele>
        <time>2025-11-18T17:19:31Z</time>
      </trkpt>
      <trkpt lat="44.3323" lon="3.89349">
        <ele>650.25</ele>
        <time>2025-11-18T17:19:41Z</time>
      </trkpt>
      <trkpt lat="44.33241" lon="3.89349">
        <ele>650.04</ele>
        <time>2025-11-18T17:19:53Z</time>
      </trkpt>
      <trkpt lat="44.33241" lon="3.8936">
        <ele>649.26</ele>
        <time>2025-11-18T17:20:08Z</time>
      </trkpt>
      <trkpt lat="44.33247" lon="3.8937">
        <ele>648.42</ele>
        <time>2025-11-18T17:20:16Z</time>
      </trkpt>
      <trkpt lat="44.33247" lon="3.89381">
        <ele>646.96</ele>
        <time>2025-11-18T17:20:25Z</time>
      </trkpt>
      <trkpt lat="44.33246" lon="3.89394">
        <ele>646.08</ele>
        <time>2025-11-18T17:20:34Z</time>
      </trkpt>
      <trkpt lat="44.33249" lon="3.89404">
        <ele>645.63</ele>
        <time>2025-11-18T17:20:42Z</time>
      </trkpt>
      <trkpt lat="44.33248" lon="3.89417">
        <ele>644.94</ele>
        <time>2025-11-18T17:20:51Z</time>
      </trkpt>
      <trkpt lat="44.33245" lon="3.8943">
        <ele>644.21</ele>
        <time>2025-11-18T17:21:00Z</time>
      </trkpt>
      <trkpt lat="44.33247" lon="3.89443">
        <ele>643.48</ele>
        <time>2025-11-18T17:21:09Z</time>
      </trkpt>
      <trkpt lat="44.33254" lon="3.89453">
        <ele>642.97</ele>
        <time>2025-11-18T17:21:30Z</time>
      </trkpt>
      <trkpt lat="44.33261" lon="3.89463">
        <ele>642.27</ele>
        <time>2025-11-18T17:21:39Z</time>
      </trkpt>
      <trkpt lat="44.33265" lon="3.89475">
        <ele>641.06</ele>
        <time>2025-11-18T17:21:49Z</time>
      </trkpt>
      <trkpt lat="44.33273" lon="3.89485">
        <ele>639.75</ele>
        <time>2025-11-18T17:22:07Z</time>
      </trkpt>
      <trkpt lat="44.3328" lon="3.89493">
        <ele>637.96</ele>
        <time>2025-11-18T17:22:18Z</time>
      </trkpt>
      <trkpt lat="44.3329" lon="3.89497">
        <ele>636.13</ele>
        <time>2025-11-18T17:22:29Z</time>
      </trkpt>
      <trkpt lat="44.33296" lon="3.89507">
        <ele>634.51</ele>
        <time>2025-11-18T17:22:41Z</time>
      </trkpt>
      <trkpt lat="44.33303" lon="3.89518">
        <ele>633.01</ele>
        <time>2025-11-18T17:22:53Z</time>
      </trkpt>
      <trkpt lat="44.33306" lon="3.89529">
        <ele>631.4</ele>
        <time>2025-11-18T17:23:07Z</time>
      </trkpt>
      <trkpt lat="44.33296" lon="3.89525">
        <ele>630.82</ele>
        <time>2025-11-18T17:23:20Z</time>
      </trkpt>
      <trkpt lat="44.33285" lon="3.89525">
        <ele>630.69</ele>
        <time>2025-11-18T17:23:31Z</time>
      </trkpt>
      <trkpt lat="44.33276" lon="3.89521">
        <ele>630.17</ele>
        <time>2025-11-18T17:23:46Z</time>
      </trkpt>
      <trkpt lat="44.33265" lon="3.89516">
        <ele>629.49</ele>
        <time>2025-11-18T17:24:00Z</time>
      </trkpt>
      <trkpt lat="44.33258" lon="3.89505">
        <ele>627.99</ele>
        <time>2025-11-18T17:24:11Z</time>
      </trkpt>
      <trkpt lat="44.33249" lon="3.89498">
        <ele>627.36</ele>
        <time>2025-11-18T17:24:20Z</time>
      </trkpt>
      <trkpt lat="44.3324" lon="3.89491">
        <ele>627.12</ele>
        <time>2025-11-18T17:24:28Z</time>
      </trkpt>
      <trkpt lat="44.33229" lon="3.89482">
        <ele>627.13</ele>
        <time>2025-11-18T17:24:38Z</time>
      </trkpt>
      <trkpt lat="44.33224" lon="3.89472">
        <ele>625.97</ele>
        <time>2025-11-18T17:24:48Z</time>
      </trkpt>
      <trkpt lat="44.33217" lon="3.89462">
        <ele>624.92</ele>
        <time>2025-11-18T17:24:57Z</time>
      </trkpt>
      <trkpt lat="44.3321" lon="3.89454">
        <ele>623.84</ele>
        <time>2025-11-18T17:25:07Z</time>
      </trkpt>
      <trkpt lat="44.33203" lon="3.89452">
        <ele>624</ele>
        <time>2025-11-18T17:25:34Z</time>
      </trkpt>
      <trkpt lat="44.33201" lon="3.89447">
        <ele>623.73</ele>
        <time>2025-11-18T17:26:05Z</time>
      </trkpt>
      <trkpt lat="44.33208" lon="3.89454">
        <ele>623.55</ele>
        <time>2025-11-18T17:26:29Z</time>
      </trkpt>
    </trkseg>
  </trk>
</gpx>